<?xml version="1.0" encoding="ISO-8859-1"?>
<gpx version="1.1" 
creator="Memory-Map 5.4.2.1089 http://www.memory-map.com"
 xmlns:xsi="http://www.w3.org/2001/XMLSchema-instance"
 xmlns="http://www.topografix.com/GPX/1/1"
 xsi:schemaLocation="http://www.topografix.com/GPX/1/1 http://www.topografix.com/GPX/1/1/gpx.xsd">
<trk>
<name>Shutlingsloeand Shining Tor</name>
<type>Track</type>
<trkseg>
<trkpt lat="53.2434368292" lon="-2.0828086694"><ele>172</ele><time>2012-12-08T08:48:46Z</time></trkpt>
<trkpt lat="53.2432968299" lon="-2.0828183333"><ele>217</ele><time>2012-12-08T08:52:47Z</time></trkpt>
<trkpt lat="53.2431621710" lon="-2.0827860037"><ele>216</ele><time>2012-12-08T08:53:16Z</time></trkpt>
<trkpt lat="53.2430323283" lon="-2.0827241659"><ele>215</ele><time>2012-12-08T08:53:34Z</time></trkpt>
<trkpt lat="53.2428896745" lon="-2.0826931636"><ele>214</ele><time>2012-12-08T08:54:00Z</time></trkpt>
<trkpt lat="53.2427464962" lon="-2.0826894999"><ele>215</ele><time>2012-12-08T08:54:15Z</time></trkpt>
<trkpt lat="53.2426061630" lon="-2.0827013334"><ele>215</ele><time>2012-12-08T08:54:26Z</time></trkpt>
<trkpt lat="53.2424746672" lon="-2.0825743357"><ele>215</ele><time>2012-12-08T08:54:51Z</time></trkpt>
<trkpt lat="53.2423383395" lon="-2.0825845003"><ele>214</ele><time>2012-12-08T08:55:15Z</time></trkpt>
<trkpt lat="53.2422340075" lon="-2.0827336629"><ele>213</ele><time>2012-12-08T08:55:30Z</time></trkpt>
<trkpt lat="53.2420956612" lon="-2.0828274965"><ele>212</ele><time>2012-12-08T08:55:40Z</time></trkpt>
<trkpt lat="53.2419833342" lon="-2.0829528332"><ele>212</ele><time>2012-12-08T08:55:51Z</time></trkpt>
<trkpt lat="53.2418586731" lon="-2.0830540021"><ele>211</ele><time>2012-12-08T08:56:02Z</time></trkpt>
<trkpt lat="53.2417475065" lon="-2.0831981659"><ele>211</ele><time>2012-12-08T08:56:14Z</time></trkpt>
<trkpt lat="53.2416341623" lon="-2.0833336671"><ele>209</ele><time>2012-12-08T08:56:27Z</time></trkpt>
<trkpt lat="53.2414985021" lon="-2.0834238370"><ele>209</ele><time>2012-12-08T08:56:38Z</time></trkpt>
<trkpt lat="53.2413874944" lon="-2.0835523367"><ele>209</ele><time>2012-12-08T08:56:50Z</time></trkpt>
<trkpt lat="53.2412706693" lon="-2.0836648305"><ele>209</ele><time>2012-12-08T08:57:09Z</time></trkpt>
<trkpt lat="53.2411235015" lon="-2.0836958329"><ele>209</ele><time>2012-12-08T08:57:19Z</time></trkpt>
<trkpt lat="53.2409803391" lon="-2.0836714983"><ele>209</ele><time>2012-12-08T08:57:29Z</time></trkpt>
<trkpt lat="53.2408665021" lon="-2.0835331678"><ele>209</ele><time>2012-12-08T08:57:41Z</time></trkpt>
<trkpt lat="53.2408400059" lon="-2.0833024979"><ele>209</ele><time>2012-12-08T08:57:52Z</time></trkpt>
<trkpt lat="53.2407968362" lon="-2.0830705007"><ele>209</ele><time>2012-12-08T08:58:03Z</time></trkpt>
<trkpt lat="53.2407761733" lon="-2.0828443368"><ele>209</ele><time>2012-12-08T08:58:14Z</time></trkpt>
<trkpt lat="53.2407485008" lon="-2.0826043367"><ele>209</ele><time>2012-12-08T08:58:25Z</time></trkpt>
<trkpt lat="53.2407409986" lon="-2.0823750019"><ele>210</ele><time>2012-12-08T08:58:36Z</time></trkpt>
<trkpt lat="53.2407236735" lon="-2.0821436644"><ele>210</ele><time>2012-12-08T08:58:47Z</time></trkpt>
<trkpt lat="53.2407124996" lon="-2.0819023371"><ele>210</ele><time>2012-12-08T08:58:58Z</time></trkpt>
<trkpt lat="53.2407056650" lon="-2.0816691637"><ele>210</ele><time>2012-12-08T08:59:09Z</time></trkpt>
<trkpt lat="53.2406579971" lon="-2.0814463298"><ele>210</ele><time>2012-12-08T08:59:25Z</time></trkpt>
<trkpt lat="53.2406490008" lon="-2.0812186639"><ele>210</ele><time>2012-12-08T08:59:35Z</time></trkpt>
<trkpt lat="53.2406239986" lon="-2.0809906642"><ele>210</ele><time>2012-12-08T08:59:46Z</time></trkpt>
<trkpt lat="53.2405553341" lon="-2.0807831685"><ele>210</ele><time>2012-12-08T08:59:57Z</time></trkpt>
<trkpt lat="53.2404856682" lon="-2.0805738370"><ele>210</ele><time>2012-12-08T09:00:09Z</time></trkpt>
<trkpt lat="53.2404300054" lon="-2.0803529978"><ele>210</ele><time>2012-12-08T09:00:20Z</time></trkpt>
<trkpt lat="53.2403773308" lon="-2.0801445007"><ele>209</ele><time>2012-12-08T09:00:30Z</time></trkpt>
<trkpt lat="53.2402956645" lon="-2.0799508333"><ele>209</ele><time>2012-12-08T09:00:40Z</time></trkpt>
<trkpt lat="53.2402256648" lon="-2.0797481696"><ele>209</ele><time>2012-12-08T09:00:50Z</time></trkpt>
<trkpt lat="53.2401529948" lon="-2.0795336644"><ele>210</ele><time>2012-12-08T09:01:01Z</time></trkpt>
<trkpt lat="53.2401073297" lon="-2.0793150028"><ele>210</ele><time>2012-12-08T09:01:12Z</time></trkpt>
<trkpt lat="53.2400961717" lon="-2.0790824970"><ele>210</ele><time>2012-12-08T09:01:31Z</time></trkpt>
<trkpt lat="53.2401138306" lon="-2.0788523356"><ele>210</ele><time>2012-12-08T09:01:41Z</time></trkpt>
<trkpt lat="53.2401546637" lon="-2.0786329985"><ele>210</ele><time>2012-12-08T09:01:51Z</time></trkpt>
<trkpt lat="53.2401883284" lon="-2.0784093301"><ele>210</ele><time>2012-12-08T09:02:01Z</time></trkpt>
<trkpt lat="53.2402276675" lon="-2.0781808297"><ele>210</ele><time>2012-12-08T09:02:14Z</time></trkpt>
<trkpt lat="53.2402239958" lon="-2.0779524962"><ele>210</ele><time>2012-12-08T09:02:25Z</time></trkpt>
<trkpt lat="53.2400975068" lon="-2.0778338353"><ele>210</ele><time>2012-12-08T09:02:39Z</time></trkpt>
<trkpt lat="53.2399795055" lon="-2.0777043343"><ele>210</ele><time>2012-12-08T09:02:49Z</time></trkpt>
<trkpt lat="53.2398554961" lon="-2.0776051680"><ele>210</ele><time>2012-12-08T09:02:59Z</time></trkpt>
<trkpt lat="53.2397315025" lon="-2.0775005023"><ele>210</ele><time>2012-12-08T09:03:09Z</time></trkpt>
<trkpt lat="53.2396084944" lon="-2.0773906628"><ele>209</ele><time>2012-12-08T09:03:20Z</time></trkpt>
<trkpt lat="53.2394776662" lon="-2.0772808313"><ele>209</ele><time>2012-12-08T09:03:31Z</time></trkpt>
<trkpt lat="53.2393603325" lon="-2.0771406651"><ele>209</ele><time>2012-12-08T09:03:41Z</time></trkpt>
<trkpt lat="53.2392503262" lon="-2.0770078341"><ele>210</ele><time>2012-12-08T09:03:51Z</time></trkpt>
<trkpt lat="53.2391501745" lon="-2.0768478314"><ele>210</ele><time>2012-12-08T09:04:02Z</time></trkpt>
<trkpt lat="53.2390454928" lon="-2.0766736666"><ele>210</ele><time>2012-12-08T09:04:12Z</time></trkpt>
<trkpt lat="53.2389524937" lon="-2.0765068372"><ele>210</ele><time>2012-12-08T09:04:23Z</time></trkpt>
<trkpt lat="53.2388510068" lon="-2.0763399998"><ele>210</ele><time>2012-12-08T09:04:34Z</time></trkpt>
<trkpt lat="53.2387421608" lon="-2.0761799971"><ele>210</ele><time>2012-12-08T09:04:46Z</time></trkpt>
<trkpt lat="53.2386456649" lon="-2.0760080020"><ele>210</ele><time>2012-12-08T09:04:57Z</time></trkpt>
<trkpt lat="53.2385806719" lon="-2.0758028348"><ele>211</ele><time>2012-12-08T09:05:14Z</time></trkpt>
<trkpt lat="53.2385383288" lon="-2.0755888303"><ele>211</ele><time>2012-12-08T09:05:27Z</time></trkpt>
<trkpt lat="53.2384691715" lon="-2.0753936688"><ele>211</ele><time>2012-12-08T09:05:38Z</time></trkpt>
<trkpt lat="53.2384016673" lon="-2.0751978318"><ele>211</ele><time>2012-12-08T09:05:49Z</time></trkpt>
<trkpt lat="53.2383376598" lon="-2.0749911706"><ele>211</ele><time>2012-12-08T09:06:02Z</time></trkpt>
<trkpt lat="53.2382835070" lon="-2.0747801701"><ele>211</ele><time>2012-12-08T09:06:14Z</time></trkpt>
<trkpt lat="53.2382070065" lon="-2.0745848338"><ele>212</ele><time>2012-12-08T09:06:28Z</time></trkpt>
<trkpt lat="53.2381078402" lon="-2.0744084994"><ele>212</ele><time>2012-12-08T09:06:42Z</time></trkpt>
<trkpt lat="53.2380323410" lon="-2.0742106676"><ele>213</ele><time>2012-12-08T09:06:53Z</time></trkpt>
<trkpt lat="53.2379724979" lon="-2.0739905039"><ele>213</ele><time>2012-12-08T09:07:05Z</time></trkpt>
<trkpt lat="53.2379363378" lon="-2.0737698317"><ele>214</ele><time>2012-12-08T09:07:18Z</time></trkpt>
<trkpt lat="53.2378664970" lon="-2.0735620022"><ele>214</ele><time>2012-12-08T09:07:33Z</time></trkpt>
<trkpt lat="53.2377399921" lon="-2.0734505018"><ele>214</ele><time>2012-12-08T09:07:49Z</time></trkpt>
<trkpt lat="53.2378718376" lon="-2.0733985027"><ele>214</ele><time>2012-12-08T09:08:15Z</time></trkpt>
<trkpt lat="53.2380048275" lon="-2.0733448346"><ele>216</ele><time>2012-12-08T09:08:42Z</time></trkpt>
<trkpt lat="53.2381199996" lon="-2.0734758298"><ele>215</ele><time>2012-12-08T09:08:52Z</time></trkpt>
<trkpt lat="53.2382226626" lon="-2.0736216704"><ele>216</ele><time>2012-12-08T09:09:05Z</time></trkpt>
<trkpt lat="53.2383308411" lon="-2.0737681627"><ele>216</ele><time>2012-12-08T09:09:22Z</time></trkpt>
<trkpt lat="53.2384534995" lon="-2.0738629977"><ele>217</ele><time>2012-12-08T09:09:42Z</time></trkpt>
<trkpt lat="53.2385913372" lon="-2.0738689979"><ele>219</ele><time>2012-12-08T09:10:08Z</time></trkpt>
<trkpt lat="53.2387216727" lon="-2.0738111655"><ele>220</ele><time>2012-12-08T09:10:25Z</time></trkpt>
<trkpt lat="53.2388463338" lon="-2.0737098296"><ele>224</ele><time>2012-12-08T09:10:44Z</time></trkpt>
<trkpt lat="53.2389888287" lon="-2.0737143358"><ele>227</ele><time>2012-12-08T09:11:00Z</time></trkpt>
<trkpt lat="53.2391196728" lon="-2.0736344973"><ele>229</ele><time>2012-12-08T09:11:15Z</time></trkpt>
<trkpt lat="53.2390708288" lon="-2.0734203339"><ele>230</ele><time>2012-12-08T09:11:27Z</time></trkpt>
<trkpt lat="53.2389890035" lon="-2.0732330004"><ele>232</ele><time>2012-12-08T09:11:38Z</time></trkpt>
<trkpt lat="53.2389013290" lon="-2.0730581681"><ele>234</ele><time>2012-12-08T09:11:48Z</time></trkpt>
<trkpt lat="53.2387903372" lon="-2.0729063352"><ele>235</ele><time>2012-12-08T09:11:59Z</time></trkpt>
<trkpt lat="53.2386821588" lon="-2.0727555037"><ele>236</ele><time>2012-12-08T09:12:09Z</time></trkpt>
<trkpt lat="53.2386115074" lon="-2.0725488345"><ele>237</ele><time>2012-12-08T09:12:21Z</time></trkpt>
<trkpt lat="53.2385639985" lon="-2.0723198334"><ele>238</ele><time>2012-12-08T09:12:33Z</time></trkpt>
<trkpt lat="53.2385515054" lon="-2.0720916669"><ele>238</ele><time>2012-12-08T09:12:43Z</time></trkpt>
<trkpt lat="53.2385721684" lon="-2.0718586683"><ele>238</ele><time>2012-12-08T09:12:54Z</time></trkpt>
<trkpt lat="53.2386306604" lon="-2.0716551701"><ele>238</ele><time>2012-12-08T09:13:10Z</time></trkpt>
<trkpt lat="53.2385773341" lon="-2.0714451631"><ele>238</ele><time>2012-12-08T09:13:21Z</time></trkpt>
<trkpt lat="53.2385096709" lon="-2.0712486664"><ele>237</ele><time>2012-12-08T09:13:42Z</time></trkpt>
<trkpt lat="53.2384439945" lon="-2.0710403363"><ele>237</ele><time>2012-12-08T09:13:55Z</time></trkpt>
<trkpt lat="53.2383846601" lon="-2.0708175023"><ele>237</ele><time>2012-12-08T09:14:05Z</time></trkpt>
<trkpt lat="53.2382764975" lon="-2.0706789970"><ele>237</ele><time>2012-12-08T09:14:15Z</time></trkpt>
<trkpt lat="53.2382016659" lon="-2.0704896688"><ele>237</ele><time>2012-12-08T09:14:26Z</time></trkpt>
<trkpt lat="53.2381039937" lon="-2.0703329961"><ele>238</ele><time>2012-12-08T09:14:43Z</time></trkpt>
<trkpt lat="53.2379661719" lon="-2.0703135014"><ele>240</ele><time>2012-12-08T09:14:59Z</time></trkpt>
<trkpt lat="53.2378413359" lon="-2.0704116662"><ele>241</ele><time>2012-12-08T09:15:16Z</time></trkpt>
<trkpt lat="53.2377105077" lon="-2.0703486681"><ele>242</ele><time>2012-12-08T09:15:29Z</time></trkpt>
<trkpt lat="53.2375724951" lon="-2.0703059991"><ele>243</ele><time>2012-12-08T09:15:41Z</time></trkpt>
<trkpt lat="53.2374354998" lon="-2.0703046640"><ele>245</ele><time>2012-12-08T09:15:53Z</time></trkpt>
<trkpt lat="53.2373016675" lon="-2.0703349988"><ele>246</ele><time>2012-12-08T09:16:09Z</time></trkpt>
<trkpt lat="53.2371644974" lon="-2.0703551690"><ele>246</ele><time>2012-12-08T09:16:20Z</time></trkpt>
<trkpt lat="53.2370273272" lon="-2.0703725020"><ele>248</ele><time>2012-12-08T09:16:34Z</time></trkpt>
<trkpt lat="53.2368895054" lon="-2.0703518311"><ele>249</ele><time>2012-12-08T09:16:47Z</time></trkpt>
<trkpt lat="53.2368073304" lon="-2.0701653322"><ele>250</ele><time>2012-12-08T09:17:00Z</time></trkpt>
<trkpt lat="53.2367883364" lon="-2.0699263334"><ele>250</ele><time>2012-12-08T09:17:13Z</time></trkpt>
<trkpt lat="53.2367870013" lon="-2.0696903308"><ele>251</ele><time>2012-12-08T09:17:26Z</time></trkpt>
<trkpt lat="53.2367678324" lon="-2.0694655021"><ele>251</ele><time>2012-12-08T09:17:36Z</time></trkpt>
<trkpt lat="53.2367728392" lon="-2.0692408323"><ele>252</ele><time>2012-12-08T09:17:47Z</time></trkpt>
<trkpt lat="53.2367801666" lon="-2.0690108299"><ele>252</ele><time>2012-12-08T09:17:58Z</time></trkpt>
<trkpt lat="53.2367291609" lon="-2.0687829971"><ele>253</ele><time>2012-12-08T09:18:09Z</time></trkpt>
<trkpt lat="53.2367176692" lon="-2.0685481628"><ele>254</ele><time>2012-12-08T09:18:20Z</time></trkpt>
<trkpt lat="53.2367218335" lon="-2.0683130026"><ele>255</ele><time>2012-12-08T09:18:32Z</time></trkpt>
<trkpt lat="53.2367158254" lon="-2.0680790027"><ele>255</ele><time>2012-12-08T09:18:44Z</time></trkpt>
<trkpt lat="53.2366953373" lon="-2.0678446690"><ele>255</ele><time>2012-12-08T09:18:56Z</time></trkpt>
<trkpt lat="53.2366528352" lon="-2.0676196655"><ele>256</ele><time>2012-12-08T09:19:07Z</time></trkpt>
<trkpt lat="53.2366571744" lon="-2.0673821688"><ele>256</ele><time>2012-12-08T09:19:20Z</time></trkpt>
<trkpt lat="53.2366944949" lon="-2.0671624978"><ele>257</ele><time>2012-12-08T09:19:32Z</time></trkpt>
<trkpt lat="53.2366731644" lon="-2.0669404984"><ele>258</ele><time>2012-12-08T09:19:43Z</time></trkpt>
<trkpt lat="53.2366773287" lon="-2.0667119980"><ele>259</ele><time>2012-12-08T09:19:53Z</time></trkpt>
<trkpt lat="53.2365946611" lon="-2.0665265004"><ele>260</ele><time>2012-12-08T09:20:11Z</time></trkpt>
<trkpt lat="53.2364844958" lon="-2.0663686673"><ele>260</ele><time>2012-12-08T09:20:24Z</time></trkpt>
<trkpt lat="53.2363804976" lon="-2.0662056684"><ele>261</ele><time>2012-12-08T09:20:36Z</time></trkpt>
<trkpt lat="53.2362848282" lon="-2.0660398324"><ele>262</ele><time>2012-12-08T09:20:48Z</time></trkpt>
<trkpt lat="53.2361814976" lon="-2.0658846656"><ele>264</ele><time>2012-12-08T09:21:03Z</time></trkpt>
<trkpt lat="53.2360715071" lon="-2.0657474995"><ele>266</ele><time>2012-12-08T09:21:17Z</time></trkpt>
<trkpt lat="53.2359364986" lon="-2.0657661676"><ele>267</ele><time>2012-12-08T09:21:30Z</time></trkpt>
<trkpt lat="53.2358016650" lon="-2.0657679995"><ele>268</ele><time>2012-12-08T09:21:45Z</time></trkpt>
<trkpt lat="53.2356794993" lon="-2.0658686678"><ele>269</ele><time>2012-12-08T09:22:01Z</time></trkpt>
<trkpt lat="53.2355474949" lon="-2.0659528335"><ele>270</ele><time>2012-12-08T09:22:15Z</time></trkpt>
<trkpt lat="53.2354129950" lon="-2.0660126686"><ele>271</ele><time>2012-12-08T09:22:31Z</time></trkpt>
<trkpt lat="53.2352849960" lon="-2.0660961668"><ele>273</ele><time>2012-12-08T09:22:48Z</time></trkpt>
<trkpt lat="53.2351504962" lon="-2.0661273321"><ele>274</ele><time>2012-12-08T09:23:02Z</time></trkpt>
<trkpt lat="53.2350248337" lon="-2.0662094990"><ele>276</ele><time>2012-12-08T09:23:19Z</time></trkpt>
<trkpt lat="53.2348969936" lon="-2.0663061659"><ele>277</ele><time>2012-12-08T09:23:35Z</time></trkpt>
<trkpt lat="53.2347638289" lon="-2.0663666685"><ele>282</ele><time>2012-12-08T09:24:00Z</time></trkpt>
<trkpt lat="53.2346221606" lon="-2.0663638314"><ele>285</ele><time>2012-12-08T09:24:15Z</time></trkpt>
<trkpt lat="53.2344851653" lon="-2.0663223346"><ele>288</ele><time>2012-12-08T09:24:31Z</time></trkpt>
<trkpt lat="53.2343664964" lon="-2.0662026683"><ele>290</ele><time>2012-12-08T09:24:45Z</time></trkpt>
<trkpt lat="53.2342481613" lon="-2.0660936673"><ele>293</ele><time>2012-12-08T09:24:57Z</time></trkpt>
<trkpt lat="53.2341331641" lon="-2.0659686685"><ele>295</ele><time>2012-12-08T09:25:08Z</time></trkpt>
<trkpt lat="53.2340193272" lon="-2.0658169985"><ele>297</ele><time>2012-12-08T09:25:22Z</time></trkpt>
<trkpt lat="53.2338966688" lon="-2.0657061656"><ele>298</ele><time>2012-12-08T09:25:34Z</time></trkpt>
<trkpt lat="53.2337881724" lon="-2.0655675014"><ele>298</ele><time>2012-12-08T09:25:45Z</time></trkpt>
<trkpt lat="53.2336816629" lon="-2.0654138327"><ele>300</ele><time>2012-12-08T09:25:56Z</time></trkpt>
<trkpt lat="53.2335593383" lon="-2.0653166652"><ele>300</ele><time>2012-12-08T09:26:08Z</time></trkpt>
<trkpt lat="53.2334246635" lon="-2.0652453343"><ele>301</ele><time>2012-12-08T09:26:18Z</time></trkpt>
<trkpt lat="53.2332996686" lon="-2.0651541670"><ele>302</ele><time>2012-12-08T09:26:30Z</time></trkpt>
<trkpt lat="53.2331661701" lon="-2.0650943319"><ele>303</ele><time>2012-12-08T09:26:41Z</time></trkpt>
<trkpt lat="53.2330253283" lon="-2.0650394996"><ele>304</ele><time>2012-12-08T09:26:52Z</time></trkpt>
<trkpt lat="53.2328871727" lon="-2.0649608334"><ele>307</ele><time>2012-12-08T09:27:03Z</time></trkpt>
<trkpt lat="53.2327524980" lon="-2.0648984989"><ele>308</ele><time>2012-12-08T09:27:14Z</time></trkpt>
<trkpt lat="53.2326236725" lon="-2.0648143331"><ele>309</ele><time>2012-12-08T09:27:26Z</time></trkpt>
<trkpt lat="53.2324951649" lon="-2.0647348324"><ele>310</ele><time>2012-12-08T09:27:39Z</time></trkpt>
<trkpt lat="53.2324033260" lon="-2.0645684997"><ele>311</ele><time>2012-12-08T09:27:51Z</time></trkpt>
<trkpt lat="53.2323959986" lon="-2.0643326680"><ele>313</ele><time>2012-12-08T09:28:03Z</time></trkpt>
<trkpt lat="53.2323216597" lon="-2.0641221682"><ele>314</ele><time>2012-12-08T09:28:14Z</time></trkpt>
<trkpt lat="53.2322661718" lon="-2.0639045000"><ele>315</ele><time>2012-12-08T09:28:26Z</time></trkpt>
<trkpt lat="53.2322659969" lon="-2.0636715015"><ele>316</ele><time>2012-12-08T09:28:38Z</time></trkpt>
<trkpt lat="53.2322143396" lon="-2.0634583314"><ele>317</ele><time>2012-12-08T09:28:51Z</time></trkpt>
<trkpt lat="53.2321664969" lon="-2.0632293344"><ele>318</ele><time>2012-12-08T09:29:03Z</time></trkpt>
<trkpt lat="53.2321063360" lon="-2.0630281647"><ele>320</ele><time>2012-12-08T09:29:14Z</time></trkpt>
<trkpt lat="53.2320344925" lon="-2.0628135006"><ele>321</ele><time>2012-12-08T09:29:28Z</time></trkpt>
<trkpt lat="53.2319393317" lon="-2.0626251658"><ele>322</ele><time>2012-12-08T09:29:41Z</time></trkpt>
<trkpt lat="53.2318611622" lon="-2.0624301672"><ele>323</ele><time>2012-12-08T09:29:54Z</time></trkpt>
<trkpt lat="53.2317778269" lon="-2.0622435013"><ele>323</ele><time>2012-12-08T09:30:05Z</time></trkpt>
<trkpt lat="53.2316905022" lon="-2.0620670001"><ele>324</ele><time>2012-12-08T09:30:18Z</time></trkpt>
<trkpt lat="53.2316033363" lon="-2.0618780017"><ele>325</ele><time>2012-12-08T09:30:30Z</time></trkpt>
<trkpt lat="53.2315214952" lon="-2.0616725008"><ele>327</ele><time>2012-12-08T09:30:40Z</time></trkpt>
<trkpt lat="53.2314359983" lon="-2.0614763339"><ele>328</ele><time>2012-12-08T09:30:53Z</time></trkpt>
<trkpt lat="53.2313488324" lon="-2.0612986684"><ele>329</ele><time>2012-12-08T09:31:07Z</time></trkpt>
<trkpt lat="53.2312181632" lon="-2.0611900012"><ele>330</ele><time>2012-12-08T09:31:22Z</time></trkpt>
<trkpt lat="53.2310858409" lon="-2.0611113350"><ele>330</ele><time>2012-12-08T09:31:34Z</time></trkpt>
<trkpt lat="53.2309559981" lon="-2.0610051672"><ele>332</ele><time>2012-12-08T09:31:48Z</time></trkpt>
<trkpt lat="53.2308438301" lon="-2.0608728329"><ele>334</ele><time>2012-12-08T09:32:02Z</time></trkpt>
<trkpt lat="53.2307793299" lon="-2.0606660008"><ele>334</ele><time>2012-12-08T09:32:14Z</time></trkpt>
<trkpt lat="53.2307568391" lon="-2.0604315003"><ele>337</ele><time>2012-12-08T09:32:40Z</time></trkpt>
<trkpt lat="53.2307023366" lon="-2.0602216681"><ele>338</ele><time>2012-12-08T09:32:56Z</time></trkpt>
<trkpt lat="53.2306841691" lon="-2.0599976659"><ele>339</ele><time>2012-12-08T09:33:11Z</time></trkpt>
<trkpt lat="53.2306583405" lon="-2.0597756664"><ele>341</ele><time>2012-12-08T09:33:23Z</time></trkpt>
<trkpt lat="53.2306231658" lon="-2.0595443328"><ele>342</ele><time>2012-12-08T09:33:37Z</time></trkpt>
<trkpt lat="53.2305816650" lon="-2.0593248328"><ele>343</ele><time>2012-12-08T09:33:49Z</time></trkpt>
<trkpt lat="53.2305766741" lon="-2.0590915004"><ele>344</ele><time>2012-12-08T09:34:05Z</time></trkpt>
<trkpt lat="53.2305233320" lon="-2.0588799993"><ele>346</ele><time>2012-12-08T09:34:19Z</time></trkpt>
<trkpt lat="53.2304318269" lon="-2.0586951653"><ele>346</ele><time>2012-12-08T09:34:33Z</time></trkpt>
<trkpt lat="53.2303728263" lon="-2.0584806681"><ele>347</ele><time>2012-12-08T09:34:47Z</time></trkpt>
<trkpt lat="53.2303371588" lon="-2.0582488338"><ele>348</ele><time>2012-12-08T09:35:01Z</time></trkpt>
<trkpt lat="53.2303099950" lon="-2.0580284993"><ele>349</ele><time>2012-12-08T09:35:14Z</time></trkpt>
<trkpt lat="53.2303051631" lon="-2.0577958345"><ele>351</ele><time>2012-12-08T09:35:27Z</time></trkpt>
<trkpt lat="53.2303140004" lon="-2.0575710018"><ele>353</ele><time>2012-12-08T09:35:41Z</time></trkpt>
<trkpt lat="53.2303764979" lon="-2.0573628346"><ele>355</ele><time>2012-12-08T09:35:54Z</time></trkpt>
<trkpt lat="53.2305178324" lon="-2.0572478334"><ele>357</ele><time>2012-12-08T09:36:04Z</time></trkpt>
<trkpt lat="53.2306483269" lon="-2.0571746667"><ele>360</ele><time>2012-12-08T09:36:20Z</time></trkpt>
<trkpt lat="53.2307789961" lon="-2.0571119984"><ele>363</ele><time>2012-12-08T09:36:38Z</time></trkpt>
<trkpt lat="53.2308914979" lon="-2.0569663326"><ele>365</ele><time>2012-12-08T09:36:53Z</time></trkpt>
<trkpt lat="53.2309940020" lon="-2.0568128347"><ele>368</ele><time>2012-12-08T09:37:07Z</time></trkpt>
<trkpt lat="53.2311089993" lon="-2.0566805005"><ele>369</ele><time>2012-12-08T09:37:20Z</time></trkpt>
<trkpt lat="53.2312413375" lon="-2.0566148321"><ele>377</ele><time>2012-12-08T09:38:35Z</time></trkpt>
<trkpt lat="53.2313653310" lon="-2.0565050006"><ele>378</ele><time>2012-12-08T09:39:10Z</time></trkpt>
<trkpt lat="53.2314958254" lon="-2.0564405004"><ele>379</ele><time>2012-12-08T09:39:24Z</time></trkpt>
<trkpt lat="53.2316164970" lon="-2.0565406680"><ele>379</ele><time>2012-12-08T09:39:43Z</time></trkpt>
<trkpt lat="53.2317486604" lon="-2.0565905015"><ele>379</ele><time>2012-12-08T09:39:57Z</time></trkpt>
<trkpt lat="53.2318901698" lon="-2.0566036661"><ele>380</ele><time>2012-12-08T09:40:11Z</time></trkpt>
<trkpt lat="53.2320308367" lon="-2.0565531651"><ele>380</ele><time>2012-12-08T09:40:21Z</time></trkpt>
<trkpt lat="53.2321366628" lon="-2.0564033349"><ele>380</ele><time>2012-12-08T09:40:32Z</time></trkpt>
<trkpt lat="53.2322118282" lon="-2.0562023322"><ele>381</ele><time>2012-12-08T09:40:47Z</time></trkpt>
<trkpt lat="53.2322515011" lon="-2.0559794982"><ele>382</ele><time>2012-12-08T09:41:05Z</time></trkpt>
<trkpt lat="53.2322146734" lon="-2.0557473342"><ele>384</ele><time>2012-12-08T09:41:24Z</time></trkpt>
<trkpt lat="53.2321816603" lon="-2.0555276672"><ele>385</ele><time>2012-12-08T09:41:39Z</time></trkpt>
<trkpt lat="53.2321498394" lon="-2.0553090016"><ele>386</ele><time>2012-12-08T09:41:54Z</time></trkpt>
<trkpt lat="53.2321229935" lon="-2.0550766667"><ele>387</ele><time>2012-12-08T09:42:08Z</time></trkpt>
<trkpt lat="53.2320940018" lon="-2.0548451662"><ele>388</ele><time>2012-12-08T09:42:22Z</time></trkpt>
<trkpt lat="53.2320950031" lon="-2.0546116670"><ele>390</ele><time>2012-12-08T09:42:36Z</time></trkpt>
<trkpt lat="53.2321825027" lon="-2.0544261654"><ele>391</ele><time>2012-12-08T09:42:56Z</time></trkpt>
<trkpt lat="53.2322944959" lon="-2.0542733351"><ele>392</ele><time>2012-12-08T09:43:11Z</time></trkpt>
<trkpt lat="53.2324076653" lon="-2.0541506648"><ele>399</ele><time>2012-12-08T09:44:36Z</time></trkpt>
<trkpt lat="53.2322806676" lon="-2.0540574988"><ele>398</ele><time>2012-12-08T09:45:34Z</time></trkpt>
<trkpt lat="53.2322205067" lon="-2.0538413326"><ele>398</ele><time>2012-12-08T09:45:49Z</time></trkpt>
<trkpt lat="53.2321628412" lon="-2.0536251664"><ele>399</ele><time>2012-12-08T09:46:04Z</time></trkpt>
<trkpt lat="53.2320919991" lon="-2.0534194986"><ele>399</ele><time>2012-12-08T09:46:18Z</time></trkpt>
<trkpt lat="53.2320291678" lon="-2.0532068332"><ele>400</ele><time>2012-12-08T09:46:32Z</time></trkpt>
<trkpt lat="53.2319433371" lon="-2.0530173341"><ele>400</ele><time>2012-12-08T09:46:44Z</time></trkpt>
<trkpt lat="53.2318569978" lon="-2.0528301676"><ele>401</ele><time>2012-12-08T09:46:58Z</time></trkpt>
<trkpt lat="53.2317713261" lon="-2.0526498318"><ele>401</ele><time>2012-12-08T09:47:10Z</time></trkpt>
<trkpt lat="53.2316663265" lon="-2.0524880012"><ele>402</ele><time>2012-12-08T09:47:24Z</time></trkpt>
<trkpt lat="53.2315576712" lon="-2.0523413340"><ele>402</ele><time>2012-12-08T09:47:37Z</time></trkpt>
<trkpt lat="53.2314408302" lon="-2.0522168318"><ele>402</ele><time>2012-12-08T09:47:52Z</time></trkpt>
<trkpt lat="53.2313663324" lon="-2.0520075003"><ele>401</ele><time>2012-12-08T09:48:06Z</time></trkpt>
<trkpt lat="53.2313220024" lon="-2.0517756661"><ele>400</ele><time>2012-12-08T09:48:19Z</time></trkpt>
<trkpt lat="53.2312558333" lon="-2.0515708327"><ele>401</ele><time>2012-12-08T09:48:31Z</time></trkpt>
<trkpt lat="53.2311658382" lon="-2.0513974984"><ele>401</ele><time>2012-12-08T09:48:43Z</time></trkpt>
<trkpt lat="53.2310448329" lon="-2.0512771686"><ele>402</ele><time>2012-12-08T09:48:57Z</time></trkpt>
<trkpt lat="53.2309208393" lon="-2.0511669993"><ele>404</ele><time>2012-12-08T09:49:10Z</time></trkpt>
<trkpt lat="53.2308028380" lon="-2.0510228316"><ele>404</ele><time>2012-12-08T09:49:23Z</time></trkpt>
<trkpt lat="53.2306930065" lon="-2.0508666674"><ele>403</ele><time>2012-12-08T09:49:35Z</time></trkpt>
<trkpt lat="53.2305809975" lon="-2.0507303317"><ele>402</ele><time>2012-12-08T09:49:48Z</time></trkpt>
<trkpt lat="53.2304835002" lon="-2.0505530000"><ele>397</ele><time>2012-12-08T09:50:04Z</time></trkpt>
<trkpt lat="53.2305158297" lon="-2.0503285011"><ele>394</ele><time>2012-12-08T09:50:20Z</time></trkpt>
<trkpt lat="53.2306434949" lon="-2.0502394994"><ele>391</ele><time>2012-12-08T09:50:35Z</time></trkpt>
<trkpt lat="53.2307301680" lon="-2.0500655015"><ele>389</ele><time>2012-12-08T09:50:51Z</time></trkpt>
<trkpt lat="53.2306401730" lon="-2.0498814980"><ele>388</ele><time>2012-12-08T09:51:04Z</time></trkpt>
<trkpt lat="53.2305364927" lon="-2.0497165004"><ele>386</ele><time>2012-12-08T09:51:17Z</time></trkpt>
<trkpt lat="53.2304566701" lon="-2.0495263338"><ele>385</ele><time>2012-12-08T09:51:33Z</time></trkpt>
<trkpt lat="53.2304629962" lon="-2.0492973328"><ele>385</ele><time>2012-12-08T09:51:48Z</time></trkpt>
<trkpt lat="53.2304346720" lon="-2.0490618348"><ele>385</ele><time>2012-12-08T09:52:01Z</time></trkpt>
<trkpt lat="53.2303844929" lon="-2.0488351663"><ele>385</ele><time>2012-12-08T09:52:22Z</time></trkpt>
<trkpt lat="53.2303226630" lon="-2.0486260017"><ele>384</ele><time>2012-12-08T09:52:34Z</time></trkpt>
<trkpt lat="53.2302733262" lon="-2.0484056671"><ele>384</ele><time>2012-12-08T09:52:46Z</time></trkpt>
<trkpt lat="53.2302419980" lon="-2.0481766661"><ele>384</ele><time>2012-12-08T09:52:57Z</time></trkpt>
<trkpt lat="53.2302254995" lon="-2.0479410013"><ele>385</ele><time>2012-12-08T09:53:10Z</time></trkpt>
<trkpt lat="53.2302134991" lon="-2.0477011681"><ele>384</ele><time>2012-12-08T09:53:24Z</time></trkpt>
<trkpt lat="53.2302248319" lon="-2.0474668344"><ele>385</ele><time>2012-12-08T09:53:38Z</time></trkpt>
<trkpt lat="53.2302128315" lon="-2.0472343326"><ele>386</ele><time>2012-12-08T09:53:51Z</time></trkpt>
<trkpt lat="53.2301933289" lon="-2.0470108350"><ele>387</ele><time>2012-12-08T09:54:04Z</time></trkpt>
<trkpt lat="53.2302079995" lon="-2.0467783332"><ele>389</ele><time>2012-12-08T09:54:19Z</time></trkpt>
<trkpt lat="53.2302331607" lon="-2.0465480010"><ele>389</ele><time>2012-12-08T09:54:32Z</time></trkpt>
<trkpt lat="53.2302403291" lon="-2.0463111679"><ele>390</ele><time>2012-12-08T09:54:46Z</time></trkpt>
<trkpt lat="53.2302276611" lon="-2.0460853338"><ele>391</ele><time>2012-12-08T09:55:03Z</time></trkpt>
<trkpt lat="53.2301463286" lon="-2.0459054987"><ele>394</ele><time>2012-12-08T09:55:43Z</time></trkpt>
<trkpt lat="53.2301443259" lon="-2.0456693331"><ele>397</ele><time>2012-12-08T09:57:36Z</time></trkpt>
<trkpt lat="53.2301553408" lon="-2.0454348326"><ele>398</ele><time>2012-12-08T09:57:55Z</time></trkpt>
<trkpt lat="53.2301750024" lon="-2.0452113350"><ele>398</ele><time>2012-12-08T09:58:12Z</time></trkpt>
<trkpt lat="53.2302186648" lon="-2.0449918350"><ele>399</ele><time>2012-12-08T09:58:28Z</time></trkpt>
<trkpt lat="53.2302039941" lon="-2.0447631677"><ele>400</ele><time>2012-12-08T09:58:40Z</time></trkpt>
<trkpt lat="53.2301145077" lon="-2.0445931673"><ele>401</ele><time>2012-12-08T09:59:03Z</time></trkpt>
<trkpt lat="53.2300318400" lon="-2.0444146673"><ele>402</ele><time>2012-12-08T09:59:24Z</time></trkpt>
<trkpt lat="53.2299534957" lon="-2.0442220012"><ele>406</ele><time>2012-12-08T09:59:41Z</time></trkpt>
<trkpt lat="53.2299310048" lon="-2.0439990004"><ele>408</ele><time>2012-12-08T10:00:01Z</time></trkpt>
<trkpt lat="53.2298891703" lon="-2.0437749982"><ele>409</ele><time>2012-12-08T10:00:18Z</time></trkpt>
<trkpt lat="53.2298374971" lon="-2.0435586651"><ele>412</ele><time>2012-12-08T10:00:33Z</time></trkpt>
<trkpt lat="53.2297553380" lon="-2.0433661660"><ele>416</ele><time>2012-12-08T10:00:49Z</time></trkpt>
<trkpt lat="53.2296796640" lon="-2.0431716681"><ele>417</ele><time>2012-12-08T10:01:05Z</time></trkpt>
<trkpt lat="53.2296053410" lon="-2.0429816683"><ele>420</ele><time>2012-12-08T10:01:22Z</time></trkpt>
<trkpt lat="53.2295340061" lon="-2.0427826683"><ele>421</ele><time>2012-12-08T10:01:40Z</time></trkpt>
<trkpt lat="53.2294539928" lon="-2.0425966660"><ele>423</ele><time>2012-12-08T10:01:55Z</time></trkpt>
<trkpt lat="53.2293639978" lon="-2.0424070001"><ele>426</ele><time>2012-12-08T10:02:13Z</time></trkpt>
<trkpt lat="53.2292783260" lon="-2.0422329982"><ele>429</ele><time>2012-12-08T10:02:26Z</time></trkpt>
<trkpt lat="53.2291924953" lon="-2.0420466661"><ele>430</ele><time>2012-12-08T10:02:40Z</time></trkpt>
<trkpt lat="53.2291159948" lon="-2.0418586651"><ele>432</ele><time>2012-12-08T10:02:54Z</time></trkpt>
<trkpt lat="53.2290559928" lon="-2.0416479985"><ele>434</ele><time>2012-12-08T10:03:09Z</time></trkpt>
<trkpt lat="53.2289944967" lon="-2.0414351662"><ele>437</ele><time>2012-12-08T10:03:26Z</time></trkpt>
<trkpt lat="53.2289071719" lon="-2.0412479997"><ele>440</ele><time>2012-12-08T10:03:44Z</time></trkpt>
<trkpt lat="53.2288088322" lon="-2.0410868327"><ele>443</ele><time>2012-12-08T10:04:08Z</time></trkpt>
<trkpt lat="53.2287059943" lon="-2.0409318328"><ele>445</ele><time>2012-12-08T10:04:27Z</time></trkpt>
<trkpt lat="53.2286200047" lon="-2.0407516678"><ele>447</ele><time>2012-12-08T10:04:42Z</time></trkpt>
<trkpt lat="53.2285419941" lon="-2.0405511657"><ele>449</ele><time>2012-12-08T10:05:01Z</time></trkpt>
<trkpt lat="53.2284350077" lon="-2.0404023329"><ele>453</ele><time>2012-12-08T10:05:53Z</time></trkpt>
<trkpt lat="53.2283121745" lon="-2.0403076649"><ele>454</ele><time>2012-12-08T10:06:05Z</time></trkpt>
<trkpt lat="53.2282100042" lon="-2.0401466648"><ele>453</ele><time>2012-12-08T10:06:18Z</time></trkpt>
<trkpt lat="53.2280896664" lon="-2.0400226672"><ele>452</ele><time>2012-12-08T10:06:30Z</time></trkpt>
<trkpt lat="53.2279596647" lon="-2.0399159988"><ele>453</ele><time>2012-12-08T10:06:44Z</time></trkpt>
<trkpt lat="53.2278389931" lon="-2.0398126682"><ele>453</ele><time>2012-12-08T10:06:56Z</time></trkpt>
<trkpt lat="53.2277145068" lon="-2.0396956682"><ele>452</ele><time>2012-12-08T10:07:09Z</time></trkpt>
<trkpt lat="53.2276011626" lon="-2.0395738324"><ele>452</ele><time>2012-12-08T10:07:21Z</time></trkpt>
<trkpt lat="53.2274886608" lon="-2.0394380013"><ele>451</ele><time>2012-12-08T10:07:32Z</time></trkpt>
<trkpt lat="53.2273768266" lon="-2.0392923315"><ele>451</ele><time>2012-12-08T10:07:45Z</time></trkpt>
<trkpt lat="53.2272649924" lon="-2.0391510010"><ele>451</ele><time>2012-12-08T10:07:59Z</time></trkpt>
<trkpt lat="53.2271606604" lon="-2.0389968316"><ele>450</ele><time>2012-12-08T10:08:13Z</time></trkpt>
<trkpt lat="53.2270583312" lon="-2.0388431668"><ele>450</ele><time>2012-12-08T10:08:24Z</time></trkpt>
<trkpt lat="53.2269536654" lon="-2.0386890014"><ele>449</ele><time>2012-12-08T10:08:37Z</time></trkpt>
<trkpt lat="53.2268559933" lon="-2.0385318319"><ele>448</ele><time>2012-12-08T10:08:53Z</time></trkpt>
<trkpt lat="53.2267166615" lon="-2.0384914994"><ele>448</ele><time>2012-12-08T10:09:18Z</time></trkpt>
<trkpt lat="53.2265740077" lon="-2.0384693344"><ele>448</ele><time>2012-12-08T10:09:33Z</time></trkpt>
<trkpt lat="53.2264351686" lon="-2.0384280006"><ele>448</ele><time>2012-12-08T10:09:47Z</time></trkpt>
<trkpt lat="53.2262953281" lon="-2.0383866668"><ele>449</ele><time>2012-12-08T10:10:00Z</time></trkpt>
<trkpt lat="53.2261583328" lon="-2.0383461674"><ele>450</ele><time>2012-12-08T10:10:13Z</time></trkpt>
<trkpt lat="53.2260200024" lon="-2.0383101662"><ele>451</ele><time>2012-12-08T10:10:26Z</time></trkpt>
<trkpt lat="53.2258781592" lon="-2.0382829984"><ele>450</ele><time>2012-12-08T10:10:39Z</time></trkpt>
<trkpt lat="53.2257390022" lon="-2.0382231673"><ele>451</ele><time>2012-12-08T10:10:51Z</time></trkpt>
<trkpt lat="53.2255986691" lon="-2.0381768346"><ele>451</ele><time>2012-12-08T10:11:04Z</time></trkpt>
<trkpt lat="53.2254626592" lon="-2.0381305019"><ele>451</ele><time>2012-12-08T10:11:18Z</time></trkpt>
<trkpt lat="53.2253213406" lon="-2.0380966663"><ele>453</ele><time>2012-12-08T10:11:32Z</time></trkpt>
<trkpt lat="53.2251791636" lon="-2.0380431652"><ele>454</ele><time>2012-12-08T10:11:45Z</time></trkpt>
<trkpt lat="53.2250438372" lon="-2.0379939993"><ele>455</ele><time>2012-12-08T10:11:58Z</time></trkpt>
<trkpt lat="53.2249090036" lon="-2.0379426678"><ele>456</ele><time>2012-12-08T10:12:11Z</time></trkpt>
<trkpt lat="53.2247735023" lon="-2.0378911654"><ele>457</ele><time>2012-12-08T10:12:24Z</time></trkpt>
<trkpt lat="53.2246400038" lon="-2.0378406684"><ele>458</ele><time>2012-12-08T10:12:36Z</time></trkpt>
<trkpt lat="53.2245083332" lon="-2.0377891660"><ele>459</ele><time>2012-12-08T10:12:49Z</time></trkpt>
<trkpt lat="53.2243680000" lon="-2.0377373338"><ele>462</ele><time>2012-12-08T10:13:03Z</time></trkpt>
<trkpt lat="53.2242369970" lon="-2.0376661658"><ele>464</ele><time>2012-12-08T10:13:16Z</time></trkpt>
<trkpt lat="53.2241086642" lon="-2.0375718315"><ele>464</ele><time>2012-12-08T10:15:14Z</time></trkpt>
<trkpt lat="53.2239898364" lon="-2.0374445001"><ele>468</ele><time>2012-12-08T10:15:34Z</time></trkpt>
<trkpt lat="53.2238796711" lon="-2.0373105009"><ele>473</ele><time>2012-12-08T10:15:55Z</time></trkpt>
<trkpt lat="53.2237566630" lon="-2.0372173349"><ele>478</ele><time>2012-12-08T10:16:29Z</time></trkpt>
<trkpt lat="53.2236211618" lon="-2.0371983329"><ele>484</ele><time>2012-12-08T10:16:57Z</time></trkpt>
<trkpt lat="53.2235665003" lon="-2.0369886676"><ele>488</ele><time>2012-12-08T10:17:26Z</time></trkpt>
<trkpt lat="53.2234536648" lon="-2.0368621667"><ele>494</ele><time>2012-12-08T10:17:54Z</time></trkpt>
<trkpt lat="53.2233198325" lon="-2.0368921677"><ele>501</ele><time>2012-12-08T10:18:12Z</time></trkpt>
<trkpt lat="53.2232071718" lon="-2.0367646654"><ele>503</ele><time>2012-12-08T10:18:42Z</time></trkpt>
<trkpt lat="53.2230633259" lon="-2.0367553314"><ele>507</ele><time>2012-12-08T10:22:54Z</time></trkpt>
<trkpt lat="53.2229226589" lon="-2.0367654999"><ele>507</ele><time>2012-12-08T10:23:06Z</time></trkpt>
<trkpt lat="53.2227776686" lon="-2.0367653330"><ele>504</ele><time>2012-12-08T10:23:18Z</time></trkpt>
<trkpt lat="53.2226391633" lon="-2.0367621660"><ele>503</ele><time>2012-12-08T10:23:29Z</time></trkpt>
<trkpt lat="53.2224945068" lon="-2.0367849986"><ele>503</ele><time>2012-12-08T10:23:43Z</time></trkpt>
<trkpt lat="53.2223604997" lon="-2.0368263324"><ele>502</ele><time>2012-12-08T10:23:55Z</time></trkpt>
<trkpt lat="53.2222263336" lon="-2.0368478338"><ele>497</ele><time>2012-12-08T10:24:35Z</time></trkpt>
<trkpt lat="53.2221641699" lon="-2.0366378347"><ele>489</ele><time>2012-12-08T10:25:13Z</time></trkpt>
<trkpt lat="53.2221826712" lon="-2.0364078323"><ele>485</ele><time>2012-12-08T10:25:33Z</time></trkpt>
<trkpt lat="53.2221808275" lon="-2.0361816684"><ele>480</ele><time>2012-12-08T10:25:56Z</time></trkpt>
<trkpt lat="53.2222108364" lon="-2.0359624982"><ele>474</ele><time>2012-12-08T10:26:48Z</time></trkpt>
<trkpt lat="53.2222168287" lon="-2.0357354999"><ele>469</ele><time>2012-12-08T10:27:39Z</time></trkpt>
<trkpt lat="53.2221756617" lon="-2.0355128328"><ele>464</ele><time>2012-12-08T10:28:22Z</time></trkpt>
<trkpt lat="53.2221360048" lon="-2.0352943341"><ele>458</ele><time>2012-12-08T10:28:42Z</time></trkpt>
<trkpt lat="53.2220884959" lon="-2.0350791653"><ele>450</ele><time>2012-12-08T10:29:14Z</time></trkpt>
<trkpt lat="53.2220764955" lon="-2.0348396659"><ele>446</ele><time>2012-12-08T10:29:32Z</time></trkpt>
<trkpt lat="53.2220650037" lon="-2.0346106648"><ele>439</ele><time>2012-12-08T10:29:46Z</time></trkpt>
<trkpt lat="53.2220521609" lon="-2.0343771656"><ele>430</ele><time>2012-12-08T10:30:03Z</time></trkpt>
<trkpt lat="53.2220434984" lon="-2.0341394981"><ele>425</ele><time>2012-12-08T10:30:20Z</time></trkpt>
<trkpt lat="53.2219801744" lon="-2.0339336673"><ele>419</ele><time>2012-12-08T10:30:37Z</time></trkpt>
<trkpt lat="53.2219433308" lon="-2.0336996675"><ele>416</ele><time>2012-12-08T10:30:51Z</time></trkpt>
<trkpt lat="53.2219001611" lon="-2.0334780018"><ele>412</ele><time>2012-12-08T10:31:05Z</time></trkpt>
<trkpt lat="53.2218518257" lon="-2.0332485000"><ele>408</ele><time>2012-12-08T10:31:19Z</time></trkpt>
<trkpt lat="53.2218323390" lon="-2.0330145001"><ele>406</ele><time>2012-12-08T10:31:32Z</time></trkpt>
<trkpt lat="53.2218333403" lon="-2.0327778339"><ele>403</ele><time>2012-12-08T10:31:47Z</time></trkpt>
<trkpt lat="53.2218221664" lon="-2.0325508336"><ele>401</ele><time>2012-12-08T10:32:19Z</time></trkpt>
<trkpt lat="53.2216904958" lon="-2.0324575007"><ele>398</ele><time>2012-12-08T10:32:43Z</time></trkpt>
<trkpt lat="53.2215791702" lon="-2.0323171675"><ele>394</ele><time>2012-12-08T10:33:04Z</time></trkpt>
<trkpt lat="53.2214573383" lon="-2.0322143336"><ele>389</ele><time>2012-12-08T10:33:21Z</time></trkpt>
<trkpt lat="53.2213760058" lon="-2.0320338329"><ele>385</ele><time>2012-12-08T10:33:36Z</time></trkpt>
<trkpt lat="53.2213023345" lon="-2.0318310002"><ele>383</ele><time>2012-12-08T10:33:52Z</time></trkpt>
<trkpt lat="53.2212151686" lon="-2.0316585004"><ele>380</ele><time>2012-12-08T10:34:05Z</time></trkpt>
<trkpt lat="53.2211688360" lon="-2.0314383328"><ele>376</ele><time>2012-12-08T10:34:20Z</time></trkpt>
<trkpt lat="53.2211160024" lon="-2.0312203328"><ele>375</ele><time>2012-12-08T10:34:32Z</time></trkpt>
<trkpt lat="53.2210363388" lon="-2.0310276667"><ele>373</ele><time>2012-12-08T10:34:43Z</time></trkpt>
<trkpt lat="53.2209664981" lon="-2.0308248341"><ele>368</ele><time>2012-12-08T10:35:53Z</time></trkpt>
<trkpt lat="53.2208901723" lon="-2.0306371669"><ele>364</ele><time>2012-12-08T10:36:32Z</time></trkpt>
<trkpt lat="53.2208301703" lon="-2.0304325004"><ele>361</ele><time>2012-12-08T10:36:52Z</time></trkpt>
<trkpt lat="53.2207903385" lon="-2.0302161674"><ele>358</ele><time>2012-12-08T10:37:12Z</time></trkpt>
<trkpt lat="53.2207376639" lon="-2.0299933334"><ele>354</ele><time>2012-12-08T10:37:26Z</time></trkpt>
<trkpt lat="53.2206665039" lon="-2.0297834992"><ele>353</ele><time>2012-12-08T10:37:41Z</time></trkpt>
<trkpt lat="53.2205933412" lon="-2.0295791666"><ele>351</ele><time>2012-12-08T10:37:57Z</time></trkpt>
<trkpt lat="53.2205053329" lon="-2.0293928325"><ele>349</ele><time>2012-12-08T10:38:09Z</time></trkpt>
<trkpt lat="53.2204236666" lon="-2.0292046666"><ele>348</ele><time>2012-12-08T10:38:22Z</time></trkpt>
<trkpt lat="53.2203308264" lon="-2.0290328324"><ele>345</ele><time>2012-12-08T10:38:34Z</time></trkpt>
<trkpt lat="53.2202048302" lon="-2.0289141675"><ele>344</ele><time>2012-12-08T10:38:46Z</time></trkpt>
<trkpt lat="53.2200706641" lon="-2.0288366675"><ele>343</ele><time>2012-12-08T10:38:59Z</time></trkpt>
<trkpt lat="53.2199371656" lon="-2.0287641664"><ele>342</ele><time>2012-12-08T10:39:21Z</time></trkpt>
<trkpt lat="53.2198248386" lon="-2.0286206663"><ele>341</ele><time>2012-12-08T10:39:31Z</time></trkpt>
<trkpt lat="53.2197038333" lon="-2.0284783324"><ele>340</ele><time>2012-12-08T10:39:42Z</time></trkpt>
<trkpt lat="53.2195916653" lon="-2.0283471664"><ele>338</ele><time>2012-12-08T10:39:52Z</time></trkpt>
<trkpt lat="53.2194774946" lon="-2.0282130003"><ele>335</ele><time>2012-12-08T10:40:03Z</time></trkpt>
<trkpt lat="53.2193649928" lon="-2.0280783335"><ele>333</ele><time>2012-12-08T10:40:15Z</time></trkpt>
<trkpt lat="53.2192464987" lon="-2.0279688338"><ele>331</ele><time>2012-12-08T10:40:26Z</time></trkpt>
<trkpt lat="53.2191178322" lon="-2.0278711677"><ele>331</ele><time>2012-12-08T10:40:37Z</time></trkpt>
<trkpt lat="53.2189793269" lon="-2.0277971665"><ele>329</ele><time>2012-12-08T10:40:48Z</time></trkpt>
<trkpt lat="53.2188509941" lon="-2.0276953340"><ele>325</ele><time>2012-12-08T10:41:00Z</time></trkpt>
<trkpt lat="53.2187203407" lon="-2.0276038329"><ele>323</ele><time>2012-12-08T10:41:13Z</time></trkpt>
<trkpt lat="53.2188146591" lon="-2.0274378339"><ele>322</ele><time>2012-12-08T10:41:34Z</time></trkpt>
<trkpt lat="53.2189439933" lon="-2.0273739994"><ele>322</ele><time>2012-12-08T10:41:46Z</time></trkpt>
<trkpt lat="53.2190783342" lon="-2.0273148338"><ele>322</ele><time>2012-12-08T10:41:58Z</time></trkpt>
<trkpt lat="53.2192118327" lon="-2.0272744993"><ele>321</ele><time>2012-12-08T10:42:09Z</time></trkpt>
<trkpt lat="53.2193508307" lon="-2.0272968332"><ele>321</ele><time>2012-12-08T10:42:20Z</time></trkpt>
<trkpt lat="53.2194869995" lon="-2.0273103336"><ele>322</ele><time>2012-12-08T10:42:32Z</time></trkpt>
<trkpt lat="53.2196311633" lon="-2.0273391664"><ele>323</ele><time>2012-12-08T10:42:44Z</time></trkpt>
<trkpt lat="53.2197748343" lon="-2.0273346663"><ele>323</ele><time>2012-12-08T10:42:57Z</time></trkpt>
<trkpt lat="53.2198705037" lon="-2.0271713336"><ele>322</ele><time>2012-12-08T10:43:14Z</time></trkpt>
<trkpt lat="53.2199340026" lon="-2.0269704998"><ele>322</ele><time>2012-12-08T10:43:25Z</time></trkpt>
<trkpt lat="53.2200226625" lon="-2.0268003325"><ele>322</ele><time>2012-12-08T10:43:40Z</time></trkpt>
<trkpt lat="53.2201480071" lon="-2.0266469995"><ele>322</ele><time>2012-12-08T10:43:51Z</time></trkpt>
<trkpt lat="53.2202445030" lon="-2.0264671663"><ele>321</ele><time>2012-12-08T10:44:03Z</time></trkpt>
<trkpt lat="53.2203558286" lon="-2.0263276676"><ele>322</ele><time>2012-12-08T10:44:16Z</time></trkpt>
<trkpt lat="53.2204821746" lon="-2.0262121658"><ele>322</ele><time>2012-12-08T10:44:30Z</time></trkpt>
<trkpt lat="53.2206089973" lon="-2.0261311670"><ele>322</ele><time>2012-12-08T10:44:43Z</time></trkpt>
<trkpt lat="53.2207258383" lon="-2.0259993335"><ele>321</ele><time>2012-12-08T10:44:54Z</time></trkpt>
<trkpt lat="53.2208413283" lon="-2.0258475006"><ele>321</ele><time>2012-12-08T10:45:06Z</time></trkpt>
<trkpt lat="53.2209475040" lon="-2.0256751676"><ele>321</ele><time>2012-12-08T10:45:17Z</time></trkpt>
<trkpt lat="53.2210395018" lon="-2.0255008340"><ele>320</ele><time>2012-12-08T10:45:29Z</time></trkpt>
<trkpt lat="53.2211375078" lon="-2.0253464997"><ele>320</ele><time>2012-12-08T10:45:41Z</time></trkpt>
<trkpt lat="53.2212398370" lon="-2.0251758337"><ele>320</ele><time>2012-12-08T10:45:53Z</time></trkpt>
<trkpt lat="53.2213386695" lon="-2.0250011663"><ele>320</ele><time>2012-12-08T10:46:05Z</time></trkpt>
<trkpt lat="53.2214334965" lon="-2.0248353342"><ele>320</ele><time>2012-12-08T10:46:16Z</time></trkpt>
<trkpt lat="53.2215309938" lon="-2.0246781667"><ele>320</ele><time>2012-12-08T10:46:27Z</time></trkpt>
<trkpt lat="53.2216348330" lon="-2.0245295008"><ele>319</ele><time>2012-12-08T10:46:38Z</time></trkpt>
<trkpt lat="53.2217103322" lon="-2.0243318339"><ele>320</ele><time>2012-12-08T10:46:53Z</time></trkpt>
<trkpt lat="53.2217681726" lon="-2.0241186659"><ele>320</ele><time>2012-12-08T10:47:06Z</time></trkpt>
<trkpt lat="53.2218191624" lon="-2.0239003340"><ele>320</ele><time>2012-12-08T10:47:19Z</time></trkpt>
<trkpt lat="53.2219003359" lon="-2.0237070004"><ele>319</ele><time>2012-12-08T10:47:34Z</time></trkpt>
<trkpt lat="53.2220106602" lon="-2.0235713343"><ele>318</ele><time>2012-12-08T10:47:47Z</time></trkpt>
<trkpt lat="53.2221161683" lon="-2.0234279990"><ele>318</ele><time>2012-12-08T10:47:58Z</time></trkpt>
<trkpt lat="53.2222381592" lon="-2.0233233333"><ele>317</ele><time>2012-12-08T10:48:16Z</time></trkpt>
<trkpt lat="53.2223781745" lon="-2.0232878327"><ele>316</ele><time>2012-12-08T10:48:31Z</time></trkpt>
<trkpt lat="53.2225183328" lon="-2.0233078341"><ele>316</ele><time>2012-12-08T10:48:45Z</time></trkpt>
<trkpt lat="53.2226488272" lon="-2.0233783325"><ele>316</ele><time>2012-12-08T10:48:59Z</time></trkpt>
<trkpt lat="53.2227800051" lon="-2.0234418333"><ele>315</ele><time>2012-12-08T10:49:11Z</time></trkpt>
<trkpt lat="53.2229171594" lon="-2.0235071659"><ele>314</ele><time>2012-12-08T10:49:24Z</time></trkpt>
<trkpt lat="53.2230511665" lon="-2.0235633334"><ele>314</ele><time>2012-12-08T10:49:36Z</time></trkpt>
<trkpt lat="53.2231864929" lon="-2.0235541662"><ele>312</ele><time>2012-12-08T10:49:48Z</time></trkpt>
<trkpt lat="53.2233181636" lon="-2.0234920005"><ele>311</ele><time>2012-12-08T10:50:00Z</time></trkpt>
<trkpt lat="53.2234635035" lon="-2.0234701673"><ele>309</ele><time>2012-12-08T10:50:12Z</time></trkpt>
<trkpt lat="53.2236078262" lon="-2.0234461665"><ele>306</ele><time>2012-12-08T10:50:25Z</time></trkpt>
<trkpt lat="53.2237445037" lon="-2.0234131674"><ele>305</ele><time>2012-12-08T10:50:37Z</time></trkpt>
<trkpt lat="53.2238829931" lon="-2.0233513335"><ele>303</ele><time>2012-12-08T10:50:53Z</time></trkpt>
<trkpt lat="53.2240229925" lon="-2.0232614994"><ele>301</ele><time>2012-12-08T10:51:03Z</time></trkpt>
<trkpt lat="53.2241686662" lon="-2.0232623339"><ele>301</ele><time>2012-12-08T10:51:15Z</time></trkpt>
<trkpt lat="53.2243011634" lon="-2.0232158343"><ele>299</ele><time>2012-12-08T10:51:30Z</time></trkpt>
<trkpt lat="53.2243516604" lon="-2.0230031669"><ele>297</ele><time>2012-12-08T10:51:43Z</time></trkpt>
<trkpt lat="53.2244414965" lon="-2.0228041669"><ele>297</ele><time>2012-12-08T10:51:56Z</time></trkpt>
<trkpt lat="53.2245405038" lon="-2.0226499995"><ele>297</ele><time>2012-12-08T10:52:08Z</time></trkpt>
<trkpt lat="53.2246571700" lon="-2.0225056668"><ele>297</ele><time>2012-12-08T10:52:21Z</time></trkpt>
<trkpt lat="53.2247476737" lon="-2.0223346670"><ele>296</ele><time>2012-12-08T10:52:56Z</time></trkpt>
<trkpt lat="53.2247489929" lon="-2.0221056660"><ele>296</ele><time>2012-12-08T10:53:21Z</time></trkpt>
<trkpt lat="53.2247606595" lon="-2.0218810002"><ele>294</ele><time>2012-12-08T10:53:38Z</time></trkpt>
<trkpt lat="53.2247553349" lon="-2.0216551661"><ele>294</ele><time>2012-12-08T10:53:50Z</time></trkpt>
<trkpt lat="53.2247826735" lon="-2.0214215000"><ele>294</ele><time>2012-12-08T10:54:04Z</time></trkpt>
<trkpt lat="53.2248394966" lon="-2.0212010006"><ele>295</ele><time>2012-12-08T10:54:16Z</time></trkpt>
<trkpt lat="53.2249008338" lon="-2.0209845006"><ele>296</ele><time>2012-12-08T10:54:29Z</time></trkpt>
<trkpt lat="53.2250079950" lon="-2.0208321671"><ele>296</ele><time>2012-12-08T10:54:46Z</time></trkpt>
<trkpt lat="53.2250611623" lon="-2.0206203341"><ele>296</ele><time>2012-12-08T10:55:06Z</time></trkpt>
<trkpt lat="53.2251031717" lon="-2.0204068343"><ele>297</ele><time>2012-12-08T10:55:19Z</time></trkpt>
<trkpt lat="53.2251139959" lon="-2.0201825003"><ele>298</ele><time>2012-12-08T10:55:36Z</time></trkpt>
<trkpt lat="53.2250443300" lon="-2.0199678342"><ele>299</ele><time>2012-12-08T10:55:48Z</time></trkpt>
<trkpt lat="53.2249814987" lon="-2.0197533329"><ele>300</ele><time>2012-12-08T10:56:00Z</time></trkpt>
<trkpt lat="53.2249316692" lon="-2.0195373336"><ele>301</ele><time>2012-12-08T10:56:16Z</time></trkpt>
<trkpt lat="53.2249790033" lon="-2.0193246663"><ele>305</ele><time>2012-12-08T10:57:14Z</time></trkpt>
<trkpt lat="53.2249566714" lon="-2.0190883338"><ele>305</ele><time>2012-12-08T10:57:30Z</time></trkpt>
<trkpt lat="53.2249376615" lon="-2.0188579996"><ele>306</ele><time>2012-12-08T10:57:44Z</time></trkpt>
<trkpt lat="53.2249038378" lon="-2.0186261674"><ele>309</ele><time>2012-12-08T10:58:17Z</time></trkpt>
<trkpt lat="53.2248764992" lon="-2.0183923324"><ele>309</ele><time>2012-12-08T10:58:30Z</time></trkpt>
<trkpt lat="53.2249021689" lon="-2.0181625009"><ele>309</ele><time>2012-12-08T10:58:43Z</time></trkpt>
<trkpt lat="53.2249249935" lon="-2.0179208338"><ele>310</ele><time>2012-12-08T10:58:59Z</time></trkpt>
<trkpt lat="53.2249489943" lon="-2.0176989992"><ele>310</ele><time>2012-12-08T10:59:10Z</time></trkpt>
<trkpt lat="53.2249686718" lon="-2.0174655000"><ele>310</ele><time>2012-12-08T10:59:21Z</time></trkpt>
<trkpt lat="53.2249810060" lon="-2.0172408342"><ele>310</ele><time>2012-12-08T10:59:34Z</time></trkpt>
<trkpt lat="53.2250033379" lon="-2.0170110007"><ele>311</ele><time>2012-12-08T10:59:49Z</time></trkpt>
<trkpt lat="53.2250671705" lon="-2.0168083330"><ele>312</ele><time>2012-12-08T11:00:11Z</time></trkpt>
<trkpt lat="53.2251528263" lon="-2.0166303337"><ele>313</ele><time>2012-12-08T11:00:27Z</time></trkpt>
<trkpt lat="53.2252373377" lon="-2.0164458334"><ele>313</ele><time>2012-12-08T11:00:54Z</time></trkpt>
<trkpt lat="53.2252460003" lon="-2.0162129998"><ele>315</ele><time>2012-12-08T11:01:24Z</time></trkpt>
<trkpt lat="53.2252723376" lon="-2.0159758329"><ele>316</ele><time>2012-12-08T11:01:40Z</time></trkpt>
<trkpt lat="53.2252885024" lon="-2.0157409996"><ele>316</ele><time>2012-12-08T11:01:53Z</time></trkpt>
<trkpt lat="53.2252905051" lon="-2.0155019999"><ele>317</ele><time>2012-12-08T11:02:05Z</time></trkpt>
<trkpt lat="53.2253015041" lon="-2.0152766665"><ele>318</ele><time>2012-12-08T11:02:21Z</time></trkpt>
<trkpt lat="53.2251924992" lon="-2.0154124995"><ele>326</ele><time>2012-12-08T11:03:51Z</time></trkpt>
<trkpt lat="53.2250579993" lon="-2.0154358337"><ele>325</ele><time>2012-12-08T11:06:52Z</time></trkpt>
<trkpt lat="53.2251979987" lon="-2.0154400001"><ele>326</ele><time>2012-12-08T11:13:16Z</time></trkpt>
<trkpt lat="53.2252830029" lon="-2.0152474999"><ele>326</ele><time>2012-12-08T11:16:41Z</time></trkpt>
<trkpt lat="53.2253451665" lon="-2.0150370002"><ele>326</ele><time>2012-12-08T11:17:00Z</time></trkpt>
<trkpt lat="53.2253641605" lon="-2.0148138334"><ele>326</ele><time>2012-12-08T11:17:13Z</time></trkpt>
<trkpt lat="53.2253956636" lon="-2.0145953337"><ele>326</ele><time>2012-12-08T11:17:25Z</time></trkpt>
<trkpt lat="53.2254408360" lon="-2.0143709997"><ele>326</ele><time>2012-12-08T11:17:38Z</time></trkpt>
<trkpt lat="53.2254515012" lon="-2.0141393334"><ele>326</ele><time>2012-12-08T11:17:51Z</time></trkpt>
<trkpt lat="53.2254590034" lon="-2.0139025003"><ele>326</ele><time>2012-12-08T11:18:04Z</time></trkpt>
<trkpt lat="53.2254804929" lon="-2.0136789997"><ele>327</ele><time>2012-12-08T11:18:18Z</time></trkpt>
<trkpt lat="53.2255236626" lon="-2.0134570003"><ele>328</ele><time>2012-12-08T11:18:32Z</time></trkpt>
<trkpt lat="53.2255546729" lon="-2.0132301668"><ele>328</ele><time>2012-12-08T11:18:45Z</time></trkpt>
<trkpt lat="53.2255903403" lon="-2.0130085001"><ele>329</ele><time>2012-12-08T11:19:00Z</time></trkpt>
<trkpt lat="53.2256564935" lon="-2.0128069997"><ele>329</ele><time>2012-12-08T11:19:14Z</time></trkpt>
<trkpt lat="53.2256616592" lon="-2.0125773331"><ele>329</ele><time>2012-12-08T11:19:31Z</time></trkpt>
<trkpt lat="53.2256753286" lon="-2.0123426666"><ele>330</ele><time>2012-12-08T11:19:46Z</time></trkpt>
<trkpt lat="53.2257060051" lon="-2.0121136665"><ele>332</ele><time>2012-12-08T11:20:03Z</time></trkpt>
<trkpt lat="53.2257318338" lon="-2.0118931671"><ele>333</ele><time>2012-12-08T11:20:20Z</time></trkpt>
<trkpt lat="53.2257575035" lon="-2.0116663337"><ele>335</ele><time>2012-12-08T11:20:34Z</time></trkpt>
<trkpt lat="53.2257841746" lon="-2.0114358336"><ele>337</ele><time>2012-12-08T11:20:48Z</time></trkpt>
<trkpt lat="53.2258233388" lon="-2.0112186670"><ele>337</ele><time>2012-12-08T11:21:01Z</time></trkpt>
<trkpt lat="53.2258753300" lon="-2.0109979997"><ele>338</ele><time>2012-12-08T11:21:15Z</time></trkpt>
<trkpt lat="53.2259156704" lon="-2.0107741664"><ele>339</ele><time>2012-12-08T11:21:29Z</time></trkpt>
<trkpt lat="53.2259559949" lon="-2.0105485002"><ele>339</ele><time>2012-12-08T11:21:44Z</time></trkpt>
<trkpt lat="53.2259963353" lon="-2.0103263328"><ele>340</ele><time>2012-12-08T11:21:59Z</time></trkpt>
<trkpt lat="53.2260138353" lon="-2.0100921671"><ele>340</ele><time>2012-12-08T11:22:13Z</time></trkpt>
<trkpt lat="53.2260383288" lon="-2.0098660002"><ele>341</ele><time>2012-12-08T11:22:28Z</time></trkpt>
<trkpt lat="53.2260473410" lon="-2.0096284995"><ele>342</ele><time>2012-12-08T11:22:43Z</time></trkpt>
<trkpt lat="53.2260654926" lon="-2.0093953331"><ele>344</ele><time>2012-12-08T11:22:58Z</time></trkpt>
<trkpt lat="53.2260771592" lon="-2.0091586669"><ele>345</ele><time>2012-12-08T11:23:14Z</time></trkpt>
<trkpt lat="53.2260993322" lon="-2.0089231670"><ele>345</ele><time>2012-12-08T11:23:28Z</time></trkpt>
<trkpt lat="53.2261185010" lon="-2.0086974998"><ele>346</ele><time>2012-12-08T11:23:43Z</time></trkpt>
<trkpt lat="53.2261406740" lon="-2.0084671666"><ele>347</ele><time>2012-12-08T11:23:59Z</time></trkpt>
<trkpt lat="53.2261834939" lon="-2.0082426667"><ele>349</ele><time>2012-12-08T11:24:17Z</time></trkpt>
<trkpt lat="53.2262123267" lon="-2.0080146665"><ele>351</ele><time>2012-12-08T11:24:36Z</time></trkpt>
<trkpt lat="53.2262469927" lon="-2.0077926666"><ele>352</ele><time>2012-12-08T11:24:51Z</time></trkpt>
<trkpt lat="53.2262558301" lon="-2.0075596665"><ele>355</ele><time>2012-12-08T11:25:07Z</time></trkpt>
<trkpt lat="53.2262596607" lon="-2.0073225001"><ele>356</ele><time>2012-12-08T11:25:23Z</time></trkpt>
<trkpt lat="53.2262871742" lon="-2.0070966666"><ele>358</ele><time>2012-12-08T11:25:38Z</time></trkpt>
<trkpt lat="53.2263363361" lon="-2.0068721667"><ele>360</ele><time>2012-12-08T11:25:58Z</time></trkpt>
<trkpt lat="53.2263460000" lon="-2.0066443334"><ele>362</ele><time>2012-12-08T11:26:15Z</time></trkpt>
<trkpt lat="53.2263590018" lon="-2.0064076667"><ele>367</ele><time>2012-12-08T11:26:32Z</time></trkpt>
<trkpt lat="53.2263840040" lon="-2.0061811666"><ele>370</ele><time>2012-12-08T11:26:45Z</time></trkpt>
<trkpt lat="53.2264211655" lon="-2.0059496666"><ele>372</ele><time>2012-12-08T11:27:00Z</time></trkpt>
<trkpt lat="53.2264725049" lon="-2.0057333335"><ele>375</ele><time>2012-12-08T11:27:13Z</time></trkpt>
<trkpt lat="53.2265166601" lon="-2.0055200001"><ele>376</ele><time>2012-12-08T11:27:28Z</time></trkpt>
<trkpt lat="53.2265923341" lon="-2.0053274999"><ele>378</ele><time>2012-12-08T11:27:43Z</time></trkpt>
<trkpt lat="53.2266891638" lon="-2.0051586668"><ele>380</ele><time>2012-12-08T11:27:58Z</time></trkpt>
<trkpt lat="53.2267543316" lon="-2.0049529999"><ele>382</ele><time>2012-12-08T11:28:12Z</time></trkpt>
<trkpt lat="53.2267813365" lon="-2.0047288333"><ele>387</ele><time>2012-12-08T11:28:32Z</time></trkpt>
<trkpt lat="53.2268956661" lon="-2.0045834998"><ele>387</ele><time>2012-12-08T11:28:58Z</time></trkpt>
<trkpt lat="53.2270264943" lon="-2.0045019999"><ele>387</ele><time>2012-12-08T11:29:13Z</time></trkpt>
<trkpt lat="53.2271541595" lon="-2.0044005002"><ele>387</ele><time>2012-12-08T11:29:29Z</time></trkpt>
<trkpt lat="53.2272828261" lon="-2.0043321669"><ele>387</ele><time>2012-12-08T11:29:44Z</time></trkpt>
<trkpt lat="53.2274083296" lon="-2.0042469998"><ele>388</ele><time>2012-12-08T11:29:59Z</time></trkpt>
<trkpt lat="53.2275313377" lon="-2.0041386666"><ele>389</ele><time>2012-12-08T11:30:18Z</time></trkpt>
<trkpt lat="53.2276500066" lon="-2.0040318333"><ele>391</ele><time>2012-12-08T11:30:40Z</time></trkpt>
<trkpt lat="53.2277619998" lon="-2.0039051667"><ele>393</ele><time>2012-12-08T11:31:00Z</time></trkpt>
<trkpt lat="53.2278876623" lon="-2.0038214999"><ele>394</ele><time>2012-12-08T11:31:17Z</time></trkpt>
<trkpt lat="53.2279676596" lon="-2.0036349999"><ele>397</ele><time>2012-12-08T11:31:39Z</time></trkpt>
<trkpt lat="53.2280806700" lon="-2.0035081667"><ele>400</ele><time>2012-12-08T11:32:03Z</time></trkpt>
<trkpt lat="53.2282088280" lon="-2.0034173332"><ele>401</ele><time>2012-12-08T11:32:19Z</time></trkpt>
<trkpt lat="53.2283333302" lon="-2.0032955001"><ele>402</ele><time>2012-12-08T11:32:35Z</time></trkpt>
<trkpt lat="53.2284433365" lon="-2.0031548334"><ele>404</ele><time>2012-12-08T11:32:53Z</time></trkpt>
<trkpt lat="53.2285778364" lon="-2.0030716668"><ele>406</ele><time>2012-12-08T11:33:09Z</time></trkpt>
<trkpt lat="53.2286996682" lon="-2.0029613333"><ele>408</ele><time>2012-12-08T11:33:27Z</time></trkpt>
<trkpt lat="53.2288376649" lon="-2.0029236667"><ele>410</ele><time>2012-12-08T11:33:45Z</time></trkpt>
<trkpt lat="53.2289708296" lon="-2.0028523333"><ele>412</ele><time>2012-12-08T11:33:59Z</time></trkpt>
<trkpt lat="53.2291053295" lon="-2.0028266666"><ele>418</ele><time>2012-12-08T11:34:23Z</time></trkpt>
<trkpt lat="53.2292276700" lon="-2.0029421667"><ele>420</ele><time>2012-12-08T11:34:38Z</time></trkpt>
<trkpt lat="53.2293636640" lon="-2.0029610001"><ele>421</ele><time>2012-12-08T11:34:56Z</time></trkpt>
<trkpt lat="53.2295000076" lon="-2.0030218333"><ele>423</ele><time>2012-12-08T11:35:16Z</time></trkpt>
<trkpt lat="53.2296360016" lon="-2.0030830001"><ele>425</ele><time>2012-12-08T11:35:34Z</time></trkpt>
<trkpt lat="53.2297626654" lon="-2.0031801666"><ele>427</ele><time>2012-12-08T11:35:58Z</time></trkpt>
<trkpt lat="53.2299006621" lon="-2.0032125001"><ele>429</ele><time>2012-12-08T11:36:23Z</time></trkpt>
<trkpt lat="53.2300373395" lon="-2.0032301667"><ele>433</ele><time>2012-12-08T11:37:10Z</time></trkpt>
<trkpt lat="53.2301703294" lon="-2.0032856666"><ele>439</ele><time>2012-12-08T11:37:44Z</time></trkpt>
<trkpt lat="53.2302995046" lon="-2.0032191666"><ele>443</ele><time>2012-12-08T11:38:17Z</time></trkpt>
<trkpt lat="53.2304104964" lon="-2.0030890000"><ele>448</ele><time>2012-12-08T11:38:44Z</time></trkpt>
<trkpt lat="53.2305459976" lon="-2.0030495000"><ele>448</ele><time>2012-12-08T11:39:02Z</time></trkpt>
<trkpt lat="53.2306745052" lon="-2.0029508332"><ele>450</ele><time>2012-12-08T11:39:19Z</time></trkpt>
<trkpt lat="53.2307993412" lon="-2.0028593334"><ele>455</ele><time>2012-12-08T11:39:35Z</time></trkpt>
<trkpt lat="53.2309321721" lon="-2.0028048334"><ele>463</ele><time>2012-12-08T11:40:07Z</time></trkpt>
<trkpt lat="53.2310599963" lon="-2.0027168334"><ele>464</ele><time>2012-12-08T11:40:23Z</time></trkpt>
<trkpt lat="53.2311701616" lon="-2.0025811667"><ele>467</ele><time>2012-12-08T11:42:08Z</time></trkpt>
<trkpt lat="53.2312913259" lon="-2.0024806666"><ele>467</ele><time>2012-12-08T11:42:26Z</time></trkpt>
<trkpt lat="53.2314248403" lon="-2.0024393333"><ele>467</ele><time>2012-12-08T11:42:44Z</time></trkpt>
<trkpt lat="53.2315519969" lon="-2.0023563333"><ele>467</ele><time>2012-12-08T11:43:04Z</time></trkpt>
<trkpt lat="53.2316775004" lon="-2.0022615001"><ele>468</ele><time>2012-12-08T11:43:20Z</time></trkpt>
<trkpt lat="53.2318001588" lon="-2.0021574999"><ele>469</ele><time>2012-12-08T11:43:42Z</time></trkpt>
<trkpt lat="53.2319201628" lon="-2.0020443334"><ele>474</ele><time>2012-12-08T11:44:04Z</time></trkpt>
<trkpt lat="53.2320513407" lon="-2.0019773333"><ele>480</ele><time>2012-12-08T11:44:26Z</time></trkpt>
<trkpt lat="53.2321705023" lon="-2.0018541666"><ele>484</ele><time>2012-12-08T11:44:50Z</time></trkpt>
<trkpt lat="53.2322679996" lon="-2.0016963333"><ele>489</ele><time>2012-12-08T11:45:11Z</time></trkpt>
<trkpt lat="53.2323904991" lon="-2.0015853333"><ele>488</ele><time>2012-12-08T11:45:36Z</time></trkpt>
<trkpt lat="53.2325061639" lon="-2.0014505000"><ele>490</ele><time>2012-12-08T11:45:56Z</time></trkpt>
<trkpt lat="53.2325829983" lon="-2.0012533333"><ele>496</ele><time>2012-12-08T11:46:14Z</time></trkpt>
<trkpt lat="53.2326704979" lon="-2.0010768333"><ele>501</ele><time>2012-12-08T11:46:35Z</time></trkpt>
<trkpt lat="53.2327846686" lon="-2.0009470000"><ele>503</ele><time>2012-12-08T11:46:53Z</time></trkpt>
<trkpt lat="53.2328183333" lon="-2.0007245000"><ele>505</ele><time>2012-12-08T11:47:18Z</time></trkpt>
<trkpt lat="53.2327968280" lon="-2.0004958333"><ele>507</ele><time>2012-12-08T11:47:36Z</time></trkpt>
<trkpt lat="53.2329075019" lon="-2.0003471667"><ele>507</ele><time>2012-12-08T11:47:54Z</time></trkpt>
<trkpt lat="53.2330371698" lon="-2.0002473333"><ele>510</ele><time>2012-12-08T11:48:09Z</time></trkpt>
<trkpt lat="53.2331768354" lon="-2.0001993333"><ele>509</ele><time>2012-12-08T11:48:25Z</time></trkpt>
<trkpt lat="53.2333175023" lon="-2.0001535000"><ele>510</ele><time>2012-12-08T11:48:40Z</time></trkpt>
<trkpt lat="53.2334533374" lon="-2.0001085000"><ele>511</ele><time>2012-12-08T11:48:56Z</time></trkpt>
<trkpt lat="53.2335876624" lon="-2.0000436667"><ele>512</ele><time>2012-12-08T11:49:12Z</time></trkpt>
<trkpt lat="53.2337198257" lon="-2.0001080000"><ele>514</ele><time>2012-12-08T11:49:27Z</time></trkpt>
<trkpt lat="53.2338559945" lon="-2.0001138333"><ele>515</ele><time>2012-12-08T11:49:45Z</time></trkpt>
<trkpt lat="53.2339863300" lon="-2.0001885000"><ele>524</ele><time>2012-12-08T11:51:19Z</time></trkpt>
<trkpt lat="53.2341046651" lon="-2.0003320000"><ele>524</ele><time>2012-12-08T11:51:36Z</time></trkpt>
<trkpt lat="53.2341746648" lon="-2.0005246667"><ele>525</ele><time>2012-12-08T11:51:50Z</time></trkpt>
<trkpt lat="53.2342783292" lon="-2.0006963333"><ele>525</ele><time>2012-12-08T11:52:04Z</time></trkpt>
<trkpt lat="53.2343781630" lon="-2.0008686667"><ele>525</ele><time>2012-12-08T11:52:15Z</time></trkpt>
<trkpt lat="53.2344846725" lon="-2.0010170000"><ele>525</ele><time>2012-12-08T11:52:28Z</time></trkpt>
<trkpt lat="53.2345986684" lon="-2.0011576666"><ele>526</ele><time>2012-12-08T11:52:41Z</time></trkpt>
<trkpt lat="53.2346983274" lon="-2.0013118333"><ele>526</ele><time>2012-12-08T11:52:55Z</time></trkpt>
<trkpt lat="53.2348065058" lon="-2.0014543333"><ele>526</ele><time>2012-12-08T11:53:08Z</time></trkpt>
<trkpt lat="53.2349229972" lon="-2.0015960000"><ele>526</ele><time>2012-12-08T11:53:21Z</time></trkpt>
<trkpt lat="53.2350466728" lon="-2.0017143334"><ele>527</ele><time>2012-12-08T11:53:33Z</time></trkpt>
<trkpt lat="53.2351776600" lon="-2.0018005000"><ele>526</ele><time>2012-12-08T11:53:44Z</time></trkpt>
<trkpt lat="53.2353034973" lon="-2.0018818334"><ele>525</ele><time>2012-12-08T11:53:55Z</time></trkpt>
<trkpt lat="53.2354454994" lon="-2.0019490000"><ele>524</ele><time>2012-12-08T11:54:06Z</time></trkpt>
<trkpt lat="53.2355789979" lon="-2.0020088334"><ele>525</ele><time>2012-12-08T11:54:17Z</time></trkpt>
<trkpt lat="53.2357183297" lon="-2.0020675000"><ele>524</ele><time>2012-12-08T11:54:30Z</time></trkpt>
<trkpt lat="53.2358573278" lon="-2.0021313335"><ele>524</ele><time>2012-12-08T11:54:43Z</time></trkpt>
<trkpt lat="53.2359886646" lon="-2.0021968332"><ele>523</ele><time>2012-12-08T11:54:56Z</time></trkpt>
<trkpt lat="53.2361196677" lon="-2.0022531666"><ele>523</ele><time>2012-12-08T11:55:10Z</time></trkpt>
<trkpt lat="53.2362549941" lon="-2.0023131666"><ele>524</ele><time>2012-12-08T11:55:22Z</time></trkpt>
<trkpt lat="53.2363876661" lon="-2.0023740001"><ele>524</ele><time>2012-12-08T11:55:40Z</time></trkpt>
<trkpt lat="53.2365245024" lon="-2.0023900000"><ele>525</ele><time>2012-12-08T11:55:55Z</time></trkpt>
<trkpt lat="53.2366706689" lon="-2.0023976666"><ele>525</ele><time>2012-12-08T11:56:07Z</time></trkpt>
<trkpt lat="53.2368153254" lon="-2.0023693333"><ele>525</ele><time>2012-12-08T11:56:19Z</time></trkpt>
<trkpt lat="53.2369576613" lon="-2.0023350000"><ele>526</ele><time>2012-12-08T11:56:30Z</time></trkpt>
<trkpt lat="53.2370981693" lon="-2.0022915001"><ele>525</ele><time>2012-12-08T11:56:42Z</time></trkpt>
<trkpt lat="53.2372419993" lon="-2.0022529999"><ele>526</ele><time>2012-12-08T11:56:54Z</time></trkpt>
<trkpt lat="53.2373760064" lon="-2.0022076666"><ele>526</ele><time>2012-12-08T11:57:05Z</time></trkpt>
<trkpt lat="53.2375101725" lon="-2.0021779999"><ele>525</ele><time>2012-12-08T11:57:16Z</time></trkpt>
<trkpt lat="53.2376483281" lon="-2.0021410001"><ele>525</ele><time>2012-12-08T11:57:27Z</time></trkpt>
<trkpt lat="53.2377911727" lon="-2.0021053334"><ele>524</ele><time>2012-12-08T11:57:38Z</time></trkpt>
<trkpt lat="53.2379285018" lon="-2.0020561667"><ele>523</ele><time>2012-12-08T11:57:50Z</time></trkpt>
<trkpt lat="53.2380664984" lon="-2.0020120000"><ele>524</ele><time>2012-12-08T11:58:01Z</time></trkpt>
<trkpt lat="53.2382091681" lon="-2.0019651666"><ele>524</ele><time>2012-12-08T11:58:13Z</time></trkpt>
<trkpt lat="53.2383431594" lon="-2.0019088333"><ele>524</ele><time>2012-12-08T11:58:24Z</time></trkpt>
<trkpt lat="53.2384815057" lon="-2.0018635000"><ele>523</ele><time>2012-12-08T11:58:35Z</time></trkpt>
<trkpt lat="53.2386156718" lon="-2.0018231666"><ele>523</ele><time>2012-12-08T11:58:46Z</time></trkpt>
<trkpt lat="53.2387550036" lon="-2.0017910000"><ele>522</ele><time>2012-12-08T11:58:57Z</time></trkpt>
<trkpt lat="53.2388976733" lon="-2.0017521667"><ele>522</ele><time>2012-12-08T11:59:08Z</time></trkpt>
<trkpt lat="53.2390315056" lon="-2.0017060000"><ele>522</ele><time>2012-12-08T11:59:19Z</time></trkpt>
<trkpt lat="53.2391721725" lon="-2.0016656667"><ele>520</ele><time>2012-12-08T11:59:31Z</time></trkpt>
<trkpt lat="53.2393093268" lon="-2.0016140000"><ele>519</ele><time>2012-12-08T11:59:43Z</time></trkpt>
<trkpt lat="53.2394433339" lon="-2.0015461667"><ele>518</ele><time>2012-12-08T11:59:55Z</time></trkpt>
<trkpt lat="53.2395860036" lon="-2.0014938333"><ele>518</ele><time>2012-12-08T12:00:08Z</time></trkpt>
<trkpt lat="53.2397221724" lon="-2.0014575000"><ele>518</ele><time>2012-12-08T12:00:20Z</time></trkpt>
<trkpt lat="53.2398605029" lon="-2.0014236666"><ele>518</ele><time>2012-12-08T12:00:31Z</time></trkpt>
<trkpt lat="53.2400011698" lon="-2.0013771667"><ele>517</ele><time>2012-12-08T12:00:44Z</time></trkpt>
<trkpt lat="53.2401415030" lon="-2.0013518333"><ele>516</ele><time>2012-12-08T12:00:56Z</time></trkpt>
<trkpt lat="53.2402766705" lon="-2.0013056667"><ele>518</ele><time>2012-12-08T12:01:45Z</time></trkpt>
<trkpt lat="53.2404171626" lon="-2.0012771666"><ele>518</ele><time>2012-12-08T12:01:59Z</time></trkpt>
<trkpt lat="53.2405531724" lon="-2.0012166666"><ele>517</ele><time>2012-12-08T12:02:12Z</time></trkpt>
<trkpt lat="53.2406966686" lon="-2.0011653334"><ele>516</ele><time>2012-12-08T12:02:24Z</time></trkpt>
<trkpt lat="53.2408410072" lon="-2.0011216667"><ele>515</ele><time>2012-12-08T12:02:36Z</time></trkpt>
<trkpt lat="53.2409763336" lon="-2.0010791667"><ele>514</ele><time>2012-12-08T12:02:48Z</time></trkpt>
<trkpt lat="53.2411125024" lon="-2.0010266667"><ele>516</ele><time>2012-12-08T12:03:13Z</time></trkpt>
<trkpt lat="53.2412568410" lon="-2.0010018333"><ele>514</ele><time>2012-12-08T12:03:25Z</time></trkpt>
<trkpt lat="53.2414063295" lon="-2.0009705000"><ele>512</ele><time>2012-12-08T12:03:37Z</time></trkpt>
<trkpt lat="53.2415500005" lon="-2.0009198333"><ele>511</ele><time>2012-12-08T12:03:48Z</time></trkpt>
<trkpt lat="53.2416891734" lon="-2.0008711666"><ele>512</ele><time>2012-12-08T12:03:59Z</time></trkpt>
<trkpt lat="53.2418273290" lon="-2.0008153334"><ele>511</ele><time>2012-12-08T12:04:09Z</time></trkpt>
<trkpt lat="53.2419631640" lon="-2.0007798333"><ele>510</ele><time>2012-12-08T12:04:20Z</time></trkpt>
<trkpt lat="53.2420988401" lon="-2.0007380000"><ele>509</ele><time>2012-12-08T12:04:31Z</time></trkpt>
<trkpt lat="53.2422333399" lon="-2.0006825000"><ele>508</ele><time>2012-12-08T12:04:42Z</time></trkpt>
<trkpt lat="53.2423671722" lon="-2.0006335000"><ele>508</ele><time>2012-12-08T12:04:53Z</time></trkpt>
<trkpt lat="53.2425036589" lon="-2.0005728334"><ele>511</ele><time>2012-12-08T12:05:16Z</time></trkpt>
<trkpt lat="53.2426390012" lon="-2.0005371667"><ele>511</ele><time>2012-12-08T12:05:29Z</time></trkpt>
<trkpt lat="53.2427676678" lon="-2.0004666667"><ele>513</ele><time>2012-12-08T12:05:41Z</time></trkpt>
<trkpt lat="53.2429006735" lon="-2.0004148333"><ele>518</ele><time>2012-12-08T12:05:52Z</time></trkpt>
<trkpt lat="53.2430359999" lon="-2.0004071667"><ele>514</ele><time>2012-12-08T12:06:05Z</time></trkpt>
<trkpt lat="53.2431713263" lon="-2.0003840000"><ele>512</ele><time>2012-12-08T12:06:17Z</time></trkpt>
<trkpt lat="53.2433113257" lon="-2.0003511667"><ele>511</ele><time>2012-12-08T12:06:30Z</time></trkpt>
<trkpt lat="53.2434523265" lon="-2.0003120000"><ele>511</ele><time>2012-12-08T12:06:42Z</time></trkpt>
<trkpt lat="53.2435914993" lon="-2.0002706667"><ele>511</ele><time>2012-12-08T12:06:54Z</time></trkpt>
<trkpt lat="53.2437261740" lon="-2.0002161667"><ele>510</ele><time>2012-12-08T12:07:06Z</time></trkpt>
<trkpt lat="53.2438600063" lon="-2.0001781667"><ele>510</ele><time>2012-12-08T12:07:19Z</time></trkpt>
<trkpt lat="53.2439899921" lon="-2.0001133333"><ele>510</ele><time>2012-12-08T12:07:35Z</time></trkpt>
<trkpt lat="53.2441248258" lon="-2.0000650000"><ele>517</ele><time>2012-12-08T12:12:15Z</time></trkpt>
<trkpt lat="53.2442654928" lon="-2.0000053333"><ele>517</ele><time>2012-12-08T12:12:51Z</time></trkpt>
<trkpt lat="53.2444110076" lon="-2.0000103333"><ele>518</ele><time>2012-12-08T12:13:05Z</time></trkpt>
<trkpt lat="53.2445236683" lon="-2.0001343333"><ele>518</ele><time>2012-12-08T12:13:16Z</time></trkpt>
<trkpt lat="53.2446514924" lon="-2.0002218333"><ele>517</ele><time>2012-12-08T12:13:27Z</time></trkpt>
<trkpt lat="53.2447905064" lon="-2.0002658333"><ele>516</ele><time>2012-12-08T12:13:38Z</time></trkpt>
<trkpt lat="53.2449226697" lon="-2.0003348333"><ele>514</ele><time>2012-12-08T12:13:50Z</time></trkpt>
<trkpt lat="53.2450606664" lon="-2.0003940000"><ele>515</ele><time>2012-12-08T12:14:00Z</time></trkpt>
<trkpt lat="53.2452011744" lon="-2.0004525000"><ele>516</ele><time>2012-12-08T12:14:11Z</time></trkpt>
<trkpt lat="53.2453381697" lon="-2.0005260000"><ele>515</ele><time>2012-12-08T12:14:22Z</time></trkpt>
<trkpt lat="53.2454818408" lon="-2.0005798334"><ele>514</ele><time>2012-12-08T12:14:33Z</time></trkpt>
<trkpt lat="53.2456191699" lon="-2.0006608333"><ele>514</ele><time>2012-12-08T12:14:44Z</time></trkpt>
<trkpt lat="53.2457513332" lon="-2.0007520000"><ele>513</ele><time>2012-12-08T12:14:54Z</time></trkpt>
<trkpt lat="53.2458661715" lon="-2.0008800000"><ele>511</ele><time>2012-12-08T12:15:04Z</time></trkpt>
<trkpt lat="53.2459731738" lon="-2.0010418333"><ele>511</ele><time>2012-12-08T12:15:15Z</time></trkpt>
<trkpt lat="53.2460751692" lon="-2.0012065000"><ele>510</ele><time>2012-12-08T12:15:27Z</time></trkpt>
<trkpt lat="53.2461715062" lon="-2.0013701666"><ele>509</ele><time>2012-12-08T12:15:38Z</time></trkpt>
<trkpt lat="53.2462798278" lon="-2.0015223333"><ele>508</ele><time>2012-12-08T12:15:50Z</time></trkpt>
<trkpt lat="53.2463854949" lon="-2.0016621667"><ele>508</ele><time>2012-12-08T12:16:03Z</time></trkpt>
<trkpt lat="53.2464910030" lon="-2.0018323333"><ele>507</ele><time>2012-12-08T12:16:15Z</time></trkpt>
<trkpt lat="53.2466041724" lon="-2.0019821666"><ele>507</ele><time>2012-12-08T12:16:27Z</time></trkpt>
<trkpt lat="53.2467189948" lon="-2.0021213333"><ele>507</ele><time>2012-12-08T12:16:40Z</time></trkpt>
<trkpt lat="53.2468279998" lon="-2.0022650001"><ele>507</ele><time>2012-12-08T12:16:52Z</time></trkpt>
<trkpt lat="53.2469328403" lon="-2.0024178334"><ele>509</ele><time>2012-12-08T12:17:04Z</time></trkpt>
<trkpt lat="53.2470293363" lon="-2.0025926667"><ele>509</ele><time>2012-12-08T12:17:16Z</time></trkpt>
<trkpt lat="53.2471353372" lon="-2.0027520001"><ele>510</ele><time>2012-12-08T12:17:27Z</time></trkpt>
<trkpt lat="53.2472376664" lon="-2.0029143333"><ele>510</ele><time>2012-12-08T12:17:39Z</time></trkpt>
<trkpt lat="53.2473366737" lon="-2.0030769999"><ele>510</ele><time>2012-12-08T12:17:51Z</time></trkpt>
<trkpt lat="53.2474348386" lon="-2.0032516666"><ele>510</ele><time>2012-12-08T12:18:03Z</time></trkpt>
<trkpt lat="53.2475371679" lon="-2.0034048334"><ele>511</ele><time>2012-12-08T12:18:14Z</time></trkpt>
<trkpt lat="53.2476436615" lon="-2.0035446666"><ele>511</ele><time>2012-12-08T12:18:24Z</time></trkpt>
<trkpt lat="53.2477606614" lon="-2.0036878332"><ele>511</ele><time>2012-12-08T12:18:35Z</time></trkpt>
<trkpt lat="53.2478886604" lon="-2.0037958334"><ele>511</ele><time>2012-12-08T12:18:46Z</time></trkpt>
<trkpt lat="53.2480298360" lon="-2.0038135000"><ele>510</ele><time>2012-12-08T12:18:58Z</time></trkpt>
<trkpt lat="53.2481524944" lon="-2.0037038334"><ele>511</ele><time>2012-12-08T12:19:09Z</time></trkpt>
<trkpt lat="53.2482821623" lon="-2.0036369999"><ele>510</ele><time>2012-12-08T12:19:21Z</time></trkpt>
<trkpt lat="53.2484145006" lon="-2.0035883332"><ele>510</ele><time>2012-12-08T12:19:34Z</time></trkpt>
<trkpt lat="53.2485453288" lon="-2.0035293333"><ele>510</ele><time>2012-12-08T12:19:46Z</time></trkpt>
<trkpt lat="53.2486845016" lon="-2.0034633333"><ele>511</ele><time>2012-12-08T12:19:58Z</time></trkpt>
<trkpt lat="53.2488148371" lon="-2.0033960000"><ele>511</ele><time>2012-12-08T12:20:08Z</time></trkpt>
<trkpt lat="53.2489463329" lon="-2.0033260000"><ele>513</ele><time>2012-12-08T12:20:19Z</time></trkpt>
<trkpt lat="53.2490760008" lon="-2.0032635001"><ele>514</ele><time>2012-12-08T12:20:30Z</time></trkpt>
<trkpt lat="53.2492106597" lon="-2.0031961667"><ele>515</ele><time>2012-12-08T12:20:45Z</time></trkpt>
<trkpt lat="53.2493466695" lon="-2.0031441666"><ele>515</ele><time>2012-12-08T12:20:56Z</time></trkpt>
<trkpt lat="53.2494823297" lon="-2.0030893333"><ele>516</ele><time>2012-12-08T12:21:07Z</time></trkpt>
<trkpt lat="53.2496033351" lon="-2.0029760001"><ele>516</ele><time>2012-12-08T12:21:23Z</time></trkpt>
<trkpt lat="53.2497318268" lon="-2.0028891668"><ele>516</ele><time>2012-12-08T12:21:36Z</time></trkpt>
<trkpt lat="53.2498601596" lon="-2.0027933334"><ele>515</ele><time>2012-12-08T12:21:49Z</time></trkpt>
<trkpt lat="53.2499910037" lon="-2.0027330001"><ele>516</ele><time>2012-12-08T12:22:00Z</time></trkpt>
<trkpt lat="53.2501156648" lon="-2.0026130001"><ele>516</ele><time>2012-12-08T12:22:12Z</time></trkpt>
<trkpt lat="53.2502468268" lon="-2.0025208334"><ele>516</ele><time>2012-12-08T12:22:24Z</time></trkpt>
<trkpt lat="53.2503843307" lon="-2.0024583332"><ele>520</ele><time>2012-12-08T12:22:38Z</time></trkpt>
<trkpt lat="53.2505163352" lon="-2.0023624999"><ele>521</ele><time>2012-12-08T12:22:52Z</time></trkpt>
<trkpt lat="53.2506368319" lon="-2.0022443334"><ele>522</ele><time>2012-12-08T12:23:04Z</time></trkpt>
<trkpt lat="53.2507640044" lon="-2.0021498332"><ele>523</ele><time>2012-12-08T12:23:15Z</time></trkpt>
<trkpt lat="53.2508969943" lon="-2.0020894999"><ele>523</ele><time>2012-12-08T12:23:27Z</time></trkpt>
<trkpt lat="53.2510298411" lon="-2.0020111666"><ele>524</ele><time>2012-12-08T12:23:41Z</time></trkpt>
<trkpt lat="53.2511569977" lon="-2.0018973333"><ele>524</ele><time>2012-12-08T12:23:54Z</time></trkpt>
<trkpt lat="53.2512804985" lon="-2.0018015000"><ele>525</ele><time>2012-12-08T12:24:05Z</time></trkpt>
<trkpt lat="53.2514203389" lon="-2.0017250000"><ele>525</ele><time>2012-12-08T12:24:16Z</time></trkpt>
<trkpt lat="53.2515423298" lon="-2.0016051666"><ele>524</ele><time>2012-12-08T12:24:28Z</time></trkpt>
<trkpt lat="53.2516796589" lon="-2.0015388334"><ele>523</ele><time>2012-12-08T12:24:40Z</time></trkpt>
<trkpt lat="53.2518116633" lon="-2.0014893333"><ele>524</ele><time>2012-12-08T12:24:57Z</time></trkpt>
<trkpt lat="53.2519503276" lon="-2.0014170000"><ele>523</ele><time>2012-12-08T12:25:13Z</time></trkpt>
<trkpt lat="53.2520836671" lon="-2.0013648334"><ele>523</ele><time>2012-12-08T12:25:28Z</time></trkpt>
<trkpt lat="53.2522248268" lon="-2.0013175000"><ele>523</ele><time>2012-12-08T12:25:42Z</time></trkpt>
<trkpt lat="53.2523660024" lon="-2.0012900000"><ele>523</ele><time>2012-12-08T12:25:55Z</time></trkpt>
<trkpt lat="53.2525113265" lon="-2.0012921666"><ele>523</ele><time>2012-12-08T12:26:06Z</time></trkpt>
<trkpt lat="53.2526568413" lon="-2.0012596667"><ele>523</ele><time>2012-12-08T12:26:18Z</time></trkpt>
<trkpt lat="53.2527890046" lon="-2.0011838333"><ele>523</ele><time>2012-12-08T12:26:32Z</time></trkpt>
<trkpt lat="53.2529263337" lon="-2.0011125000"><ele>523</ele><time>2012-12-08T12:26:47Z</time></trkpt>
<trkpt lat="53.2530545076" lon="-2.0010328333"><ele>523</ele><time>2012-12-08T12:27:01Z</time></trkpt>
<trkpt lat="53.2531909943" lon="-2.0009636667"><ele>524</ele><time>2012-12-08T12:27:15Z</time></trkpt>
<trkpt lat="53.2533240000" lon="-2.0009221667"><ele>524</ele><time>2012-12-08T12:27:32Z</time></trkpt>
<trkpt lat="53.2534633319" lon="-2.0008958333"><ele>524</ele><time>2012-12-08T12:27:48Z</time></trkpt>
<trkpt lat="53.2536003272" lon="-2.0008600000"><ele>524</ele><time>2012-12-08T12:28:03Z</time></trkpt>
<trkpt lat="53.2537416617" lon="-2.0008128333"><ele>526</ele><time>2012-12-08T12:28:22Z</time></trkpt>
<trkpt lat="53.2538706621" lon="-2.0007398333"><ele>526</ele><time>2012-12-08T12:28:39Z</time></trkpt>
<trkpt lat="53.2539999962" lon="-2.0008135000"><ele>527</ele><time>2012-12-08T12:28:55Z</time></trkpt>
<trkpt lat="53.2541358312" lon="-2.0007865000"><ele>527</ele><time>2012-12-08T12:29:06Z</time></trkpt>
<trkpt lat="53.2542709986" lon="-2.0007368334"><ele>527</ele><time>2012-12-08T12:29:19Z</time></trkpt>
<trkpt lat="53.2544005076" lon="-2.0006613333"><ele>527</ele><time>2012-12-08T12:29:30Z</time></trkpt>
<trkpt lat="53.2545351664" lon="-2.0005971666"><ele>527</ele><time>2012-12-08T12:29:42Z</time></trkpt>
<trkpt lat="53.2546753407" lon="-2.0005503333"><ele>527</ele><time>2012-12-08T12:29:53Z</time></trkpt>
<trkpt lat="53.2548161666" lon="-2.0004801667"><ele>527</ele><time>2012-12-08T12:30:05Z</time></trkpt>
<trkpt lat="53.2549548308" lon="-2.0004385000"><ele>527</ele><time>2012-12-08T12:30:17Z</time></trkpt>
<trkpt lat="53.2550861677" lon="-2.0003826667"><ele>528</ele><time>2012-12-08T12:30:29Z</time></trkpt>
<trkpt lat="53.2552208265" lon="-2.0003423333"><ele>528</ele><time>2012-12-08T12:30:42Z</time></trkpt>
<trkpt lat="53.2553586642" lon="-2.0003010000"><ele>528</ele><time>2012-12-08T12:30:54Z</time></trkpt>
<trkpt lat="53.2554911613" lon="-2.0003843333"><ele>530</ele><time>2012-12-08T12:32:04Z</time></trkpt>
<trkpt lat="53.2555753390" lon="-2.0005665000"><ele>529</ele><time>2012-12-08T12:32:18Z</time></trkpt>
<trkpt lat="53.2556729952" lon="-2.0007270000"><ele>529</ele><time>2012-12-08T12:32:29Z</time></trkpt>
<trkpt lat="53.2557746728" lon="-2.0008960000"><ele>528</ele><time>2012-12-08T12:32:41Z</time></trkpt>
<trkpt lat="53.2558753332" lon="-2.0010533333"><ele>526</ele><time>2012-12-08T12:32:52Z</time></trkpt>
<trkpt lat="53.2559749921" lon="-2.0012246667"><ele>525</ele><time>2012-12-08T12:33:02Z</time></trkpt>
<trkpt lat="53.2560744921" lon="-2.0013905000"><ele>524</ele><time>2012-12-08T12:33:12Z</time></trkpt>
<trkpt lat="53.2561743259" lon="-2.0015488333"><ele>524</ele><time>2012-12-08T12:33:23Z</time></trkpt>
<trkpt lat="53.2562719981" lon="-2.0017356666"><ele>521</ele><time>2012-12-08T12:33:36Z</time></trkpt>
<trkpt lat="53.2563708305" lon="-2.0019016667"><ele>519</ele><time>2012-12-08T12:33:48Z</time></trkpt>
<trkpt lat="53.2564623356" lon="-2.0020733333"><ele>517</ele><time>2012-12-08T12:33:58Z</time></trkpt>
<trkpt lat="53.2565615018" lon="-2.0022333334"><ele>516</ele><time>2012-12-08T12:34:08Z</time></trkpt>
<trkpt lat="53.2566531658" lon="-2.0024014999"><ele>514</ele><time>2012-12-08T12:34:18Z</time></trkpt>
<trkpt lat="53.2567475001" lon="-2.0025748332"><ele>513</ele><time>2012-12-08T12:34:29Z</time></trkpt>
<trkpt lat="53.2568425020" lon="-2.0027451667"><ele>513</ele><time>2012-12-08T12:34:40Z</time></trkpt>
<trkpt lat="53.2569363276" lon="-2.0029140001"><ele>512</ele><time>2012-12-08T12:34:51Z</time></trkpt>
<trkpt lat="53.2570319970" lon="-2.0030951666"><ele>512</ele><time>2012-12-08T12:35:02Z</time></trkpt>
<trkpt lat="53.2571333408" lon="-2.0032548333"><ele>512</ele><time>2012-12-08T12:35:13Z</time></trkpt>
<trkpt lat="53.2572276592" lon="-2.0034391666"><ele>511</ele><time>2012-12-08T12:35:24Z</time></trkpt>
<trkpt lat="53.2573249976" lon="-2.0036170001"><ele>512</ele><time>2012-12-08T12:35:35Z</time></trkpt>
<trkpt lat="53.2574158351" lon="-2.0037960000"><ele>512</ele><time>2012-12-08T12:35:46Z</time></trkpt>
<trkpt lat="53.2575400035" lon="-2.0038938334"><ele>512</ele><time>2012-12-08T12:35:57Z</time></trkpt>
<trkpt lat="53.2576186657" lon="-2.0040773332"><ele>512</ele><time>2012-12-08T12:36:09Z</time></trkpt>
<trkpt lat="53.2577133338" lon="-2.0042450001"><ele>512</ele><time>2012-12-08T12:36:22Z</time></trkpt>
<trkpt lat="53.2577903271" lon="-2.0044429998"><ele>512</ele><time>2012-12-08T12:36:36Z</time></trkpt>
<trkpt lat="53.2578894933" lon="-2.0046196664"><ele>513</ele><time>2012-12-08T12:36:51Z</time></trkpt>
<trkpt lat="53.2579726696" lon="-2.0048069999"><ele>514</ele><time>2012-12-08T12:37:05Z</time></trkpt>
<trkpt lat="53.2580823263" lon="-2.0049536665"><ele>515</ele><time>2012-12-08T12:37:19Z</time></trkpt>
<trkpt lat="53.2582054933" lon="-2.0050646668"><ele>516</ele><time>2012-12-08T12:37:34Z</time></trkpt>
<trkpt lat="53.2583128293" lon="-2.0052044998"><ele>518</ele><time>2012-12-08T12:37:47Z</time></trkpt>
<trkpt lat="53.2583898385" lon="-2.0054051667"><ele>520</ele><time>2012-12-08T12:38:01Z</time></trkpt>
<trkpt lat="53.2584658305" lon="-2.0056024998"><ele>522</ele><time>2012-12-08T12:38:14Z</time></trkpt>
<trkpt lat="53.2585649967" lon="-2.0057693332"><ele>523</ele><time>2012-12-08T12:38:26Z</time></trkpt>
<trkpt lat="53.2586504936" lon="-2.0059628333"><ele>526</ele><time>2012-12-08T12:38:41Z</time></trkpt>
<trkpt lat="53.2587480068" lon="-2.0061320002"><ele>528</ele><time>2012-12-08T12:38:55Z</time></trkpt>
<trkpt lat="53.2588414987" lon="-2.0063111668"><ele>530</ele><time>2012-12-08T12:39:08Z</time></trkpt>
<trkpt lat="53.2589409987" lon="-2.0064751665"><ele>531</ele><time>2012-12-08T12:39:21Z</time></trkpt>
<trkpt lat="53.2590370019" lon="-2.0066425001"><ele>532</ele><time>2012-12-08T12:39:33Z</time></trkpt>
<trkpt lat="53.2591461658" lon="-2.0067849999"><ele>534</ele><time>2012-12-08T12:39:45Z</time></trkpt>
<trkpt lat="53.2592241605" lon="-2.0069828331"><ele>536</ele><time>2012-12-08T12:40:01Z</time></trkpt>
<trkpt lat="53.2593086720" lon="-2.0071645002"><ele>538</ele><time>2012-12-08T12:40:14Z</time></trkpt>
<trkpt lat="53.2594066620" lon="-2.0073286667"><ele>539</ele><time>2012-12-08T12:40:26Z</time></trkpt>
<trkpt lat="53.2595201651" lon="-2.0074543332"><ele>540</ele><time>2012-12-08T12:40:38Z</time></trkpt>
<trkpt lat="53.2596403281" lon="-2.0075914999"><ele>541</ele><time>2012-12-08T12:40:50Z</time></trkpt>
<trkpt lat="53.2597170035" lon="-2.0077984999"><ele>542</ele><time>2012-12-08T12:41:03Z</time></trkpt>
<trkpt lat="53.2598114967" lon="-2.0079691668"><ele>544</ele><time>2012-12-08T12:41:17Z</time></trkpt>
<trkpt lat="53.2598878384" lon="-2.0081616665"><ele>546</ele><time>2012-12-08T12:41:31Z</time></trkpt>
<trkpt lat="53.2599851608" lon="-2.0083268334"><ele>547</ele><time>2012-12-08T12:41:44Z</time></trkpt>
<trkpt lat="53.2600901604" lon="-2.0084851662"><ele>548</ele><time>2012-12-08T12:41:57Z</time></trkpt>
<trkpt lat="53.2601806641" lon="-2.0086709996"><ele>549</ele><time>2012-12-08T12:42:08Z</time></trkpt>
<trkpt lat="53.2602788289" lon="-2.0088308334"><ele>550</ele><time>2012-12-08T12:42:20Z</time></trkpt>
<trkpt lat="53.2603854974" lon="-2.0089863330"><ele>551</ele><time>2012-12-08T12:42:33Z</time></trkpt>
<trkpt lat="53.2604870001" lon="-2.0091563334"><ele>552</ele><time>2012-12-08T12:42:46Z</time></trkpt>
<trkpt lat="53.2605923335" lon="-2.0093116671"><ele>553</ele><time>2012-12-08T12:43:00Z</time></trkpt>
<trkpt lat="53.2607016722" lon="-2.0094455004"><ele>556</ele><time>2012-12-08T12:43:32Z</time></trkpt>
<trkpt lat="53.2608256658" lon="-2.0093236665"><ele>560</ele><time>2012-12-08T12:45:13Z</time></trkpt>
<trkpt lat="53.2609633287" lon="-2.0092474997"><ele>561</ele><time>2012-12-08T12:45:26Z</time></trkpt>
<trkpt lat="53.2610990047" lon="-2.0091713329"><ele>561</ele><time>2012-12-08T12:45:38Z</time></trkpt>
<trkpt lat="53.2612370014" lon="-2.0090871662"><ele>560</ele><time>2012-12-08T12:45:49Z</time></trkpt>
<trkpt lat="53.2613691648" lon="-2.0090080003"><ele>559</ele><time>2012-12-08T12:46:00Z</time></trkpt>
<trkpt lat="53.2615041733" lon="-2.0089188337"><ele>559</ele><time>2012-12-08T12:46:10Z</time></trkpt>
<trkpt lat="53.2616128286" lon="-2.0087674995"><ele>559</ele><time>2012-12-08T12:46:21Z</time></trkpt>
<trkpt lat="53.2617288272" lon="-2.0086341669"><ele>558</ele><time>2012-12-08T12:46:32Z</time></trkpt>
<trkpt lat="53.2618309975" lon="-2.0087841670"><ele>557</ele><time>2012-12-08T12:47:02Z</time></trkpt>
<trkpt lat="53.2619106611" lon="-2.0089866668"><ele>556</ele><time>2012-12-08T12:47:31Z</time></trkpt>
<trkpt lat="53.2619843324" lon="-2.0091921667"><ele>555</ele><time>2012-12-08T12:47:44Z</time></trkpt>
<trkpt lat="53.2620336692" lon="-2.0094068329"><ele>554</ele><time>2012-12-08T12:48:02Z</time></trkpt>
<trkpt lat="53.2620804946" lon="-2.0096271664"><ele>552</ele><time>2012-12-08T12:48:19Z</time></trkpt>
<trkpt lat="53.2621621609" lon="-2.0098156671"><ele>552</ele><time>2012-12-08T12:48:33Z</time></trkpt>
<trkpt lat="53.2621990045" lon="-2.0100374997"><ele>551</ele><time>2012-12-08T12:48:46Z</time></trkpt>
<trkpt lat="53.2622378349" lon="-2.0102688332"><ele>550</ele><time>2012-12-08T12:48:58Z</time></trkpt>
<trkpt lat="53.2623093287" lon="-2.0104728331"><ele>546</ele><time>2012-12-08T12:49:13Z</time></trkpt>
<trkpt lat="53.2623610020" lon="-2.0106941670"><ele>542</ele><time>2012-12-08T12:49:26Z</time></trkpt>
<trkpt lat="53.2624389966" lon="-2.0108891666"><ele>540</ele><time>2012-12-08T12:49:38Z</time></trkpt>
<trkpt lat="53.2624936740" lon="-2.0110986670"><ele>536</ele><time>2012-12-08T12:49:53Z</time></trkpt>
<trkpt lat="53.2625156720" lon="-2.0113311668"><ele>529</ele><time>2012-12-08T12:50:07Z</time></trkpt>
<trkpt lat="53.2625531673" lon="-2.0115586668"><ele>526</ele><time>2012-12-08T12:50:25Z</time></trkpt>
<trkpt lat="53.2626355012" lon="-2.0117441664"><ele>521</ele><time>2012-12-08T12:50:42Z</time></trkpt>
<trkpt lat="53.2627121607" lon="-2.0119418333"><ele>520</ele><time>2012-12-08T12:50:58Z</time></trkpt>
<trkpt lat="53.2627759933" lon="-2.0121423334"><ele>517</ele><time>2012-12-08T12:51:15Z</time></trkpt>
<trkpt lat="53.2628313382" lon="-2.0123596668"><ele>512</ele><time>2012-12-08T12:51:30Z</time></trkpt>
<trkpt lat="53.2628589948" lon="-2.0125874996"><ele>509</ele><time>2012-12-08T12:51:49Z</time></trkpt>
<trkpt lat="53.2629408360" lon="-2.0127885004"><ele>505</ele><time>2012-12-08T12:52:04Z</time></trkpt>
<trkpt lat="53.2630256653" lon="-2.0129751662"><ele>501</ele><time>2012-12-08T12:52:19Z</time></trkpt>
<trkpt lat="53.2630441666" lon="-2.0132143329"><ele>497</ele><time>2012-12-08T12:52:33Z</time></trkpt>
<trkpt lat="53.2630154928" lon="-2.0134388338"><ele>490</ele><time>2012-12-08T12:52:47Z</time></trkpt>
<trkpt lat="53.2630266666" lon="-2.0136723330"><ele>487</ele><time>2012-12-08T12:53:03Z</time></trkpt>
<trkpt lat="53.2630915006" lon="-2.0138838331"><ele>485</ele><time>2012-12-08T12:53:22Z</time></trkpt>
<trkpt lat="53.2631794930" lon="-2.0140566667"><ele>481</ele><time>2012-12-08T12:53:40Z</time></trkpt>
<trkpt lat="53.2632581711" lon="-2.0142425001"><ele>477</ele><time>2012-12-08T12:54:17Z</time></trkpt>
<trkpt lat="53.2632808367" lon="-2.0144820005"><ele>476</ele><time>2012-12-08T12:54:28Z</time></trkpt>
<trkpt lat="53.2632776737" lon="-2.0147093336"><ele>474</ele><time>2012-12-08T12:54:39Z</time></trkpt>
<trkpt lat="53.2633203348" lon="-2.0149284999"><ele>474</ele><time>2012-12-08T12:54:49Z</time></trkpt>
<trkpt lat="53.2633646647" lon="-2.0151585003"><ele>472</ele><time>2012-12-08T12:55:00Z</time></trkpt>
<trkpt lat="53.2634173393" lon="-2.0153811663"><ele>471</ele><time>2012-12-08T12:55:10Z</time></trkpt>
<trkpt lat="53.2634364923" lon="-2.0156045000"><ele>470</ele><time>2012-12-08T12:55:20Z</time></trkpt>
<trkpt lat="53.2634964943" lon="-2.0158073336"><ele>469</ele><time>2012-12-08T12:55:31Z</time></trkpt>
<trkpt lat="53.2635841688" lon="-2.0159831663"><ele>468</ele><time>2012-12-08T12:55:43Z</time></trkpt>
<trkpt lat="53.2635911624" lon="-2.0162155002"><ele>468</ele><time>2012-12-08T12:55:56Z</time></trkpt>
<trkpt lat="53.2636263371" lon="-2.0164424996"><ele>466</ele><time>2012-12-08T12:56:09Z</time></trkpt>
<trkpt lat="53.2636908372" lon="-2.0166576664"><ele>466</ele><time>2012-12-08T12:56:22Z</time></trkpt>
<trkpt lat="53.2637486617" lon="-2.0168694993"><ele>467</ele><time>2012-12-08T12:56:34Z</time></trkpt>
<trkpt lat="53.2638046741" lon="-2.0170919995"><ele>467</ele><time>2012-12-08T12:56:48Z</time></trkpt>
<trkpt lat="53.2638510068" lon="-2.0173176666"><ele>468</ele><time>2012-12-08T12:57:02Z</time></trkpt>
<trkpt lat="53.2638761679" lon="-2.0175469995"><ele>468</ele><time>2012-12-08T12:57:15Z</time></trkpt>
<trkpt lat="53.2639106592" lon="-2.0177741667"><ele>471</ele><time>2012-12-08T12:58:20Z</time></trkpt>
<trkpt lat="53.2640333335" lon="-2.0178811669"><ele>471</ele><time>2012-12-08T12:58:32Z</time></trkpt>
<trkpt lat="53.2641456604" lon="-2.0180335005"><ele>471</ele><time>2012-12-08T12:58:42Z</time></trkpt>
<trkpt lat="53.2642088254" lon="-2.0182334999"><ele>470</ele><time>2012-12-08T12:58:52Z</time></trkpt>
<trkpt lat="53.2642895063" lon="-2.0184178332"><ele>469</ele><time>2012-12-08T12:59:04Z</time></trkpt>
<trkpt lat="53.2643310070" lon="-2.0186346670"><ele>468</ele><time>2012-12-08T12:59:19Z</time></trkpt>
<trkpt lat="53.2643599987" lon="-2.0188645005"><ele>468</ele><time>2012-12-08T12:59:32Z</time></trkpt>
<trkpt lat="53.2644176642" lon="-2.0190850000"><ele>468</ele><time>2012-12-08T12:59:44Z</time></trkpt>
<trkpt lat="53.2644721667" lon="-2.0192908327"><ele>467</ele><time>2012-12-08T12:59:57Z</time></trkpt>
<trkpt lat="53.2645096620" lon="-2.0195125004"><ele>467</ele><time>2012-12-08T13:00:10Z</time></trkpt>
<trkpt lat="53.2645498276" lon="-2.0197313329"><ele>467</ele><time>2012-12-08T13:00:22Z</time></trkpt>
<trkpt lat="53.2645876726" lon="-2.0199686666"><ele>467</ele><time>2012-12-08T13:00:34Z</time></trkpt>
<trkpt lat="53.2646214962" lon="-2.0201883336"><ele>467</ele><time>2012-12-08T13:00:46Z</time></trkpt>
<trkpt lat="53.2646956603" lon="-2.0203954995"><ele>467</ele><time>2012-12-08T13:00:58Z</time></trkpt>
<trkpt lat="53.2647500038" lon="-2.0206086675"><ele>466</ele><time>2012-12-08T13:01:08Z</time></trkpt>
<trkpt lat="53.2648108323" lon="-2.0208131671"><ele>466</ele><time>2012-12-08T13:01:19Z</time></trkpt>
<trkpt lat="53.2648841699" lon="-2.0210210005"><ele>466</ele><time>2012-12-08T13:01:31Z</time></trkpt>
<trkpt lat="53.2649529934" lon="-2.0212279995"><ele>466</ele><time>2012-12-08T13:01:43Z</time></trkpt>
<trkpt lat="53.2650328318" lon="-2.0214113335"><ele>466</ele><time>2012-12-08T13:01:55Z</time></trkpt>
<trkpt lat="53.2651141644" lon="-2.0215951661"><ele>465</ele><time>2012-12-08T13:02:07Z</time></trkpt>
<trkpt lat="53.2652103265" lon="-2.0217583338"><ele>465</ele><time>2012-12-08T13:02:19Z</time></trkpt>
<trkpt lat="53.2653103352" lon="-2.0219173332"><ele>466</ele><time>2012-12-08T13:02:31Z</time></trkpt>
<trkpt lat="53.2654245059" lon="-2.0220520000"><ele>466</ele><time>2012-12-08T13:02:43Z</time></trkpt>
<trkpt lat="53.2655488332" lon="-2.0221490006"><ele>466</ele><time>2012-12-08T13:02:54Z</time></trkpt>
<trkpt lat="53.2656663259" lon="-2.0222730001"><ele>467</ele><time>2012-12-08T13:03:06Z</time></trkpt>
<trkpt lat="53.2657828331" lon="-2.0224013329"><ele>467</ele><time>2012-12-08T13:03:19Z</time></trkpt>
<trkpt lat="53.2659003258" lon="-2.0225209991"><ele>468</ele><time>2012-12-08T13:03:31Z</time></trkpt>
<trkpt lat="53.2660308361" lon="-2.0226104995"><ele>468</ele><time>2012-12-08T13:03:43Z</time></trkpt>
<trkpt lat="53.2661633333" lon="-2.0227159997"><ele>469</ele><time>2012-12-08T13:03:55Z</time></trkpt>
<trkpt lat="53.2662934939" lon="-2.0228169998"><ele>470</ele><time>2012-12-08T13:04:06Z</time></trkpt>
<trkpt lat="53.2664341609" lon="-2.0228779991"><ele>470</ele><time>2012-12-08T13:04:17Z</time></trkpt>
<trkpt lat="53.2665744940" lon="-2.0229231675"><ele>470</ele><time>2012-12-08T13:04:28Z</time></trkpt>
<trkpt lat="53.2667036692" lon="-2.0230349998"><ele>470</ele><time>2012-12-08T13:04:40Z</time></trkpt>
<trkpt lat="53.2668341637" lon="-2.0231411676"><ele>470</ele><time>2012-12-08T13:04:52Z</time></trkpt>
<trkpt lat="53.2669741631" lon="-2.0231731673"><ele>470</ele><time>2012-12-08T13:05:05Z</time></trkpt>
<trkpt lat="53.2670746803" lon="-2.0233235002"><ele>469</ele><time>2012-12-08T13:05:21Z</time></trkpt>
<trkpt lat="53.2671748479" lon="-2.0234818339"><ele>469</ele><time>2012-12-08T13:05:44Z</time></trkpt>
<trkpt lat="53.2672916730" lon="-2.0236168325"><ele>470</ele><time>2012-12-08T13:06:13Z</time></trkpt>
<trkpt lat="53.2673995018" lon="-2.0237561663"><ele>470</ele><time>2012-12-08T13:06:27Z</time></trkpt>
<trkpt lat="53.2675285021" lon="-2.0238448342"><ele>470</ele><time>2012-12-08T13:06:42Z</time></trkpt>
<trkpt lat="53.2676638285" lon="-2.0239306668"><ele>470</ele><time>2012-12-08T13:06:55Z</time></trkpt>
<trkpt lat="53.2677934964" lon="-2.0240224997"><ele>471</ele><time>2012-12-08T13:07:08Z</time></trkpt>
<trkpt lat="53.2679103216" lon="-2.0241364996"><ele>472</ele><time>2012-12-08T13:07:27Z</time></trkpt>
<trkpt lat="53.2680336634" lon="-2.0242434998"><ele>473</ele><time>2012-12-08T13:07:45Z</time></trkpt>
<trkpt lat="53.2681533178" lon="-2.0243501663"><ele>474</ele><time>2012-12-08T13:08:04Z</time></trkpt>
<trkpt lat="53.2682826678" lon="-2.0244308333"><ele>475</ele><time>2012-12-08T13:08:21Z</time></trkpt>
<trkpt lat="53.2684163411" lon="-2.0245061676"><ele>476</ele><time>2012-12-08T13:08:37Z</time></trkpt>
<trkpt lat="53.2685636520" lon="-2.0245380004"><ele>477</ele><time>2012-12-08T13:08:51Z</time></trkpt>
<trkpt lat="53.2686884880" lon="-2.0246466676"><ele>478</ele><time>2012-12-08T13:09:08Z</time></trkpt>
<trkpt lat="53.2688293457" lon="-2.0246906658"><ele>479</ele><time>2012-12-08T13:09:23Z</time></trkpt>
<trkpt lat="53.2689669927" lon="-2.0246909996"><ele>480</ele><time>2012-12-08T13:09:37Z</time></trkpt>
<trkpt lat="53.2691095034" lon="-2.0246934990"><ele>481</ele><time>2012-12-08T13:09:50Z</time></trkpt>
<trkpt lat="53.2692443212" lon="-2.0246939997"><ele>481</ele><time>2012-12-08T13:10:02Z</time></trkpt>
<trkpt lat="53.2693861643" lon="-2.0247146666"><ele>482</ele><time>2012-12-08T13:10:14Z</time></trkpt>
<trkpt lat="53.2695265134" lon="-2.0247620006"><ele>482</ele><time>2012-12-08T13:10:26Z</time></trkpt>
<trkpt lat="53.2696701686" lon="-2.0247881671"><ele>482</ele><time>2012-12-08T13:10:39Z</time></trkpt>
<trkpt lat="53.2698149999" lon="-2.0248194993"><ele>483</ele><time>2012-12-08T13:10:52Z</time></trkpt>
<trkpt lat="53.2699504852" lon="-2.0247906665"><ele>483</ele><time>2012-12-08T13:11:04Z</time></trkpt>
<trkpt lat="53.2700858434" lon="-2.0247853339"><ele>483</ele><time>2012-12-08T13:11:15Z</time></trkpt>
<trkpt lat="53.2702263196" lon="-2.0248149991"><ele>483</ele><time>2012-12-08T13:11:28Z</time></trkpt>
<trkpt lat="53.2703633308" lon="-2.0248266657"><ele>483</ele><time>2012-12-08T13:11:39Z</time></trkpt>
<trkpt lat="53.2705018361" lon="-2.0248353342"><ele>483</ele><time>2012-12-08T13:11:50Z</time></trkpt>
<trkpt lat="53.2706363360" lon="-2.0248788337"><ele>484</ele><time>2012-12-08T13:12:01Z</time></trkpt>
<trkpt lat="53.2707661629" lon="-2.0249466658"><ele>483</ele><time>2012-12-08T13:12:12Z</time></trkpt>
<trkpt lat="53.2708838463" lon="-2.0250661671"><ele>482</ele><time>2012-12-08T13:12:24Z</time></trkpt>
<trkpt lat="53.2710071564" lon="-2.0251775006"><ele>481</ele><time>2012-12-08T13:12:38Z</time></trkpt>
<trkpt lat="53.2711370150" lon="-2.0252513329"><ele>480</ele><time>2012-12-08T13:12:53Z</time></trkpt>
<trkpt lat="53.2712748210" lon="-2.0252318343"><ele>476</ele><time>2012-12-08T13:13:21Z</time></trkpt>
<trkpt lat="53.2714148204" lon="-2.0252554993"><ele>475</ele><time>2012-12-08T13:13:33Z</time></trkpt>
<trkpt lat="53.2715501785" lon="-2.0253054996"><ele>473</ele><time>2012-12-08T13:13:46Z</time></trkpt>
<trkpt lat="53.2716840108" lon="-2.0253461659"><ele>471</ele><time>2012-12-08T13:13:58Z</time></trkpt>
<trkpt lat="53.2718203227" lon="-2.0253816664"><ele>468</ele><time>2012-12-08T13:14:11Z</time></trkpt>
<trkpt lat="53.2719588280" lon="-2.0254019996"><ele>465</ele><time>2012-12-08T13:14:27Z</time></trkpt>
<trkpt lat="53.2720954895" lon="-2.0254645010"><ele>462</ele><time>2012-12-08T13:14:43Z</time></trkpt>
<trkpt lat="53.2722253482" lon="-2.0255270004"><ele>457</ele><time>2012-12-08T13:15:08Z</time></trkpt>
<trkpt lat="53.2722894986" lon="-2.0257330000"><ele>451</ele><time>2012-12-08T13:15:37Z</time></trkpt>
<trkpt lat="53.2724100113" lon="-2.0258560002"><ele>447</ele><time>2012-12-08T13:15:55Z</time></trkpt>
<trkpt lat="53.2725296656" lon="-2.0259871662"><ele>444</ele><time>2012-12-08T13:16:14Z</time></trkpt>
<trkpt lat="53.2725926717" lon="-2.0262000004"><ele>441</ele><time>2012-12-08T13:16:29Z</time></trkpt>
<trkpt lat="53.2726443291" lon="-2.0264141659"><ele>439</ele><time>2012-12-08T13:16:42Z</time></trkpt>
<trkpt lat="53.2727091789" lon="-2.0266128341"><ele>436</ele><time>2012-12-08T13:16:55Z</time></trkpt>
<trkpt lat="53.2727766673" lon="-2.0268101672"><ele>430</ele><time>2012-12-08T13:17:16Z</time></trkpt>
<trkpt lat="53.2728265127" lon="-2.0270388325"><ele>424</ele><time>2012-12-08T13:17:34Z</time></trkpt>
<trkpt lat="53.2728808403" lon="-2.0272526662"><ele>420</ele><time>2012-12-08T13:17:49Z</time></trkpt>
<trkpt lat="53.2728918393" lon="-2.0274853329"><ele>415</ele><time>2012-12-08T13:18:04Z</time></trkpt>
<trkpt lat="53.2729168256" lon="-2.0277171671"><ele>409</ele><time>2012-12-08T13:18:19Z</time></trkpt>
<trkpt lat="53.2729359945" lon="-2.0279571672"><ele>406</ele><time>2012-12-08T13:18:34Z</time></trkpt>
<trkpt lat="53.2729854902" lon="-2.0281835000"><ele>399</ele><time>2012-12-08T13:18:48Z</time></trkpt>
<trkpt lat="53.2730483373" lon="-2.0283864995"><ele>396</ele><time>2012-12-08T13:19:00Z</time></trkpt>
<trkpt lat="53.2730970065" lon="-2.0286143343"><ele>393</ele><time>2012-12-08T13:19:11Z</time></trkpt>
<trkpt lat="53.2731238365" lon="-2.0288499991"><ele>390</ele><time>2012-12-08T13:19:22Z</time></trkpt>
<trkpt lat="53.2731318474" lon="-2.0290775001"><ele>386</ele><time>2012-12-08T13:19:35Z</time></trkpt>
<trkpt lat="53.2732414881" lon="-2.0292271674"><ele>381</ele><time>2012-12-08T13:20:10Z</time></trkpt>
<trkpt lat="53.2732338270" lon="-2.0294574996"><ele>380</ele><time>2012-12-08T13:39:43Z</time></trkpt>
<trkpt lat="53.2732641538" lon="-2.0296788335"><ele>379</ele><time>2012-12-08T13:40:05Z</time></trkpt>
<trkpt lat="53.2733136813" lon="-2.0299008330"><ele>375</ele><time>2012-12-08T13:40:19Z</time></trkpt>
<trkpt lat="53.2733504931" lon="-2.0301208337"><ele>374</ele><time>2012-12-08T13:40:32Z</time></trkpt>
<trkpt lat="53.2733756701" lon="-2.0303544998"><ele>373</ele><time>2012-12-08T13:40:45Z</time></trkpt>
<trkpt lat="53.2733828227" lon="-2.0305908342"><ele>371</ele><time>2012-12-08T13:40:58Z</time></trkpt>
<trkpt lat="53.2733488401" lon="-2.0308100005"><ele>371</ele><time>2012-12-08T13:41:10Z</time></trkpt>
<trkpt lat="53.2733174960" lon="-2.0310320000"><ele>370</ele><time>2012-12-08T13:41:22Z</time></trkpt>
<trkpt lat="53.2733260155" lon="-2.0312706669"><ele>369</ele><time>2012-12-08T13:41:36Z</time></trkpt>
<trkpt lat="53.2733346621" lon="-2.0314975003"><ele>367</ele><time>2012-12-08T13:41:52Z</time></trkpt>
<trkpt lat="53.2733519872" lon="-2.0317271670"><ele>365</ele><time>2012-12-08T13:42:09Z</time></trkpt>
<trkpt lat="53.2733425140" lon="-2.0319641670"><ele>364</ele><time>2012-12-08T13:42:25Z</time></trkpt>
<trkpt lat="53.2733223279" lon="-2.0321941674"><ele>362</ele><time>2012-12-08T13:42:41Z</time></trkpt>
<trkpt lat="53.2733075142" lon="-2.0324326674"><ele>359</ele><time>2012-12-08T13:42:57Z</time></trkpt>
<trkpt lat="53.2732658386" lon="-2.0326553325"><ele>358</ele><time>2012-12-08T13:43:08Z</time></trkpt>
<trkpt lat="53.2732101758" lon="-2.0328615010"><ele>358</ele><time>2012-12-08T13:43:20Z</time></trkpt>
<trkpt lat="53.2731774966" lon="-2.0330818335"><ele>358</ele><time>2012-12-08T13:43:32Z</time></trkpt>
<trkpt lat="53.2731034915" lon="-2.0332966665"><ele>356</ele><time>2012-12-08T13:43:44Z</time></trkpt>
<trkpt lat="53.2730518341" lon="-2.0335060000"><ele>355</ele><time>2012-12-08T13:43:57Z</time></trkpt>
<trkpt lat="53.2729869843" lon="-2.0337068319"><ele>354</ele><time>2012-12-08T13:44:08Z</time></trkpt>
<trkpt lat="53.2729271571" lon="-2.0339110017"><ele>352</ele><time>2012-12-08T13:44:21Z</time></trkpt>
<trkpt lat="53.2728474935" lon="-2.0341003338"><ele>352</ele><time>2012-12-08T13:44:34Z</time></trkpt>
<trkpt lat="53.2727628390" lon="-2.0342924992"><ele>350</ele><time>2012-12-08T13:44:49Z</time></trkpt>
<trkpt lat="53.2726730029" lon="-2.0344763319"><ele>349</ele><time>2012-12-08T13:45:03Z</time></trkpt>
<trkpt lat="53.2725638390" lon="-2.0346294999"><ele>347</ele><time>2012-12-08T13:45:16Z</time></trkpt>
<trkpt lat="53.2724481583" lon="-2.0347648342"><ele>346</ele><time>2012-12-08T13:45:37Z</time></trkpt>
<trkpt lat="53.2723433177" lon="-2.0349141677"><ele>345</ele><time>2012-12-08T13:45:51Z</time></trkpt>
<trkpt lat="53.2722923279" lon="-2.0351301670"><ele>344</ele><time>2012-12-08T13:46:07Z</time></trkpt>
<trkpt lat="53.2722776731" lon="-2.0353643338"><ele>344</ele><time>2012-12-08T13:46:21Z</time></trkpt>
<trkpt lat="53.2723238309" lon="-2.0355903347"><ele>343</ele><time>2012-12-08T13:46:37Z</time></trkpt>
<trkpt lat="53.2723628362" lon="-2.0358219981"><ele>342</ele><time>2012-12-08T13:46:49Z</time></trkpt>
<trkpt lat="53.2723699888" lon="-2.0360599995"><ele>341</ele><time>2012-12-08T13:47:01Z</time></trkpt>
<trkpt lat="53.2723841667" lon="-2.0362945000"><ele>341</ele><time>2012-12-08T13:47:13Z</time></trkpt>
<trkpt lat="53.2723928452" lon="-2.0365438342"><ele>340</ele><time>2012-12-08T13:47:26Z</time></trkpt>
<trkpt lat="53.2724028269" lon="-2.0367818316"><ele>338</ele><time>2012-12-08T13:47:36Z</time></trkpt>
<trkpt lat="53.2724696795" lon="-2.0369938334"><ele>337</ele><time>2012-12-08T13:47:47Z</time></trkpt>
<trkpt lat="53.2725398382" lon="-2.0371928334"><ele>330</ele><time>2012-12-08T13:48:18Z</time></trkpt>
<trkpt lat="53.2726248423" lon="-2.0373860002"><ele>329</ele><time>2012-12-08T13:48:30Z</time></trkpt>
<trkpt lat="53.2726995150" lon="-2.0375873327"><ele>327</ele><time>2012-12-08T13:48:43Z</time></trkpt>
<trkpt lat="53.2727965037" lon="-2.0377588352"><ele>324</ele><time>2012-12-08T13:49:15Z</time></trkpt>
<trkpt lat="53.2728883425" lon="-2.0379291654"><ele>324</ele><time>2012-12-08T13:49:25Z</time></trkpt>
<trkpt lat="53.2729978244" lon="-2.0380818327"><ele>324</ele><time>2012-12-08T13:49:36Z</time></trkpt>
<trkpt lat="53.2731178284" lon="-2.0381979982"><ele>324</ele><time>2012-12-08T13:49:46Z</time></trkpt>
<trkpt lat="53.2732520103" lon="-2.0382696668"><ele>324</ele><time>2012-12-08T13:49:57Z</time></trkpt>
<trkpt lat="53.2733903249" lon="-2.0383159995"><ele>324</ele><time>2012-12-08T13:50:07Z</time></trkpt>
<trkpt lat="53.2735355059" lon="-2.0383124987"><ele>324</ele><time>2012-12-08T13:50:18Z</time></trkpt>
<trkpt lat="53.2736713409" lon="-2.0383020004"><ele>324</ele><time>2012-12-08T13:50:28Z</time></trkpt>
<trkpt lat="53.2738123258" lon="-2.0382488330"><ele>324</ele><time>2012-12-08T13:50:40Z</time></trkpt>
<trkpt lat="53.2739551544" lon="-2.0381876667"><ele>324</ele><time>2012-12-08T13:50:51Z</time></trkpt>
<trkpt lat="53.2740873337" lon="-2.0380988320"><ele>324</ele><time>2012-12-08T13:51:02Z</time></trkpt>
<trkpt lat="53.2742143313" lon="-2.0379969994"><ele>324</ele><time>2012-12-08T13:51:13Z</time></trkpt>
<trkpt lat="53.2743436813" lon="-2.0378936648"><ele>324</ele><time>2012-12-08T13:51:24Z</time></trkpt>
<trkpt lat="53.2744781812" lon="-2.0378101667"><ele>325</ele><time>2012-12-08T13:51:36Z</time></trkpt>
<trkpt lat="53.2746131579" lon="-2.0377293348"><ele>326</ele><time>2012-12-08T13:51:51Z</time></trkpt>
<trkpt lat="53.2744949977" lon="-2.0378476659"><ele>326</ele><time>2012-12-08T13:52:13Z</time></trkpt>
<trkpt lat="53.2745111783" lon="-2.0380809983"><ele>326</ele><time>2012-12-08T13:52:49Z</time></trkpt>
<trkpt lat="53.2745688438" lon="-2.0382961671"><ele>326</ele><time>2012-12-08T13:53:00Z</time></trkpt>
<trkpt lat="53.2746548335" lon="-2.0384883324"><ele>325</ele><time>2012-12-08T13:53:11Z</time></trkpt>
<trkpt lat="53.2747233391" lon="-2.0386898319"><ele>324</ele><time>2012-12-08T13:53:21Z</time></trkpt>
<trkpt lat="53.2747961680" lon="-2.0388859987"><ele>324</ele><time>2012-12-08T13:53:33Z</time></trkpt>
<trkpt lat="53.2749215126" lon="-2.0389931679"><ele>323</ele><time>2012-12-08T13:53:46Z</time></trkpt>
<trkpt lat="53.2750654856" lon="-2.0389755011"><ele>322</ele><time>2012-12-08T13:53:57Z</time></trkpt>
<trkpt lat="53.2752035141" lon="-2.0389764984"><ele>322</ele><time>2012-12-08T13:54:08Z</time></trkpt>
<trkpt lat="53.2753466606" lon="-2.0389911652"><ele>322</ele><time>2012-12-08T13:54:24Z</time></trkpt>
<trkpt lat="53.2754911741" lon="-2.0390204986"><ele>321</ele><time>2012-12-08T13:55:57Z</time></trkpt>
<trkpt lat="53.2755293210" lon="-2.0392433325"><ele>319</ele><time>2012-12-08T13:56:10Z</time></trkpt>
<trkpt lat="53.2755689939" lon="-2.0394716660"><ele>317</ele><time>2012-12-08T13:56:21Z</time></trkpt>
<trkpt lat="53.2755830129" lon="-2.0396991650"><ele>316</ele><time>2012-12-08T13:56:32Z</time></trkpt>
<trkpt lat="53.2755510012" lon="-2.0399371664"><ele>315</ele><time>2012-12-08T13:56:46Z</time></trkpt>
<trkpt lat="53.2755990028" lon="-2.0401695013"><ele>314</ele><time>2012-12-08T13:57:09Z</time></trkpt>
<trkpt lat="53.2755886714" lon="-2.0404986660"><ele>314</ele><time>2012-12-08T13:57:19Z</time></trkpt>
<trkpt lat="53.2755748431" lon="-2.0407336672"><ele>314</ele><time>2012-12-08T13:57:31Z</time></trkpt>
<trkpt lat="53.2756053289" lon="-2.0409718315"><ele>314</ele><time>2012-12-08T13:57:48Z</time></trkpt>
<trkpt lat="53.2755983353" lon="-2.0411990007"><ele>315</ele><time>2012-12-08T13:57:59Z</time></trkpt>
<trkpt lat="53.2756255150" lon="-2.0414321661"><ele>316</ele><time>2012-12-08T13:58:14Z</time></trkpt>
<trkpt lat="53.2756441752" lon="-2.0416646679"><ele>317</ele><time>2012-12-08T13:58:26Z</time></trkpt>
<trkpt lat="53.2756305059" lon="-2.0419018348"><ele>318</ele><time>2012-12-08T13:58:39Z</time></trkpt>
<trkpt lat="53.2756051699" lon="-2.0421238343"><ele>320</ele><time>2012-12-08T13:58:50Z</time></trkpt>
<trkpt lat="53.2755771637" lon="-2.0423744996"><ele>323</ele><time>2012-12-08T13:59:00Z</time></trkpt>
<trkpt lat="53.2755700111" lon="-2.0426249981"><ele>326</ele><time>2012-12-08T13:59:14Z</time></trkpt>
<trkpt lat="53.2755783399" lon="-2.0428691665"><ele>329</ele><time>2012-12-08T13:59:25Z</time></trkpt>
<trkpt lat="53.2755886714" lon="-2.0431024988"><ele>330</ele><time>2012-12-08T13:59:35Z</time></trkpt>
<trkpt lat="53.2756086667" lon="-2.0433369994"><ele>330</ele><time>2012-12-08T13:59:45Z</time></trkpt>
<trkpt lat="53.2756354968" lon="-2.0435679992"><ele>330</ele><time>2012-12-08T13:59:55Z</time></trkpt>
<trkpt lat="53.2756233215" lon="-2.0438164989"><ele>330</ele><time>2012-12-08T14:00:05Z</time></trkpt>
<trkpt lat="53.2756690025" lon="-2.0440388322"><ele>331</ele><time>2012-12-08T14:00:15Z</time></trkpt>
<trkpt lat="53.2757993380" lon="-2.0441345016"><ele>331</ele><time>2012-12-08T14:00:25Z</time></trkpt>
<trkpt lat="53.2759359996" lon="-2.0442128340"><ele>331</ele><time>2012-12-08T14:00:35Z</time></trkpt>
<trkpt lat="53.2759968440" lon="-2.0444240014"><ele>329</ele><time>2012-12-08T14:00:46Z</time></trkpt>
<trkpt lat="53.2760168393" lon="-2.0446993351"><ele>329</ele><time>2012-12-08T14:00:56Z</time></trkpt>
<trkpt lat="53.2760498365" lon="-2.0449369987"><ele>326</ele><time>2012-12-08T14:01:08Z</time></trkpt>
<trkpt lat="53.2760675112" lon="-2.0451645017"><ele>325</ele><time>2012-12-08T14:01:18Z</time></trkpt>
<trkpt lat="53.2760833422" lon="-2.0453928351"><ele>322</ele><time>2012-12-08T14:01:30Z</time></trkpt>
<trkpt lat="53.2760876656" lon="-2.0456270019"><ele>319</ele><time>2012-12-08T14:01:40Z</time></trkpt>
<trkpt lat="53.2760796547" lon="-2.0458775004"><ele>317</ele><time>2012-12-08T14:01:51Z</time></trkpt>
<trkpt lat="53.2761029879" lon="-2.0461041649"><ele>315</ele><time>2012-12-08T14:02:01Z</time></trkpt>
<trkpt lat="53.2761263212" lon="-2.0463320017"><ele>313</ele><time>2012-12-08T14:02:12Z</time></trkpt>
<trkpt lat="53.2761615117" lon="-2.0465581656"><ele>309</ele><time>2012-12-08T14:02:24Z</time></trkpt>
<trkpt lat="53.2761954943" lon="-2.0467779994"><ele>306</ele><time>2012-12-08T14:02:35Z</time></trkpt>
<trkpt lat="53.2762469927" lon="-2.0470108350"><ele>303</ele><time>2012-12-08T14:02:45Z</time></trkpt>
<trkpt lat="53.2762453397" lon="-2.0472748319"><ele>301</ele><time>2012-12-08T14:02:55Z</time></trkpt>
<trkpt lat="53.2762903214" lon="-2.0475041668"><ele>298</ele><time>2012-12-08T14:03:07Z</time></trkpt>
<trkpt lat="53.2763475100" lon="-2.0477226655"><ele>290</ele><time>2012-12-08T14:03:22Z</time></trkpt>
<trkpt lat="53.2763875008" lon="-2.0479473352"><ele>287</ele><time>2012-12-08T14:03:34Z</time></trkpt>
<trkpt lat="53.2764198303" lon="-2.0481831670"><ele>284</ele><time>2012-12-08T14:03:45Z</time></trkpt>
<trkpt lat="53.2764364878" lon="-2.0484265010"><ele>282</ele><time>2012-12-08T14:03:56Z</time></trkpt>
<trkpt lat="53.2764380137" lon="-2.0486600002"><ele>280</ele><time>2012-12-08T14:04:06Z</time></trkpt>
<trkpt lat="53.2764251709" lon="-2.0488950014"><ele>278</ele><time>2012-12-08T14:04:17Z</time></trkpt>
<trkpt lat="53.2763761520" lon="-2.0491121650"><ele>277</ele><time>2012-12-08T14:04:28Z</time></trkpt>
<trkpt lat="53.2762894948" lon="-2.0492939989"><ele>276</ele><time>2012-12-08T14:04:39Z</time></trkpt>
<trkpt lat="53.2761748314" lon="-2.0494199991"><ele>275</ele><time>2012-12-08T14:04:50Z</time></trkpt>
<trkpt lat="53.2760531743" lon="-2.0493204991"><ele>277</ele><time>2012-12-08T14:05:35Z</time></trkpt>
<trkpt lat="53.2760403315" lon="-2.0495563348"><ele>276</ele><time>2012-12-08T14:06:02Z</time></trkpt>
<trkpt lat="53.2760346731" lon="-2.0498010000"><ele>275</ele><time>2012-12-08T14:06:16Z</time></trkpt>
<trkpt lat="53.2760769844" lon="-2.0500193318"><ele>274</ele><time>2012-12-08T14:06:28Z</time></trkpt>
<trkpt lat="53.2760723432" lon="-2.0502521674"><ele>274</ele><time>2012-12-08T14:06:38Z</time></trkpt>
<trkpt lat="53.2761666616" lon="-2.0504215002"><ele>274</ele><time>2012-12-08T14:06:50Z</time></trkpt>
<trkpt lat="53.2762671789" lon="-2.0505830010"><ele>271</ele><time>2012-12-08T14:07:05Z</time></trkpt>
<trkpt lat="53.2764018377" lon="-2.0506298343"><ele>270</ele><time>2012-12-08T14:07:26Z</time></trkpt>
<trkpt lat="53.2764915148" lon="-2.0508183320"><ele>270</ele><time>2012-12-08T14:07:42Z</time></trkpt>
<trkpt lat="53.2765036583" lon="-2.0510556658"><ele>270</ele><time>2012-12-08T14:07:52Z</time></trkpt>
<trkpt lat="53.2765253385" lon="-2.0512845000"><ele>269</ele><time>2012-12-08T14:08:02Z</time></trkpt>
<trkpt lat="53.2765619914" lon="-2.0515111685"><ele>269</ele><time>2012-12-08T14:08:13Z</time></trkpt>
<trkpt lat="53.2766029994" lon="-2.0517254988"><ele>268</ele><time>2012-12-08T14:08:25Z</time></trkpt>
<trkpt lat="53.2766511599" lon="-2.0519421657"><ele>268</ele><time>2012-12-08T14:08:39Z</time></trkpt>
<trkpt lat="53.2766883214" lon="-2.0521725019"><ele>268</ele><time>2012-12-08T14:08:54Z</time></trkpt>
<trkpt lat="53.2767151515" lon="-2.0523995002"><ele>268</ele><time>2012-12-08T14:09:08Z</time></trkpt>
<trkpt lat="53.2767506599" lon="-2.0526268323"><ele>268</ele><time>2012-12-08T14:09:24Z</time></trkpt>
<trkpt lat="53.2768296560" lon="-2.0528116663"><ele>269</ele><time>2012-12-08T14:09:43Z</time></trkpt>
<trkpt lat="53.2768231710" lon="-2.0530428330"><ele>270</ele><time>2012-12-08T14:09:59Z</time></trkpt>
<trkpt lat="53.2767581622" lon="-2.0532411655"><ele>275</ele><time>2012-12-08T14:10:41Z</time></trkpt>
<trkpt lat="53.2766555150" lon="-2.0533898314"><ele>285</ele><time>2012-12-08T14:11:33Z</time></trkpt>
<trkpt lat="53.2765430133" lon="-2.0535208344"><ele>287</ele><time>2012-12-08T14:16:37Z</time></trkpt>
<trkpt lat="53.2764121691" lon="-2.0535924991"><ele>287</ele><time>2012-12-08T14:16:51Z</time></trkpt>
<trkpt lat="53.2762826602" lon="-2.0536971649"><ele>288</ele><time>2012-12-08T14:17:04Z</time></trkpt>
<trkpt lat="53.2761823336" lon="-2.0538559993"><ele>289</ele><time>2012-12-08T14:17:17Z</time></trkpt>
<trkpt lat="53.2761150042" lon="-2.0540548325"><ele>290</ele><time>2012-12-08T14:17:28Z</time></trkpt>
<trkpt lat="53.2760501544" lon="-2.0542585015"><ele>292</ele><time>2012-12-08T14:17:39Z</time></trkpt>
<trkpt lat="53.2759836515" lon="-2.0544558326"><ele>293</ele><time>2012-12-08T14:17:49Z</time></trkpt>
<trkpt lat="53.2759173393" lon="-2.0546549996"><ele>294</ele><time>2012-12-08T14:17:59Z</time></trkpt>
<trkpt lat="53.2758488337" lon="-2.0548545003"><ele>295</ele><time>2012-12-08T14:18:09Z</time></trkpt>
<trkpt lat="53.2757864952" lon="-2.0550688346"><ele>297</ele><time>2012-12-08T14:18:20Z</time></trkpt>
<trkpt lat="53.2757210096" lon="-2.0552659988"><ele>297</ele><time>2012-12-08T14:18:30Z</time></trkpt>
<trkpt lat="53.2756439845" lon="-2.0554763317"><ele>298</ele><time>2012-12-08T14:18:41Z</time></trkpt>
<trkpt lat="53.2755866687" lon="-2.0556908329"><ele>298</ele><time>2012-12-08T14:18:52Z</time></trkpt>
<trkpt lat="53.2755151749" lon="-2.0559046666"><ele>299</ele><time>2012-12-08T14:19:02Z</time></trkpt>
<trkpt lat="53.2754501661" lon="-2.0561306675"><ele>300</ele><time>2012-12-08T14:19:12Z</time></trkpt>
<trkpt lat="53.2753968239" lon="-2.0563526670"><ele>300</ele><time>2012-12-08T14:19:22Z</time></trkpt>
<trkpt lat="53.2753533363" lon="-2.0565698346"><ele>301</ele><time>2012-12-08T14:19:32Z</time></trkpt>
<trkpt lat="53.2753096581" lon="-2.0567929983"><ele>301</ele><time>2012-12-08T14:19:43Z</time></trkpt>
<trkpt lat="53.2752703349" lon="-2.0570090016"><ele>302</ele><time>2012-12-08T14:19:53Z</time></trkpt>
<trkpt lat="53.2752220154" lon="-2.0572359999"><ele>302</ele><time>2012-12-08T14:20:04Z</time></trkpt>
<trkpt lat="53.2751663208" lon="-2.0574505011"><ele>305</ele><time>2012-12-08T14:20:40Z</time></trkpt>
<trkpt lat="53.2751720111" lon="-2.0576788346"><ele>306</ele><time>2012-12-08T14:20:52Z</time></trkpt>
<trkpt lat="53.2751993179" lon="-2.0579100013"><ele>306</ele><time>2012-12-08T14:21:04Z</time></trkpt>
<trkpt lat="53.2752409935" lon="-2.0581378341"><ele>306</ele><time>2012-12-08T14:21:17Z</time></trkpt>
<trkpt lat="53.2752801577" lon="-2.0583538334"><ele>306</ele><time>2012-12-08T14:21:28Z</time></trkpt>
<trkpt lat="53.2752968470" lon="-2.0585771680"><ele>307</ele><time>2012-12-08T14:21:38Z</time></trkpt>
<trkpt lat="53.2753233274" lon="-2.0587995013"><ele>307</ele><time>2012-12-08T14:21:48Z</time></trkpt>
<trkpt lat="53.2753471692" lon="-2.0590216676"><ele>308</ele><time>2012-12-08T14:21:59Z</time></trkpt>
<trkpt lat="53.2753556569" lon="-2.0592516661"><ele>308</ele><time>2012-12-08T14:22:09Z</time></trkpt>
<trkpt lat="53.2753254890" lon="-2.0594896674"><ele>309</ele><time>2012-12-08T14:22:19Z</time></trkpt>
<trkpt lat="53.2752840042" lon="-2.0597300013"><ele>309</ele><time>2012-12-08T14:22:29Z</time></trkpt>
<trkpt lat="53.2752464930" lon="-2.0599608342"><ele>310</ele><time>2012-12-08T14:22:39Z</time></trkpt>
<trkpt lat="53.2752121607" lon="-2.0601980011"><ele>310</ele><time>2012-12-08T14:22:50Z</time></trkpt>
<trkpt lat="53.2751811663" lon="-2.0604326685"><ele>310</ele><time>2012-12-08T14:23:01Z</time></trkpt>
<trkpt lat="53.2751391729" lon="-2.0606471658"><ele>310</ele><time>2012-12-08T14:23:11Z</time></trkpt>
<trkpt lat="53.2751084963" lon="-2.0608685017"><ele>310</ele><time>2012-12-08T14:23:22Z</time></trkpt>
<trkpt lat="53.2750596682" lon="-2.0610808333"><ele>310</ele><time>2012-12-08T14:23:32Z</time></trkpt>
<trkpt lat="53.2750066757" lon="-2.0612909993"><ele>309</ele><time>2012-12-08T14:23:42Z</time></trkpt>
<trkpt lat="53.2749466578" lon="-2.0615216653"><ele>309</ele><time>2012-12-08T14:23:52Z</time></trkpt>
<trkpt lat="53.2748746554" lon="-2.0617171685"><ele>309</ele><time>2012-12-08T14:24:02Z</time></trkpt>
<trkpt lat="53.2747838338" lon="-2.0619026661"><ele>307</ele><time>2012-12-08T14:24:33Z</time></trkpt>
<trkpt lat="53.2746838252" lon="-2.0620795012"><ele>306</ele><time>2012-12-08T14:24:43Z</time></trkpt>
<trkpt lat="53.2745916684" lon="-2.0622708321"><ele>306</ele><time>2012-12-08T14:24:55Z</time></trkpt>
<trkpt lat="53.2745188395" lon="-2.0624716679"><ele>305</ele><time>2012-12-08T14:25:06Z</time></trkpt>
<trkpt lat="53.2744264921" lon="-2.0626438340"><ele>305</ele><time>2012-12-08T14:25:16Z</time></trkpt>
<trkpt lat="53.2743436813" lon="-2.0628541668"><ele>304</ele><time>2012-12-08T14:25:27Z</time></trkpt>
<trkpt lat="53.2742498398" lon="-2.0630445004"><ele>303</ele><time>2012-12-08T14:25:37Z</time></trkpt>
<trkpt lat="53.2741676648" lon="-2.0632301648"><ele>303</ele><time>2012-12-08T14:25:47Z</time></trkpt>
<trkpt lat="53.2740681648" lon="-2.0634233316"><ele>302</ele><time>2012-12-08T14:25:57Z</time></trkpt>
<trkpt lat="53.2739701589" lon="-2.0636141658"><ele>301</ele><time>2012-12-08T14:26:07Z</time></trkpt>
<trkpt lat="53.2738733292" lon="-2.0637933334"><ele>301</ele><time>2012-12-08T14:26:17Z</time></trkpt>
<trkpt lat="53.2737956683" lon="-2.0639960011"><ele>300</ele><time>2012-12-08T14:26:28Z</time></trkpt>
<trkpt lat="53.2737091700" lon="-2.0641909997"><ele>299</ele><time>2012-12-08T14:26:38Z</time></trkpt>
<trkpt lat="53.2736298243" lon="-2.0643901666"><ele>298</ele><time>2012-12-08T14:26:49Z</time></trkpt>
<trkpt lat="53.2735164960" lon="-2.0645824989"><ele>297</ele><time>2012-12-08T14:26:59Z</time></trkpt>
<trkpt lat="53.2734351794" lon="-2.0647831678"><ele>296</ele><time>2012-12-08T14:27:10Z</time></trkpt>
<trkpt lat="53.2733499845" lon="-2.0649815003"><ele>295</ele><time>2012-12-08T14:27:20Z</time></trkpt>
<trkpt lat="53.2731916746" lon="-2.0652269999"><ele>294</ele><time>2012-12-08T14:27:30Z</time></trkpt>
<trkpt lat="53.2731011709" lon="-2.0654198329"><ele>293</ele><time>2012-12-08T14:27:40Z</time></trkpt>
<trkpt lat="53.2729873339" lon="-2.0655663331"><ele>291</ele><time>2012-12-08T14:27:50Z</time></trkpt>
<trkpt lat="53.2728529930" lon="-2.0657063325"><ele>290</ele><time>2012-12-08T14:28:00Z</time></trkpt>
<trkpt lat="53.2727239927" lon="-2.0658171654"><ele>289</ele><time>2012-12-08T14:28:11Z</time></trkpt>
<trkpt lat="53.2725798289" lon="-2.0659761667"><ele>288</ele><time>2012-12-08T14:28:21Z</time></trkpt>
<trkpt lat="53.2725269953" lon="-2.0661938349"><ele>287</ele><time>2012-12-08T14:28:33Z</time></trkpt>
<trkpt lat="53.2725621541" lon="-2.0664323330"><ele>284</ele><time>2012-12-08T14:28:44Z</time></trkpt>
<trkpt lat="53.2725645065" lon="-2.0666709979"><ele>283</ele><time>2012-12-08T14:28:54Z</time></trkpt>
<trkpt lat="53.2725238482" lon="-2.0669020017"><ele>281</ele><time>2012-12-08T14:29:04Z</time></trkpt>
<trkpt lat="53.2724686623" lon="-2.0671161652"><ele>276</ele><time>2012-12-08T14:29:16Z</time></trkpt>
<trkpt lat="53.2723985036" lon="-2.0673099995"><ele>274</ele><time>2012-12-08T14:29:26Z</time></trkpt>
<trkpt lat="53.2723168373" lon="-2.0675050020"><ele>272</ele><time>2012-12-08T14:29:36Z</time></trkpt>
<trkpt lat="53.2722388268" lon="-2.0677138329"><ele>271</ele><time>2012-12-08T14:29:47Z</time></trkpt>
<trkpt lat="53.2721810023" lon="-2.0679353317"><ele>271</ele><time>2012-12-08T14:29:58Z</time></trkpt>
<trkpt lat="53.2721286774" lon="-2.0681486686"><ele>270</ele><time>2012-12-08T14:30:09Z</time></trkpt>
<trkpt lat="53.2720756531" lon="-2.0683591684"><ele>269</ele><time>2012-12-08T14:30:21Z</time></trkpt>
<trkpt lat="53.2720701536" lon="-2.0685948372"><ele>268</ele><time>2012-12-08T14:30:32Z</time></trkpt>
<trkpt lat="53.2721041679" lon="-2.0688726664"><ele>266</ele><time>2012-12-08T14:30:42Z</time></trkpt>
<trkpt lat="53.2721578280" lon="-2.0691041629"><ele>266</ele><time>2012-12-08T14:30:52Z</time></trkpt>
<trkpt lat="53.2722396533" lon="-2.0692851702"><ele>265</ele><time>2012-12-08T14:31:02Z</time></trkpt>
<trkpt lat="53.2723070145" lon="-2.0694811662"><ele>265</ele><time>2012-12-08T14:31:12Z</time></trkpt>
<trkpt lat="53.2723545074" lon="-2.0697121700"><ele>264</ele><time>2012-12-08T14:31:22Z</time></trkpt>
<trkpt lat="53.2724214872" lon="-2.0699210008"><ele>263</ele><time>2012-12-08T14:31:32Z</time></trkpt>
<trkpt lat="53.2725051562" lon="-2.0701304992"><ele>262</ele><time>2012-12-08T14:31:42Z</time></trkpt>
<trkpt lat="53.2725590070" lon="-2.0703731696"><ele>261</ele><time>2012-12-08T14:31:52Z</time></trkpt>
<trkpt lat="53.2726276716" lon="-2.0705698331"><ele>261</ele><time>2012-12-08T14:32:02Z</time></trkpt>
<trkpt lat="53.2727026622" lon="-2.0707580010"><ele>261</ele><time>2012-12-08T14:32:12Z</time></trkpt>
<trkpt lat="53.2727481524" lon="-2.0709751685"><ele>260</ele><time>2012-12-08T14:32:22Z</time></trkpt>
<trkpt lat="53.2727991740" lon="-2.0711973349"><ele>260</ele><time>2012-12-08T14:32:32Z</time></trkpt>
<trkpt lat="53.2728516579" lon="-2.0714141687"><ele>260</ele><time>2012-12-08T14:32:42Z</time></trkpt>
<trkpt lat="53.2729223251" lon="-2.0716161648"><ele>260</ele><time>2012-12-08T14:32:52Z</time></trkpt>
<trkpt lat="53.2730484962" lon="-2.0717626651"><ele>259</ele><time>2012-12-08T14:33:02Z</time></trkpt>
<trkpt lat="53.2731340090" lon="-2.0719608307"><ele>259</ele><time>2012-12-08T14:33:12Z</time></trkpt>
<trkpt lat="53.2732346535" lon="-2.0721116702"><ele>258</ele><time>2012-12-08T14:33:22Z</time></trkpt>
<trkpt lat="53.2733491580" lon="-2.0722484986"><ele>258</ele><time>2012-12-08T14:33:32Z</time></trkpt>
<trkpt lat="53.2734594981" lon="-2.0723966678"><ele>257</ele><time>2012-12-08T14:33:42Z</time></trkpt>
<trkpt lat="53.2735646566" lon="-2.0725668351"><ele>257</ele><time>2012-12-08T14:33:52Z</time></trkpt>
<trkpt lat="53.2736721675" lon="-2.0727409999"><ele>256</ele><time>2012-12-08T14:34:02Z</time></trkpt>
<trkpt lat="53.2737758319" lon="-2.0729144971"><ele>256</ele><time>2012-12-08T14:34:12Z</time></trkpt>
<trkpt lat="53.2738686562" lon="-2.0731021643"><ele>255</ele><time>2012-12-08T14:34:22Z</time></trkpt>
<trkpt lat="53.2739364942" lon="-2.0733046691"><ele>254</ele><time>2012-12-08T14:34:33Z</time></trkpt>
<trkpt lat="53.2738073349" lon="-2.0733906666"><ele>252</ele><time>2012-12-08T14:35:13Z</time></trkpt>
<trkpt lat="53.2736658414" lon="-2.0734401703"><ele>253</ele><time>2012-12-08T14:35:27Z</time></trkpt>
<trkpt lat="53.2735343297" lon="-2.0734896660"><ele>254</ele><time>2012-12-08T14:35:41Z</time></trkpt>
<trkpt lat="53.2734004974" lon="-2.0735484997"><ele>257</ele><time>2012-12-08T14:35:58Z</time></trkpt>
<trkpt lat="53.2732811610" lon="-2.0734158357"><ele>260</ele><time>2012-12-08T14:36:18Z</time></trkpt>
<trkpt lat="53.2731954892" lon="-2.0732419968"><ele>262</ele><time>2012-12-08T14:36:29Z</time></trkpt>
<trkpt lat="53.2730858485" lon="-2.0731060028"><ele>263</ele><time>2012-12-08T14:36:42Z</time></trkpt>
<trkpt lat="53.2730235100" lon="-2.0729028304"><ele>265</ele><time>2012-12-08T14:36:59Z</time></trkpt>
<trkpt lat="53.2729153315" lon="-2.0727629979"><ele>267</ele><time>2012-12-08T14:37:14Z</time></trkpt>
<trkpt lat="53.2727814992" lon="-2.0726888339"><ele>270</ele><time>2012-12-08T14:37:31Z</time></trkpt>
<trkpt lat="53.2726516724" lon="-2.0726136684"><ele>273</ele><time>2012-12-08T14:37:47Z</time></trkpt>
<trkpt lat="53.2725293477" lon="-2.0725058317"><ele>277</ele><time>2012-12-08T14:38:18Z</time></trkpt>
<trkpt lat="53.2723971685" lon="-2.0724498351"><ele>279</ele><time>2012-12-08T14:38:38Z</time></trkpt>
<trkpt lat="53.2722590129" lon="-2.0724108299"><ele>283</ele><time>2012-12-08T14:38:53Z</time></trkpt>
<trkpt lat="53.2721228282" lon="-2.0723538319"><ele>288</ele><time>2012-12-08T14:39:08Z</time></trkpt>
<trkpt lat="53.2719921748" lon="-2.0722958326"><ele>290</ele><time>2012-12-08T14:39:21Z</time></trkpt>
<trkpt lat="53.2718551636" lon="-2.0722463369"><ele>291</ele><time>2012-12-08T14:39:37Z</time></trkpt>
<trkpt lat="53.2717206637" lon="-2.0722283363"><ele>294</ele><time>2012-12-08T14:40:03Z</time></trkpt>
<trkpt lat="53.2715895017" lon="-2.0722939968"><ele>295</ele><time>2012-12-08T14:41:06Z</time></trkpt>
<trkpt lat="53.2714478175" lon="-2.0723406633"><ele>296</ele><time>2012-12-08T14:41:19Z</time></trkpt>
<trkpt lat="53.2713101705" lon="-2.0723713319"><ele>298</ele><time>2012-12-08T14:41:31Z</time></trkpt>
<trkpt lat="53.2711673419" lon="-2.0723834991"><ele>299</ele><time>2012-12-08T14:41:43Z</time></trkpt>
<trkpt lat="53.2710339864" lon="-2.0724224965"><ele>301</ele><time>2012-12-08T14:41:55Z</time></trkpt>
<trkpt lat="53.2708924929" lon="-2.0724721670"><ele>303</ele><time>2012-12-08T14:42:09Z</time></trkpt>
<trkpt lat="53.2707559903" lon="-2.0724879980"><ele>303</ele><time>2012-12-08T14:42:22Z</time></trkpt>
<trkpt lat="53.2706056595" lon="-2.0725018342"><ele>304</ele><time>2012-12-08T14:42:35Z</time></trkpt>
<trkpt lat="53.2704698245" lon="-2.0724790017"><ele>306</ele><time>2012-12-08T14:42:49Z</time></trkpt>
<trkpt lat="53.2703346570" lon="-2.0724905014"><ele>307</ele><time>2012-12-08T14:43:04Z</time></trkpt>
<trkpt lat="53.2702155113" lon="-2.0726256688"><ele>309</ele><time>2012-12-08T14:43:34Z</time></trkpt>
<trkpt lat="53.2701180140" lon="-2.0728115002"><ele>311</ele><time>2012-12-08T14:43:46Z</time></trkpt>
<trkpt lat="53.2700081825" lon="-2.0729443312"><ele>313</ele><time>2012-12-08T14:43:57Z</time></trkpt>
<trkpt lat="53.2699076653" lon="-2.0730996688"><ele>316</ele><time>2012-12-08T14:44:31Z</time></trkpt>
<trkpt lat="53.2698129972" lon="-2.0732795000"><ele>316</ele><time>2012-12-08T14:44:45Z</time></trkpt>
<trkpt lat="53.2697204908" lon="-2.0734649976"><ele>316</ele><time>2012-12-08T14:44:57Z</time></trkpt>
<trkpt lat="53.2696231524" lon="-2.0736728350"><ele>316</ele><time>2012-12-08T14:45:07Z</time></trkpt>
<trkpt lat="53.2695388476" lon="-2.0738493363"><ele>316</ele><time>2012-12-08T14:45:17Z</time></trkpt>
<trkpt lat="53.2694534938" lon="-2.0740361691"><ele>315</ele><time>2012-12-08T14:45:27Z</time></trkpt>
<trkpt lat="53.2693601608" lon="-2.0742258310"><ele>315</ele><time>2012-12-08T14:45:38Z</time></trkpt>
<trkpt lat="53.2692601522" lon="-2.0743946632"><ele>315</ele><time>2012-12-08T14:45:49Z</time></trkpt>
<trkpt lat="53.2691619873" lon="-2.0745580037"><ele>315</ele><time>2012-12-08T14:45:59Z</time></trkpt>
<trkpt lat="53.2690664927" lon="-2.0747348309"><ele>315</ele><time>2012-12-08T14:46:11Z</time></trkpt>
<trkpt lat="53.2689603488" lon="-2.0749006669"><ele>316</ele><time>2012-12-08T14:46:22Z</time></trkpt>
<trkpt lat="53.2688398361" lon="-2.0750360012"><ele>316</ele><time>2012-12-08T14:46:33Z</time></trkpt>
<trkpt lat="53.2687170029" lon="-2.0751513322"><ele>316</ele><time>2012-12-08T14:46:44Z</time></trkpt>
<trkpt lat="53.2686704954" lon="-2.0753821691"><ele>315</ele><time>2012-12-08T14:47:16Z</time></trkpt>
<trkpt lat="53.2686291695" lon="-2.0756018321"><ele>315</ele><time>2012-12-08T14:47:27Z</time></trkpt>
<trkpt lat="53.2685759862" lon="-2.0758163373"><ele>314</ele><time>2012-12-08T14:47:38Z</time></trkpt>
<trkpt lat="53.2685460091" lon="-2.0760396640"><ele>314</ele><time>2012-12-08T14:47:48Z</time></trkpt>
<trkpt lat="53.2684936523" lon="-2.0762546698"><ele>310</ele><time>2012-12-08T14:48:29Z</time></trkpt>
<trkpt lat="53.2684575081" lon="-2.0764930010"><ele>308</ele><time>2012-12-08T14:48:40Z</time></trkpt>
<trkpt lat="53.2684126536" lon="-2.0767193317"><ele>306</ele><time>2012-12-08T14:48:51Z</time></trkpt>
<trkpt lat="53.2683606784" lon="-2.0769430002"><ele>305</ele><time>2012-12-08T14:49:02Z</time></trkpt>
<trkpt lat="53.2683156649" lon="-2.0771601677"><ele>305</ele><time>2012-12-08T14:49:12Z</time></trkpt>
<trkpt lat="53.2682733218" lon="-2.0773760001"><ele>304</ele><time>2012-12-08T14:49:22Z</time></trkpt>
<trkpt lat="53.2682073275" lon="-2.0775796652"><ele>300</ele><time>2012-12-08T14:49:43Z</time></trkpt>
<trkpt lat="53.2682605108" lon="-2.0777969996"><ele>298</ele><time>2012-12-08T14:49:57Z</time></trkpt>
<trkpt lat="53.2682169914" lon="-2.0780239979"><ele>296</ele><time>2012-12-08T14:50:14Z</time></trkpt>
<trkpt lat="53.2681051572" lon="-2.0781541665"><ele>294</ele><time>2012-12-08T14:50:24Z</time></trkpt>
<trkpt lat="53.2679855029" lon="-2.0782821655"><ele>291</ele><time>2012-12-08T14:50:36Z</time></trkpt>
<trkpt lat="53.2678625107" lon="-2.0783830007"><ele>287</ele><time>2012-12-08T14:50:49Z</time></trkpt>
<trkpt lat="53.2677526792" lon="-2.0785351674"><ele>285</ele><time>2012-12-08T14:51:01Z</time></trkpt>
<trkpt lat="53.2676390012" lon="-2.0786583344"><ele>283</ele><time>2012-12-08T14:51:16Z</time></trkpt>
<trkpt lat="53.2676311811" lon="-2.0788831631"><ele>281</ele><time>2012-12-08T14:51:38Z</time></trkpt>
<trkpt lat="53.2674923261" lon="-2.0788906654"><ele>281</ele><time>2012-12-08T14:52:03Z</time></trkpt>
<trkpt lat="53.2673533440" lon="-2.0789601644"><ele>283</ele><time>2012-12-08T14:52:24Z</time></trkpt>
<trkpt lat="53.2672218323" lon="-2.0790228367"><ele>284</ele><time>2012-12-08T14:52:39Z</time></trkpt>
<trkpt lat="53.2670913378" lon="-2.0790959994"><ele>287</ele><time>2012-12-08T14:52:57Z</time></trkpt>
<trkpt lat="53.2669816653" lon="-2.0792343299"><ele>289</ele><time>2012-12-08T14:53:14Z</time></trkpt>
<trkpt lat="53.2669098218" lon="-2.0794283311"><ele>294</ele><time>2012-12-08T14:53:32Z</time></trkpt>
<trkpt lat="53.2668711662" lon="-2.0796496630"><ele>300</ele><time>2012-12-08T14:53:49Z</time></trkpt>
<trkpt lat="53.2668525060" lon="-2.0798836629"><ele>302</ele><time>2012-12-08T14:54:05Z</time></trkpt>
<trkpt lat="53.2668113391" lon="-2.0801096678"><ele>305</ele><time>2012-12-08T14:54:21Z</time></trkpt>
<trkpt lat="53.2667519887" lon="-2.0803171635"><ele>307</ele><time>2012-12-08T14:54:35Z</time></trkpt>
<trkpt lat="53.2666163286" lon="-2.0803331693"><ele>310</ele><time>2012-12-08T14:55:27Z</time></trkpt>
<trkpt lat="53.2665465037" lon="-2.0801341693"><ele>310</ele><time>2012-12-08T14:55:44Z</time></trkpt>
<trkpt lat="53.2664155006" lon="-2.0800580025"><ele>310</ele><time>2012-12-08T14:55:58Z</time></trkpt>
<trkpt lat="53.2662840048" lon="-2.0800079981"><ele>311</ele><time>2012-12-08T14:56:26Z</time></trkpt>
<trkpt lat="53.2661556721" lon="-2.0799213330"><ele>315</ele><time>2012-12-08T14:57:00Z</time></trkpt>
<trkpt lat="53.2660121600" lon="-2.0799468358"><ele>315</ele><time>2012-12-08T14:57:14Z</time></trkpt>
<trkpt lat="53.2658668359" lon="-2.0799768368"><ele>316</ele><time>2012-12-08T14:57:28Z</time></trkpt>
<trkpt lat="53.2657255014" lon="-2.0799338341"><ele>317</ele><time>2012-12-08T14:57:40Z</time></trkpt>
<trkpt lat="53.2655886650" lon="-2.0798866669"><ele>318</ele><time>2012-12-08T14:57:52Z</time></trkpt>
<trkpt lat="53.2654489994" lon="-2.0798073371"><ele>320</ele><time>2012-12-08T14:58:04Z</time></trkpt>
<trkpt lat="53.2653153261" lon="-2.0797423363"><ele>320</ele><time>2012-12-08T14:58:15Z</time></trkpt>
<trkpt lat="53.2651789983" lon="-2.0796816667"><ele>324</ele><time>2012-12-08T14:58:28Z</time></trkpt>
<trkpt lat="53.2650479952" lon="-2.0796156645"><ele>325</ele><time>2012-12-08T14:58:40Z</time></trkpt>
<trkpt lat="53.2649146716" lon="-2.0795743306"><ele>327</ele><time>2012-12-08T14:58:59Z</time></trkpt>
<trkpt lat="53.2647771676" lon="-2.0795109987"><ele>329</ele><time>2012-12-08T14:59:26Z</time></trkpt>
<trkpt lat="53.2646485011" lon="-2.0794010003"><ele>330</ele><time>2012-12-08T14:59:41Z</time></trkpt>
<trkpt lat="53.2645180066" lon="-2.0793244998"><ele>331</ele><time>2012-12-08T14:59:54Z</time></trkpt>
<trkpt lat="53.2643826644" lon="-2.0792631706"><ele>332</ele><time>2012-12-08T15:00:08Z</time></trkpt>
<trkpt lat="53.2642419974" lon="-2.0791923364"><ele>334</ele><time>2012-12-08T15:00:23Z</time></trkpt>
<trkpt lat="53.2641068300" lon="-2.0791341702"><ele>338</ele><time>2012-12-08T15:00:38Z</time></trkpt>
<trkpt lat="53.2639716625" lon="-2.0790838321"><ele>341</ele><time>2012-12-08T15:00:50Z</time></trkpt>
<trkpt lat="53.2638398329" lon="-2.0790150007"><ele>344</ele><time>2012-12-08T15:01:04Z</time></trkpt>
<trkpt lat="53.2637023290" lon="-2.0789701700"><ele>346</ele><time>2012-12-08T15:01:19Z</time></trkpt>
<trkpt lat="53.2635706743" lon="-2.0789048354"><ele>348</ele><time>2012-12-08T15:01:38Z</time></trkpt>
<trkpt lat="53.2634383361" lon="-2.0787878354"><ele>350</ele><time>2012-12-08T15:01:57Z</time></trkpt>
<trkpt lat="53.2633033276" lon="-2.0787698348"><ele>352</ele><time>2012-12-08T15:02:12Z</time></trkpt>
<trkpt lat="53.2631606738" lon="-2.0787601630"><ele>353</ele><time>2012-12-08T15:02:25Z</time></trkpt>
<trkpt lat="53.2630213261" lon="-2.0787026644"><ele>354</ele><time>2012-12-08T15:02:38Z</time></trkpt>
<trkpt lat="53.2628835042" lon="-2.0786650022"><ele>357</ele><time>2012-12-08T15:02:58Z</time></trkpt>
<trkpt lat="53.2627651691" lon="-2.0785471678"><ele>357</ele><time>2012-12-08T15:03:11Z</time></trkpt>
<trkpt lat="53.2626561642" lon="-2.0784025033"><ele>359</ele><time>2012-12-08T15:03:25Z</time></trkpt>
<trkpt lat="53.2625288328" lon="-2.0782933315"><ele>360</ele><time>2012-12-08T15:03:46Z</time></trkpt>
<trkpt lat="53.2624018351" lon="-2.0781785011"><ele>360</ele><time>2012-12-08T15:03:58Z</time></trkpt>
<trkpt lat="53.2622741699" lon="-2.0780721664"><ele>361</ele><time>2012-12-08T15:04:10Z</time></trkpt>
<trkpt lat="53.2621526718" lon="-2.0779549996"><ele>363</ele><time>2012-12-08T15:04:22Z</time></trkpt>
<trkpt lat="53.2620266596" lon="-2.0778643370"><ele>363</ele><time>2012-12-08T15:04:34Z</time></trkpt>
<trkpt lat="53.2619003296" lon="-2.0777659973"><ele>364</ele><time>2012-12-08T15:04:46Z</time></trkpt>
<trkpt lat="53.2617688338" lon="-2.0776585023"><ele>365</ele><time>2012-12-08T15:04:58Z</time></trkpt>
<trkpt lat="53.2616453330" lon="-2.0775406679"><ele>366</ele><time>2012-12-08T15:05:09Z</time></trkpt>
<trkpt lat="53.2615208308" lon="-2.0774116675"><ele>367</ele><time>2012-12-08T15:05:20Z</time></trkpt>
<trkpt lat="53.2613955021" lon="-2.0772798300"><ele>368</ele><time>2012-12-08T15:05:31Z</time></trkpt>
<trkpt lat="53.2612730026" lon="-2.0771596670"><ele>369</ele><time>2012-12-08T15:05:42Z</time></trkpt>
<trkpt lat="53.2611483256" lon="-2.0770380020"><ele>370</ele><time>2012-12-08T15:05:53Z</time></trkpt>
<trkpt lat="53.2610254924" lon="-2.0769343297"><ele>371</ele><time>2012-12-08T15:06:04Z</time></trkpt>
<trkpt lat="53.2609041691" lon="-2.0768145005"><ele>371</ele><time>2012-12-08T15:06:15Z</time></trkpt>
<trkpt lat="53.2607635021" lon="-2.0767748356"><ele>370</ele><time>2012-12-08T15:06:33Z</time></trkpt>
<trkpt lat="53.2606183370" lon="-2.0767654975"><ele>371</ele><time>2012-12-08T15:06:44Z</time></trkpt>
<trkpt lat="53.2604729970" lon="-2.0767553329"><ele>371</ele><time>2012-12-08T15:06:55Z</time></trkpt>
<trkpt lat="53.2603353341" lon="-2.0767226696"><ele>372</ele><time>2012-12-08T15:07:05Z</time></trkpt>
<trkpt lat="53.2601946672" lon="-2.0766884963"><ele>372</ele><time>2012-12-08T15:07:15Z</time></trkpt>
<trkpt lat="53.2600470066" lon="-2.0766586701"><ele>370</ele><time>2012-12-08T15:07:26Z</time></trkpt>
<trkpt lat="53.2598969936" lon="-2.0766481638"><ele>371</ele><time>2012-12-08T15:07:39Z</time></trkpt>
<trkpt lat="53.2597611745" lon="-2.0766051690"><ele>375</ele><time>2012-12-08T15:07:54Z</time></trkpt>
<trkpt lat="53.2596165021" lon="-2.0765598297"><ele>376</ele><time>2012-12-08T15:08:06Z</time></trkpt>
<trkpt lat="53.2594811598" lon="-2.0765256643"><ele>376</ele><time>2012-12-08T15:08:16Z</time></trkpt>
<trkpt lat="53.2593395074" lon="-2.0764561653"><ele>375</ele><time>2012-12-08T15:08:26Z</time></trkpt>
<trkpt lat="53.2592011611" lon="-2.0763715029"><ele>375</ele><time>2012-12-08T15:08:37Z</time></trkpt>
<trkpt lat="53.2590691725" lon="-2.0762964964"><ele>374</ele><time>2012-12-08T15:08:48Z</time></trkpt>
<trkpt lat="53.2589306672" lon="-2.0762356679"><ele>373</ele><time>2012-12-08T15:08:58Z</time></trkpt>
<trkpt lat="53.2587956587" lon="-2.0761588335"><ele>372</ele><time>2012-12-08T15:09:08Z</time></trkpt>
<trkpt lat="53.2586678346" lon="-2.0760696650"><ele>370</ele><time>2012-12-08T15:09:18Z</time></trkpt>
<trkpt lat="53.2585444927" lon="-2.0759766658"><ele>369</ele><time>2012-12-08T15:09:34Z</time></trkpt>
<trkpt lat="53.2584050020" lon="-2.0760049979"><ele>366</ele><time>2012-12-08T15:09:51Z</time></trkpt>
<trkpt lat="53.2582643350" lon="-2.0759605010"><ele>365</ele><time>2012-12-08T15:10:02Z</time></trkpt>
<trkpt lat="53.2581208388" lon="-2.0759096702"><ele>364</ele><time>2012-12-08T15:10:12Z</time></trkpt>
<trkpt lat="53.2579809984" lon="-2.0758466641"><ele>363</ele><time>2012-12-08T15:10:22Z</time></trkpt>
<trkpt lat="53.2578421593" lon="-2.0757478317"><ele>363</ele><time>2012-12-08T15:10:32Z</time></trkpt>
<trkpt lat="53.2577339967" lon="-2.0756123304"><ele>363</ele><time>2012-12-08T15:10:43Z</time></trkpt>
<trkpt lat="53.2576001644" lon="-2.0755763372"><ele>363</ele><time>2012-12-08T15:11:22Z</time></trkpt>
<trkpt lat="53.2574593385" lon="-2.0755763372"><ele>361</ele><time>2012-12-08T15:11:43Z</time></trkpt>
<trkpt lat="53.2573506673" lon="-2.0757356644"><ele>359</ele><time>2012-12-08T15:11:55Z</time></trkpt>
<trkpt lat="53.2572383404" lon="-2.0758721670"><ele>358</ele><time>2012-12-08T15:12:07Z</time></trkpt>
<trkpt lat="53.2571093400" lon="-2.0759763320"><ele>357</ele><time>2012-12-08T15:12:18Z</time></trkpt>
<trkpt lat="53.2569993337" lon="-2.0761268298"><ele>356</ele><time>2012-12-08T15:12:29Z</time></trkpt>
<trkpt lat="53.2568868319" lon="-2.0762628317"><ele>355</ele><time>2012-12-08T15:12:39Z</time></trkpt>
<trkpt lat="53.2567639987" lon="-2.0763853312"><ele>354</ele><time>2012-12-08T15:12:49Z</time></trkpt>
<trkpt lat="53.2566388289" lon="-2.0765374978"><ele>353</ele><time>2012-12-08T15:12:59Z</time></trkpt>
<trkpt lat="53.2565124989" lon="-2.0766671658"><ele>349</ele><time>2012-12-08T15:13:10Z</time></trkpt>
<trkpt lat="53.2563956738" lon="-2.0767879963"><ele>349</ele><time>2012-12-08T15:13:26Z</time></trkpt>
<trkpt lat="53.2562815030" lon="-2.0769431671"><ele>348</ele><time>2012-12-08T15:13:36Z</time></trkpt>
<trkpt lat="53.2561758359" lon="-2.0770866632"><ele>347</ele><time>2012-12-08T15:13:46Z</time></trkpt>
<trkpt lat="53.2560663382" lon="-2.0772311687"><ele>346</ele><time>2012-12-08T15:14:59Z</time></trkpt>
<trkpt lat="53.2559535027" lon="-2.0773698330"><ele>346</ele><time>2012-12-08T15:15:13Z</time></trkpt>
<trkpt lat="53.2558579922" lon="-2.0775345008"><ele>347</ele><time>2012-12-08T15:15:25Z</time></trkpt>
<trkpt lat="53.2557474931" lon="-2.0776781638"><ele>347</ele><time>2012-12-08T15:15:36Z</time></trkpt>
<trkpt lat="53.2556518396" lon="-2.0778410037"><ele>348</ele><time>2012-12-08T15:15:47Z</time></trkpt>
<trkpt lat="53.2555439949" lon="-2.0779946645"><ele>348</ele><time>2012-12-08T15:15:57Z</time></trkpt>
<trkpt lat="53.2554368337" lon="-2.0781430006"><ele>350</ele><time>2012-12-08T15:16:17Z</time></trkpt>
<trkpt lat="53.2553414981" lon="-2.0783053319"><ele>349</ele><time>2012-12-08T15:16:28Z</time></trkpt>
<trkpt lat="53.2552348296" lon="-2.0784746647"><ele>349</ele><time>2012-12-08T15:16:41Z</time></trkpt>
<trkpt lat="53.2551219940" lon="-2.0786238352"><ele>349</ele><time>2012-12-08T15:16:52Z</time></trkpt>
<trkpt lat="53.2550138315" lon="-2.0787613312"><ele>349</ele><time>2012-12-08T15:17:02Z</time></trkpt>
<trkpt lat="53.2549164931" lon="-2.0789191643"><ele>348</ele><time>2012-12-08T15:17:13Z</time></trkpt>
<trkpt lat="53.2547983329" lon="-2.0790796677"><ele>348</ele><time>2012-12-08T15:17:24Z</time></trkpt>
<trkpt lat="53.2546918392" lon="-2.0792318344"><ele>348</ele><time>2012-12-08T15:17:34Z</time></trkpt>
<trkpt lat="53.2545839945" lon="-2.0793939988"><ele>347</ele><time>2012-12-08T15:17:45Z</time></trkpt>
<trkpt lat="53.2544730028" lon="-2.0795461655"><ele>347</ele><time>2012-12-08T15:17:56Z</time></trkpt>
<trkpt lat="53.2543626626" lon="-2.0797073364"><ele>347</ele><time>2012-12-08T15:18:08Z</time></trkpt>
<trkpt lat="53.2542556604" lon="-2.0798676650"><ele>348</ele><time>2012-12-08T15:18:19Z</time></trkpt>
<trkpt lat="53.2541468302" lon="-2.0800165017"><ele>349</ele><time>2012-12-08T15:18:31Z</time></trkpt>
<trkpt lat="53.2540381591" lon="-2.0801626682"><ele>349</ele><time>2012-12-08T15:18:41Z</time></trkpt>
<trkpt lat="53.2539330006" lon="-2.0803273360"><ele>349</ele><time>2012-12-08T15:18:52Z</time></trkpt>
<trkpt lat="53.2538226604" lon="-2.0804900010"><ele>348</ele><time>2012-12-08T15:19:02Z</time></trkpt>
<trkpt lat="53.2537128290" lon="-2.0806416670"><ele>347</ele><time>2012-12-08T15:19:12Z</time></trkpt>
<trkpt lat="53.2536088308" lon="-2.0807861646"><ele>347</ele><time>2012-12-08T15:19:34Z</time></trkpt>
<trkpt lat="53.2535785039" lon="-2.0810170015"><ele>347</ele><time>2012-12-08T15:19:46Z</time></trkpt>
<trkpt lat="53.2535288334" lon="-2.0812461694"><ele>346</ele><time>2012-12-08T15:19:58Z</time></trkpt>
<trkpt lat="53.2533998330" lon="-2.0813680013"><ele>346</ele><time>2012-12-08T15:20:19Z</time></trkpt>
<trkpt lat="53.2532878399" lon="-2.0812381665"><ele>345</ele><time>2012-12-08T15:20:33Z</time></trkpt>
<trkpt lat="53.2532538255" lon="-2.0810201645"><ele>346</ele><time>2012-12-08T15:20:46Z</time></trkpt>
<trkpt lat="53.2532173316" lon="-2.0807903369"><ele>347</ele><time>2012-12-08T15:21:01Z</time></trkpt>
<trkpt lat="53.2531870047" lon="-2.0805691640"><ele>348</ele><time>2012-12-08T15:21:13Z</time></trkpt>
<trkpt lat="53.2531791687" lon="-2.0803380013"><ele>351</ele><time>2012-12-08T15:21:25Z</time></trkpt>
<trkpt lat="53.2531538328" lon="-2.0801073313"><ele>352</ele><time>2012-12-08T15:21:39Z</time></trkpt>
<trkpt lat="53.2530966600" lon="-2.0798974991"><ele>355</ele><time>2012-12-08T15:21:56Z</time></trkpt>
<trkpt lat="53.2529971600" lon="-2.0797444979"><ele>355</ele><time>2012-12-08T15:22:09Z</time></trkpt>
<trkpt lat="53.2528856595" lon="-2.0796120008"><ele>356</ele><time>2012-12-08T15:22:23Z</time></trkpt>
<trkpt lat="53.2527816614" lon="-2.0794449965"><ele>359</ele><time>2012-12-08T15:22:36Z</time></trkpt>
<trkpt lat="53.2526768366" lon="-2.0792903344"><ele>360</ele><time>2012-12-08T15:22:48Z</time></trkpt>
<trkpt lat="53.2525644938" lon="-2.0791548332"><ele>363</ele><time>2012-12-08T15:23:01Z</time></trkpt>
<trkpt lat="53.2524343332" lon="-2.0790673335"><ele>365</ele><time>2012-12-08T15:23:13Z</time></trkpt>
<trkpt lat="53.2523006598" lon="-2.0790220022"><ele>366</ele><time>2012-12-08T15:23:24Z</time></trkpt>
<trkpt lat="53.2521563371" lon="-2.0789861679"><ele>366</ele><time>2012-12-08T15:23:35Z</time></trkpt>
<trkpt lat="53.2520118395" lon="-2.0789466699"><ele>366</ele><time>2012-12-08T15:23:47Z</time></trkpt>
<trkpt lat="53.2518716653" lon="-2.0788873355"><ele>369</ele><time>2012-12-08T15:23:58Z</time></trkpt>
<trkpt lat="53.2517371655" lon="-2.0788376649"><ele>369</ele><time>2012-12-08T15:24:09Z</time></trkpt>
<trkpt lat="53.2515979926" lon="-2.0787870010"><ele>370</ele><time>2012-12-08T15:24:20Z</time></trkpt>
<trkpt lat="53.2514663378" lon="-2.0788710038"><ele>369</ele><time>2012-12-08T15:24:32Z</time></trkpt>
<trkpt lat="53.2513296604" lon="-2.0789179961"><ele>370</ele><time>2012-12-08T15:24:43Z</time></trkpt>
<trkpt lat="53.2511866728" lon="-2.0789278348"><ele>371</ele><time>2012-12-08T15:24:54Z</time></trkpt>
<trkpt lat="53.2510506630" lon="-2.0789304972"><ele>370</ele><time>2012-12-08T15:25:05Z</time></trkpt>
<trkpt lat="53.2508989970" lon="-2.0789628347"><ele>370</ele><time>2012-12-08T15:25:15Z</time></trkpt>
<trkpt lat="53.2507526716" lon="-2.0789865017"><ele>370</ele><time>2012-12-08T15:25:25Z</time></trkpt>
<trkpt lat="53.2506058375" lon="-2.0790003300"><ele>368</ele><time>2012-12-08T15:25:56Z</time></trkpt>
<trkpt lat="53.2504676660" lon="-2.0790506681"><ele>367</ele><time>2012-12-08T15:26:24Z</time></trkpt>
<trkpt lat="53.2503314972" lon="-2.0790971677"><ele>365</ele><time>2012-12-08T15:26:53Z</time></trkpt>
<trkpt lat="53.2501943270" lon="-2.0790414969"><ele>366</ele><time>2012-12-08T15:27:05Z</time></trkpt>
<trkpt lat="53.2500789960" lon="-2.0789235036"><ele>366</ele><time>2012-12-08T15:27:34Z</time></trkpt>
<trkpt lat="53.2499460061" lon="-2.0788706700"><ele>367</ele><time>2012-12-08T15:27:45Z</time></trkpt>
<trkpt lat="53.2498088360" lon="-2.0788686673"><ele>367</ele><time>2012-12-08T15:27:56Z</time></trkpt>
<trkpt lat="53.2496661663" lon="-2.0788596630"><ele>367</ele><time>2012-12-08T15:28:06Z</time></trkpt>
<trkpt lat="53.2495258331" lon="-2.0788318316"><ele>367</ele><time>2012-12-08T15:29:06Z</time></trkpt>
<trkpt lat="53.2493855000" lon="-2.0787901640"><ele>368</ele><time>2012-12-08T15:29:19Z</time></trkpt>
<trkpt lat="53.2492459933" lon="-2.0787799994"><ele>367</ele><time>2012-12-08T15:29:30Z</time></trkpt>
<trkpt lat="53.2491078377" lon="-2.0787729979"><ele>367</ele><time>2012-12-08T15:29:42Z</time></trkpt>
<trkpt lat="53.2489658356" lon="-2.0787810008"><ele>367</ele><time>2012-12-08T15:29:54Z</time></trkpt>
<trkpt lat="53.2488210042" lon="-2.0788014968"><ele>366</ele><time>2012-12-08T15:30:04Z</time></trkpt>
<trkpt lat="53.2486876647" lon="-2.0788681666"><ele>365</ele><time>2012-12-08T15:30:16Z</time></trkpt>
<trkpt lat="53.2485541662" lon="-2.0789436658"><ele>365</ele><time>2012-12-08T15:30:28Z</time></trkpt>
<trkpt lat="53.2484124978" lon="-2.0789761702"><ele>366</ele><time>2012-12-08T15:30:41Z</time></trkpt>
<trkpt lat="53.2482643286" lon="-2.0789805015"><ele>366</ele><time>2012-12-08T15:30:52Z</time></trkpt>
<trkpt lat="53.2481308301" lon="-2.0790136655"><ele>363</ele><time>2012-12-08T15:31:21Z</time></trkpt>
<trkpt lat="53.2480179946" lon="-2.0791608334"><ele>362</ele><time>2012-12-08T15:31:34Z</time></trkpt>
<trkpt lat="53.2479346593" lon="-2.0793516636"><ele>359</ele><time>2012-12-08T15:31:46Z</time></trkpt>
<trkpt lat="53.2478286743" lon="-2.0795041641"><ele>358</ele><time>2012-12-08T15:31:58Z</time></trkpt>
<trkpt lat="53.2476956685" lon="-2.0795473337"><ele>357</ele><time>2012-12-08T15:32:09Z</time></trkpt>
<trkpt lat="53.2475683371" lon="-2.0796720028"><ele>357</ele><time>2012-12-08T15:32:21Z</time></trkpt>
<trkpt lat="53.2475101630" lon="-2.0798801661"><ele>357</ele><time>2012-12-08T15:32:33Z</time></trkpt>
<trkpt lat="53.2475008329" lon="-2.0801156680"><ele>356</ele><time>2012-12-08T15:32:44Z</time></trkpt>
<trkpt lat="53.2475518386" lon="-2.0803294977"><ele>356</ele><time>2012-12-08T15:33:14Z</time></trkpt>
<trkpt lat="53.2476611614" lon="-2.0804796696"><ele>356</ele><time>2012-12-08T15:33:25Z</time></trkpt>
<trkpt lat="53.2477736632" lon="-2.0806208372"><ele>356</ele><time>2012-12-08T15:33:36Z</time></trkpt>
<trkpt lat="53.2479036649" lon="-2.0806919972"><ele>356</ele><time>2012-12-08T15:33:47Z</time></trkpt>
<trkpt lat="53.2480360031" lon="-2.0807475011"><ele>356</ele><time>2012-12-08T15:33:58Z</time></trkpt>
<trkpt lat="53.2481705030" lon="-2.0808476686"><ele>356</ele><time>2012-12-08T15:34:10Z</time></trkpt>
<trkpt lat="53.2482941628" lon="-2.0809478362"><ele>356</ele><time>2012-12-08T15:34:22Z</time></trkpt>
<trkpt lat="53.2482704957" lon="-2.0811691682"><ele>353</ele><time>2012-12-08T15:35:07Z</time></trkpt>
<trkpt lat="53.2482228279" lon="-2.0813939969"><ele>353</ele><time>2012-12-08T15:35:23Z</time></trkpt>
<trkpt lat="53.2481506666" lon="-2.0815908353"><ele>347</ele><time>2012-12-08T15:35:39Z</time></trkpt>
<trkpt lat="53.2480315049" lon="-2.0817253351"><ele>345</ele><time>2012-12-08T15:35:51Z</time></trkpt>
<trkpt lat="53.2479186694" lon="-2.0818509976"><ele>344</ele><time>2012-12-08T15:36:03Z</time></trkpt>
<trkpt lat="53.2478103320" lon="-2.0819928328"><ele>342</ele><time>2012-12-08T15:36:18Z</time></trkpt>
<trkpt lat="53.2476961613" lon="-2.0821228345"><ele>337</ele><time>2012-12-08T15:36:34Z</time></trkpt>
<trkpt lat="53.2476158301" lon="-2.0823043346"><ele>335</ele><time>2012-12-08T15:36:48Z</time></trkpt>
<trkpt lat="53.2475458304" lon="-2.0825068315"><ele>332</ele><time>2012-12-08T15:37:02Z</time></trkpt>
<trkpt lat="53.2474876722" lon="-2.0827179988"><ele>330</ele><time>2012-12-08T15:37:18Z</time></trkpt>
<trkpt lat="53.2474341710" lon="-2.0829243342"><ele>327</ele><time>2012-12-08T15:37:36Z</time></trkpt>
<trkpt lat="53.2473604997" lon="-2.0831173340"><ele>323</ele><time>2012-12-08T15:37:51Z</time></trkpt>
<trkpt lat="53.2472661654" lon="-2.0832866669"><ele>319</ele><time>2012-12-08T15:38:05Z</time></trkpt>
<trkpt lat="53.2471536636" lon="-2.0834189971"><ele>317</ele><time>2012-12-08T15:38:17Z</time></trkpt>
<trkpt lat="53.2470486641" lon="-2.0835611661"><ele>312</ele><time>2012-12-08T15:38:33Z</time></trkpt>
<trkpt lat="53.2469351610" lon="-2.0836980025"><ele>309</ele><time>2012-12-08T15:38:52Z</time></trkpt>
<trkpt lat="53.2468046665" lon="-2.0837768316"><ele>305</ele><time>2012-12-08T15:39:09Z</time></trkpt>
<trkpt lat="53.2466794968" lon="-2.0838636637"><ele>299</ele><time>2012-12-08T15:39:30Z</time></trkpt>
<trkpt lat="53.2465610027" lon="-2.0839741627"><ele>296</ele><time>2012-12-08T15:39:48Z</time></trkpt>
<trkpt lat="53.2464639982" lon="-2.0841388305"><ele>294</ele><time>2012-12-08T15:40:03Z</time></trkpt>
<trkpt lat="53.2463321686" lon="-2.0842125018"><ele>292</ele><time>2012-12-08T15:40:15Z</time></trkpt>
<trkpt lat="53.2462101618" lon="-2.0843180021"><ele>288</ele><time>2012-12-08T15:40:28Z</time></trkpt>
<trkpt lat="53.2460810026" lon="-2.0844243368"><ele>287</ele><time>2012-12-08T15:40:45Z</time></trkpt>
<trkpt lat="53.2459504922" lon="-2.0844918331"><ele>284</ele><time>2012-12-08T15:40:57Z</time></trkpt>
<trkpt lat="53.2458156745" lon="-2.0845223347"><ele>282</ele><time>2012-12-08T15:41:11Z</time></trkpt>
<trkpt lat="53.2456778367" lon="-2.0845806678"><ele>281</ele><time>2012-12-08T15:41:24Z</time></trkpt>
<trkpt lat="53.2455403328" lon="-2.0845580022"><ele>279</ele><time>2012-12-08T15:41:36Z</time></trkpt>
<trkpt lat="53.2454023361" lon="-2.0845308304"><ele>277</ele><time>2012-12-08T15:41:49Z</time></trkpt>
<trkpt lat="53.2452789942" lon="-2.0844220002"><ele>276</ele><time>2012-12-08T15:42:06Z</time></trkpt>
<trkpt lat="53.2451495012" lon="-2.0843329986"><ele>275</ele><time>2012-12-08T15:42:20Z</time></trkpt>
<trkpt lat="53.2450076739" lon="-2.0842923323"><ele>273</ele><time>2012-12-08T15:42:35Z</time></trkpt>
<trkpt lat="53.2448611736" lon="-2.0842916648"><ele>271</ele><time>2012-12-08T15:42:50Z</time></trkpt>
<trkpt lat="53.2447278341" lon="-2.0842301687"><ele>268</ele><time>2012-12-08T15:43:04Z</time></trkpt>
<trkpt lat="53.2445730050" lon="-2.0841793299"><ele>266</ele><time>2012-12-08T15:43:17Z</time></trkpt>
<trkpt lat="53.2444375038" lon="-2.0841183345"><ele>263</ele><time>2012-12-08T15:43:27Z</time></trkpt>
<trkpt lat="53.2443120003" lon="-2.0840310017"><ele>259</ele><time>2012-12-08T15:43:41Z</time></trkpt>
<trkpt lat="53.2441763401" lon="-2.0840365012"><ele>256</ele><time>2012-12-08T15:44:00Z</time></trkpt>
<trkpt lat="53.2440509955" lon="-2.0839336634"><ele>254</ele><time>2012-12-08T15:44:11Z</time></trkpt>
<trkpt lat="53.2439183394" lon="-2.0838891665"><ele>253</ele><time>2012-12-08T15:44:25Z</time></trkpt>
<trkpt lat="53.2437916597" lon="-2.0837686698"><ele>250</ele><time>2012-12-08T15:44:40Z</time></trkpt>
<trkpt lat="53.2436646620" lon="-2.0836713314"><ele>243</ele><time>2012-12-08T15:45:17Z</time></trkpt>
<trkpt lat="53.2435404936" lon="-2.0835701704"><ele>238</ele><time>2012-12-08T15:45:52Z</time></trkpt>
<trkpt lat="53.2435261726" lon="-2.0833326658"><ele>232</ele><time>2012-12-08T15:46:23Z</time></trkpt>
<trkpt lat="53.2434208393" lon="-2.0831744989"><ele>230</ele><time>2012-12-08T15:46:37Z</time></trkpt>
<trkpt lat="53.2434918404" lon="-2.0829831680"><ele>227</ele><time>2012-12-08T15:47:00Z</time></trkpt>
<trkpt lat="53.2434131622" lon="-2.0827908357"><ele>222</ele><time>2012-12-08T15:48:08Z</time></trkpt>
</trkseg>
</trk>
</gpx>